<?xml version="1.0" encoding="UTF-8" standalone="no" ?>
<gpx xmlns="http://www.topografix.com/GPX/1/1" xmlns:xsi="http://www.w3.org/2001/XMLSchema-instance" xsi:schemaLocation="http://www.topografix.com/GPX/1/1 http://www.topografix.com/GPX/1/1/gpx.xsd" version="1.1" creator="VisuGPX - https://www.visugpx.com">
  <metadata>
    <name>Mont Granier</name>
    <desc><![CDATA[Circuit au départ de La Plagne par le Col de l\'Alpette, aller à la Porte de l\'Alpette, retour au Pas des Barres, traversée en descente de la forêt de l\'Alpette, passage au pas de La Porte, montée à la Croix du Granier, puis au sommet du Granier. Retour par la Balme à Colon.]]></desc>
  </metadata>
  <trk>
    <name><![CDATA[ACTIVE LOG075711]]></name>
    <trkseg>
      <trkpt lat="45.44078" lon="5.90681">
        <ele>1151.528</ele>
        <time>2011-06-26T07:58:06Z</time>
      </trkpt>
      <trkpt lat="45.44085" lon="5.90699">
        <ele>1152.923</ele>
        <time>2011-06-26T07:58:14Z</time>
      </trkpt>
      <trkpt lat="45.44085" lon="5.90708">
        <ele>1153.118</ele>
        <time>2011-06-26T07:58:18Z</time>
      </trkpt>
      <trkpt lat="45.44075" lon="5.90735">
        <ele>1155.785</ele>
        <time>2011-06-26T07:58:36Z</time>
      </trkpt>
      <trkpt lat="45.44074" lon="5.90757">
        <ele>1157.974</ele>
        <time>2011-06-26T07:58:52Z</time>
      </trkpt>
      <trkpt lat="45.44084" lon="5.90779">
        <ele>1159.948</ele>
        <time>2011-06-26T07:59:11Z</time>
      </trkpt>
      <trkpt lat="45.44093" lon="5.90799">
        <ele>1161.528</ele>
        <time>2011-06-26T07:59:28Z</time>
      </trkpt>
      <trkpt lat="45.44097" lon="5.90809">
        <ele>1162.238</ele>
        <time>2011-06-26T07:59:36Z</time>
      </trkpt>
      <trkpt lat="45.44101" lon="5.90827">
        <ele>1163.329</ele>
        <time>2011-06-26T07:59:47Z</time>
      </trkpt>
      <trkpt lat="45.44101" lon="5.90837">
        <ele>1163.974</ele>
        <time>2011-06-26T07:59:53Z</time>
      </trkpt>
      <trkpt lat="45.44099" lon="5.90843">
        <ele>1164.918</ele>
        <time>2011-06-26T07:59:57Z</time>
      </trkpt>
      <trkpt lat="45.44094" lon="5.90851">
        <ele>1165.037</ele>
        <time>2011-06-26T08:00:03Z</time>
      </trkpt>
      <trkpt lat="45.44084" lon="5.90872">
        <ele>1166.522</ele>
        <time>2011-06-26T08:00:18Z</time>
      </trkpt>
      <trkpt lat="45.4408" lon="5.90887">
        <ele>1167.937</ele>
        <time>2011-06-26T08:00:28Z</time>
      </trkpt>
      <trkpt lat="45.44078" lon="5.90896">
        <ele>1168.281</ele>
        <time>2011-06-26T08:00:34Z</time>
      </trkpt>
      <trkpt lat="45.44075" lon="5.90915">
        <ele>1169.945</ele>
        <time>2011-06-26T08:00:46Z</time>
      </trkpt>
      <trkpt lat="45.44064" lon="5.9094">
        <ele>1172.152</ele>
        <time>2011-06-26T08:01:05Z</time>
      </trkpt>
      <trkpt lat="45.44045" lon="5.90935">
        <ele>1173.708</ele>
        <time>2011-06-26T08:01:22Z</time>
      </trkpt>
      <trkpt lat="45.4404" lon="5.90934">
        <ele>1173.861</ele>
        <time>2011-06-26T08:01:26Z</time>
      </trkpt>
      <trkpt lat="45.44038" lon="5.90936">
        <ele>1174.291</ele>
        <time>2011-06-26T08:01:28Z</time>
      </trkpt>
      <trkpt lat="45.44033" lon="5.90948">
        <ele>1176.001</ele>
        <time>2011-06-26T08:01:40Z</time>
      </trkpt>
      <trkpt lat="45.44036" lon="5.90974">
        <ele>1178.283</ele>
        <time>2011-06-26T08:01:57Z</time>
      </trkpt>
      <trkpt lat="45.44038" lon="5.90992">
        <ele>1178.684</ele>
        <time>2011-06-26T08:02:09Z</time>
      </trkpt>
      <trkpt lat="45.44037" lon="5.91007">
        <ele>1178.54</ele>
        <time>2011-06-26T08:02:16Z</time>
      </trkpt>
      <trkpt lat="45.44038" lon="5.91012">
        <ele>1178.399</ele>
        <time>2011-06-26T08:02:19Z</time>
      </trkpt>
      <trkpt lat="45.4404" lon="5.91027">
        <ele>1178.185</ele>
        <time>2011-06-26T08:02:29Z</time>
      </trkpt>
      <trkpt lat="45.4404" lon="5.9104">
        <ele>1178.095</ele>
        <time>2011-06-26T08:02:36Z</time>
      </trkpt>
      <trkpt lat="45.44042" lon="5.91051">
        <ele>1177.546</ele>
        <time>2011-06-26T08:02:42Z</time>
      </trkpt>
      <trkpt lat="45.44052" lon="5.91069">
        <ele>1177.504</ele>
        <time>2011-06-26T08:02:54Z</time>
      </trkpt>
      <trkpt lat="45.44053" lon="5.91078">
        <ele>1177.936</ele>
        <time>2011-06-26T08:03:00Z</time>
      </trkpt>
      <trkpt lat="45.44051" lon="5.91088">
        <ele>1177.983</ele>
        <time>2011-06-26T08:03:06Z</time>
      </trkpt>
      <trkpt lat="45.44046" lon="5.91104">
        <ele>1178.198</ele>
        <time>2011-06-26T08:03:16Z</time>
      </trkpt>
      <trkpt lat="45.44045" lon="5.9111">
        <ele>1177.95</ele>
        <time>2011-06-26T08:03:20Z</time>
      </trkpt>
      <trkpt lat="45.44043" lon="5.91122">
        <ele>1177.042</ele>
        <time>2011-06-26T08:03:27Z</time>
      </trkpt>
      <trkpt lat="45.44039" lon="5.91142">
        <ele>1176.431</ele>
        <time>2011-06-26T08:03:40Z</time>
      </trkpt>
      <trkpt lat="45.44031" lon="5.91174">
        <ele>1177.627</ele>
        <time>2011-06-26T08:03:59Z</time>
      </trkpt>
      <trkpt lat="45.44028" lon="5.9118">
        <ele>1178.43</ele>
        <time>2011-06-26T08:04:03Z</time>
      </trkpt>
      <trkpt lat="45.44019" lon="5.91183">
        <ele>1179.008</ele>
        <time>2011-06-26T08:04:10Z</time>
      </trkpt>
      <trkpt lat="45.43998" lon="5.91182">
        <ele>1179.563</ele>
        <time>2011-06-26T08:04:25Z</time>
      </trkpt>
      <trkpt lat="45.43992" lon="5.91192">
        <ele>1181.442</ele>
        <time>2011-06-26T08:04:34Z</time>
      </trkpt>
      <trkpt lat="45.43995" lon="5.91221">
        <ele>1183.932</ele>
        <time>2011-06-26T08:04:53Z</time>
      </trkpt>
      <trkpt lat="45.44013" lon="5.91238">
        <ele>1186.837</ele>
        <time>2011-06-26T08:05:12Z</time>
      </trkpt>
      <trkpt lat="45.44016" lon="5.9124">
        <ele>1187.142</ele>
        <time>2011-06-26T08:05:15Z</time>
      </trkpt>
      <trkpt lat="45.44023" lon="5.91257">
        <ele>1191.422</ele>
        <time>2011-06-26T08:05:32Z</time>
      </trkpt>
      <trkpt lat="45.44034" lon="5.9127">
        <ele>1194.215</ele>
        <time>2011-06-26T08:05:49Z</time>
      </trkpt>
      <trkpt lat="45.44048" lon="5.91273">
        <ele>1194.269</ele>
        <time>2011-06-26T08:06:02Z</time>
      </trkpt>
      <trkpt lat="45.44063" lon="5.91275">
        <ele>1195.946</ele>
        <time>2011-06-26T08:06:17Z</time>
      </trkpt>
      <trkpt lat="45.44073" lon="5.91283">
        <ele>1199.127</ele>
        <time>2011-06-26T08:06:35Z</time>
      </trkpt>
      <trkpt lat="45.44087" lon="5.91302">
        <ele>1202.302</ele>
        <time>2011-06-26T08:06:54Z</time>
      </trkpt>
      <trkpt lat="45.44086" lon="5.91311">
        <ele>1204.299</ele>
        <time>2011-06-26T08:07:03Z</time>
      </trkpt>
      <trkpt lat="45.44088" lon="5.91326">
        <ele>1207.294</ele>
        <time>2011-06-26T08:07:17Z</time>
      </trkpt>
      <trkpt lat="45.44091" lon="5.91336">
        <ele>1209.091</ele>
        <time>2011-06-26T08:07:28Z</time>
      </trkpt>
      <trkpt lat="45.44098" lon="5.91341">
        <ele>1209.451</ele>
        <time>2011-06-26T08:07:36Z</time>
      </trkpt>
      <trkpt lat="45.4411" lon="5.91342">
        <ele>1210.762</ele>
        <time>2011-06-26T08:07:46Z</time>
      </trkpt>
      <trkpt lat="45.44122" lon="5.91334">
        <ele>1210.773</ele>
        <time>2011-06-26T08:07:57Z</time>
      </trkpt>
      <trkpt lat="45.44126" lon="5.91335">
        <ele>1210.679</ele>
        <time>2011-06-26T08:08:00Z</time>
      </trkpt>
      <trkpt lat="45.44137" lon="5.91336">
        <ele>1212.69</ele>
        <time>2011-06-26T08:08:11Z</time>
      </trkpt>
      <trkpt lat="45.44153" lon="5.91344">
        <ele>1214.974</ele>
        <time>2011-06-26T08:08:28Z</time>
      </trkpt>
      <trkpt lat="45.44159" lon="5.91345">
        <ele>1215.684</ele>
        <time>2011-06-26T08:08:34Z</time>
      </trkpt>
      <trkpt lat="45.44171" lon="5.91333">
        <ele>1218.575</ele>
        <time>2011-06-26T08:08:53Z</time>
      </trkpt>
      <trkpt lat="45.44181" lon="5.91324">
        <ele>1221.086</ele>
        <time>2011-06-26T08:09:08Z</time>
      </trkpt>
      <trkpt lat="45.44193" lon="5.91315">
        <ele>1222.156</ele>
        <time>2011-06-26T08:09:21Z</time>
      </trkpt>
      <trkpt lat="45.442" lon="5.91306">
        <ele>1222.985</ele>
        <time>2011-06-26T08:09:30Z</time>
      </trkpt>
      <trkpt lat="45.44203" lon="5.913">
        <ele>1223.588</ele>
        <time>2011-06-26T08:09:35Z</time>
      </trkpt>
      <trkpt lat="45.44204" lon="5.91296">
        <ele>1223.888</ele>
        <time>2011-06-26T08:09:38Z</time>
      </trkpt>
      <trkpt lat="45.44204" lon="5.91293">
        <ele>1223.942</ele>
        <time>2011-06-26T08:09:40Z</time>
      </trkpt>
      <trkpt lat="45.44226" lon="5.91271">
        <ele>1226.521</ele>
        <time>2011-06-26T08:10:04Z</time>
      </trkpt>
      <trkpt lat="45.44238" lon="5.91268">
        <ele>1227.314</ele>
        <time>2011-06-26T08:10:15Z</time>
      </trkpt>
      <trkpt lat="45.44254" lon="5.9127">
        <ele>1230.555</ele>
        <time>2011-06-26T08:10:31Z</time>
      </trkpt>
      <trkpt lat="45.44269" lon="5.91266">
        <ele>1232.182</ele>
        <time>2011-06-26T08:10:45Z</time>
      </trkpt>
      <trkpt lat="45.44285" lon="5.91259">
        <ele>1231.704</ele>
        <time>2011-06-26T08:11:00Z</time>
      </trkpt>
      <trkpt lat="45.443" lon="5.91268">
        <ele>1233.51</ele>
        <time>2011-06-26T08:11:15Z</time>
      </trkpt>
      <trkpt lat="45.44319" lon="5.91272">
        <ele>1234.808</ele>
        <time>2011-06-26T08:11:32Z</time>
      </trkpt>
      <trkpt lat="45.44329" lon="5.9127">
        <ele>1235.224</ele>
        <time>2011-06-26T08:11:41Z</time>
      </trkpt>
      <trkpt lat="45.44347" lon="5.91267">
        <ele>1235.255</ele>
        <time>2011-06-26T08:11:56Z</time>
      </trkpt>
      <trkpt lat="45.44358" lon="5.9127">
        <ele>1236.354</ele>
        <time>2011-06-26T08:12:05Z</time>
      </trkpt>
      <trkpt lat="45.44359" lon="5.91272">
        <ele>1236.415</ele>
        <time>2011-06-26T08:12:07Z</time>
      </trkpt>
      <trkpt lat="45.44371" lon="5.91273">
        <ele>1237.985</ele>
        <time>2011-06-26T08:12:19Z</time>
      </trkpt>
      <trkpt lat="45.44383" lon="5.91276">
        <ele>1239.616</ele>
        <time>2011-06-26T08:12:30Z</time>
      </trkpt>
      <trkpt lat="45.44397" lon="5.91281">
        <ele>1240.84</ele>
        <time>2011-06-26T08:12:44Z</time>
      </trkpt>
      <trkpt lat="45.444" lon="5.91282">
        <ele>1240.583</ele>
        <time>2011-06-26T08:12:56Z</time>
      </trkpt>
      <trkpt lat="45.44399" lon="5.91294">
        <ele>1242.668</ele>
        <time>2011-06-26T08:13:08Z</time>
      </trkpt>
      <trkpt lat="45.44397" lon="5.91296">
        <ele>1243.052</ele>
        <time>2011-06-26T08:13:11Z</time>
      </trkpt>
      <trkpt lat="45.44388" lon="5.91305">
        <ele>1246.166</ele>
        <time>2011-06-26T08:13:25Z</time>
      </trkpt>
      <trkpt lat="45.44386" lon="5.91311">
        <ele>1246.898</ele>
        <time>2011-06-26T08:13:30Z</time>
      </trkpt>
      <trkpt lat="45.4438" lon="5.91324">
        <ele>1248.753</ele>
        <time>2011-06-26T08:13:43Z</time>
      </trkpt>
      <trkpt lat="45.44381" lon="5.91338">
        <ele>1252.227</ele>
        <time>2011-06-26T08:14:00Z</time>
      </trkpt>
      <trkpt lat="45.44381" lon="5.91346">
        <ele>1253.651</ele>
        <time>2011-06-26T08:14:08Z</time>
      </trkpt>
      <trkpt lat="45.44366" lon="5.9136">
        <ele>1256.902</ele>
        <time>2011-06-26T08:14:25Z</time>
      </trkpt>
      <trkpt lat="45.44361" lon="5.91364">
        <ele>1258.261</ele>
        <time>2011-06-26T08:14:34Z</time>
      </trkpt>
      <trkpt lat="45.44347" lon="5.91372">
        <ele>1260.56</ele>
        <time>2011-06-26T08:14:49Z</time>
      </trkpt>
      <trkpt lat="45.44341" lon="5.91381">
        <ele>1263.792</ele>
        <time>2011-06-26T08:15:05Z</time>
      </trkpt>
      <trkpt lat="45.44341" lon="5.91386">
        <ele>1265.473</ele>
        <time>2011-06-26T08:15:12Z</time>
      </trkpt>
      <trkpt lat="45.44336" lon="5.91396">
        <ele>1266.777</ele>
        <time>2011-06-26T08:15:22Z</time>
      </trkpt>
      <trkpt lat="45.44331" lon="5.91407">
        <ele>1269.438</ele>
        <time>2011-06-26T08:15:38Z</time>
      </trkpt>
      <trkpt lat="45.44327" lon="5.91412">
        <ele>1271.939</ele>
        <time>2011-06-26T08:15:49Z</time>
      </trkpt>
      <trkpt lat="45.44329" lon="5.91425">
        <ele>1274.84</ele>
        <time>2011-06-26T08:16:03Z</time>
      </trkpt>
      <trkpt lat="45.44333" lon="5.91436">
        <ele>1277.22</ele>
        <time>2011-06-26T08:16:17Z</time>
      </trkpt>
      <trkpt lat="45.44338" lon="5.91445">
        <ele>1280.283</ele>
        <time>2011-06-26T08:16:30Z</time>
      </trkpt>
      <trkpt lat="45.44341" lon="5.91454">
        <ele>1282.721</ele>
        <time>2011-06-26T08:16:41Z</time>
      </trkpt>
      <trkpt lat="45.44335" lon="5.91469">
        <ele>1286.209</ele>
        <time>2011-06-26T08:16:56Z</time>
      </trkpt>
      <trkpt lat="45.4433" lon="5.91482">
        <ele>1289.141</ele>
        <time>2011-06-26T08:17:12Z</time>
      </trkpt>
      <trkpt lat="45.44321" lon="5.91486">
        <ele>1291.224</ele>
        <time>2011-06-26T08:17:26Z</time>
      </trkpt>
      <trkpt lat="45.44319" lon="5.915">
        <ele>1294.041</ele>
        <time>2011-06-26T08:17:41Z</time>
      </trkpt>
      <trkpt lat="45.44313" lon="5.9151">
        <ele>1296.56</ele>
        <time>2011-06-26T08:17:55Z</time>
      </trkpt>
      <trkpt lat="45.44309" lon="5.91522">
        <ele>1299.646</ele>
        <time>2011-06-26T08:18:11Z</time>
      </trkpt>
      <trkpt lat="45.44304" lon="5.91526">
        <ele>1301.363</ele>
        <time>2011-06-26T08:18:19Z</time>
      </trkpt>
      <trkpt lat="45.44302" lon="5.91538">
        <ele>1304.909</ele>
        <time>2011-06-26T08:18:35Z</time>
      </trkpt>
      <trkpt lat="45.44297" lon="5.91541">
        <ele>1307.17</ele>
        <time>2011-06-26T08:18:47Z</time>
      </trkpt>
      <trkpt lat="45.44295" lon="5.9155">
        <ele>1308.901</ele>
        <time>2011-06-26T08:18:58Z</time>
      </trkpt>
      <trkpt lat="45.44292" lon="5.91557">
        <ele>1311.438</ele>
        <time>2011-06-26T08:19:10Z</time>
      </trkpt>
      <trkpt lat="45.44285" lon="5.91561">
        <ele>1313.225</ele>
        <time>2011-06-26T08:19:21Z</time>
      </trkpt>
      <trkpt lat="45.44276" lon="5.91567">
        <ele>1315.9</ele>
        <time>2011-06-26T08:19:36Z</time>
      </trkpt>
      <trkpt lat="45.44279" lon="5.91576">
        <ele>1318.029</ele>
        <time>2011-06-26T08:19:48Z</time>
      </trkpt>
      <trkpt lat="45.44269" lon="5.91581">
        <ele>1319.772</ele>
        <time>2011-06-26T08:19:58Z</time>
      </trkpt>
      <trkpt lat="45.44261" lon="5.9159">
        <ele>1322.75</ele>
        <time>2011-06-26T08:20:14Z</time>
      </trkpt>
      <trkpt lat="45.44262" lon="5.91598">
        <ele>1324.153</ele>
        <time>2011-06-26T08:20:25Z</time>
      </trkpt>
      <trkpt lat="45.44262" lon="5.916">
        <ele>1325.277</ele>
        <time>2011-06-26T08:20:30Z</time>
      </trkpt>
      <trkpt lat="45.44261" lon="5.9161">
        <ele>1328.06</ele>
        <time>2011-06-26T08:20:43Z</time>
      </trkpt>
      <trkpt lat="45.44263" lon="5.91617">
        <ele>1329.775</ele>
        <time>2011-06-26T08:20:55Z</time>
      </trkpt>
      <trkpt lat="45.44268" lon="5.91621">
        <ele>1332.524</ele>
        <time>2011-06-26T08:21:06Z</time>
      </trkpt>
      <trkpt lat="45.44267" lon="5.91632">
        <ele>1335.275</ele>
        <time>2011-06-26T08:21:22Z</time>
      </trkpt>
      <trkpt lat="45.44268" lon="5.91638">
        <ele>1337.431</ele>
        <time>2011-06-26T08:21:34Z</time>
      </trkpt>
      <trkpt lat="45.44272" lon="5.91637">
        <ele>1339.531</ele>
        <time>2011-06-26T08:21:45Z</time>
      </trkpt>
      <trkpt lat="45.44277" lon="5.91628">
        <ele>1342.319</ele>
        <time>2011-06-26T08:21:59Z</time>
      </trkpt>
      <trkpt lat="45.44286" lon="5.91631">
        <ele>1344.391</ele>
        <time>2011-06-26T08:22:14Z</time>
      </trkpt>
      <trkpt lat="45.44291" lon="5.91624">
        <ele>1347.611</ele>
        <time>2011-06-26T08:22:25Z</time>
      </trkpt>
      <trkpt lat="45.44298" lon="5.91634">
        <ele>1350.19</ele>
        <time>2011-06-26T08:22:40Z</time>
      </trkpt>
      <trkpt lat="45.44304" lon="5.91643">
        <ele>1353.728</ele>
        <time>2011-06-26T08:23:00Z</time>
      </trkpt>
      <trkpt lat="45.44307" lon="5.91641">
        <ele>1355.131</ele>
        <time>2011-06-26T08:23:17Z</time>
      </trkpt>
      <trkpt lat="45.44314" lon="5.91644">
        <ele>1358.247</ele>
        <time>2011-06-26T08:23:33Z</time>
      </trkpt>
      <trkpt lat="45.44316" lon="5.91647">
        <ele>1359.865</ele>
        <time>2011-06-26T08:23:44Z</time>
      </trkpt>
      <trkpt lat="45.44313" lon="5.91659">
        <ele>1363.723</ele>
        <time>2011-06-26T08:24:02Z</time>
      </trkpt>
      <trkpt lat="45.44312" lon="5.91666">
        <ele>1366.571</ele>
        <time>2011-06-26T08:24:19Z</time>
      </trkpt>
      <trkpt lat="45.44313" lon="5.91667">
        <ele>1367.869</ele>
        <time>2011-06-26T08:24:24Z</time>
      </trkpt>
      <trkpt lat="45.44319" lon="5.91667">
        <ele>1370.335</ele>
        <time>2011-06-26T08:24:37Z</time>
      </trkpt>
      <trkpt lat="45.44323" lon="5.91669">
        <ele>1372.326</ele>
        <time>2011-06-26T08:24:48Z</time>
      </trkpt>
      <trkpt lat="45.44316" lon="5.91677">
        <ele>1374.995</ele>
        <time>2011-06-26T08:25:04Z</time>
      </trkpt>
      <trkpt lat="45.44313" lon="5.91684">
        <ele>1377.303</ele>
        <time>2011-06-26T08:25:18Z</time>
      </trkpt>
      <trkpt lat="45.44315" lon="5.91684">
        <ele>1378.254</ele>
        <time>2011-06-26T08:25:23Z</time>
      </trkpt>
      <trkpt lat="45.44322" lon="5.91686">
        <ele>1381.058</ele>
        <time>2011-06-26T08:25:37Z</time>
      </trkpt>
      <trkpt lat="45.4433" lon="5.91687">
        <ele>1383.829</ele>
        <time>2011-06-26T08:25:50Z</time>
      </trkpt>
      <trkpt lat="45.44332" lon="5.91692">
        <ele>1385.646</ele>
        <time>2011-06-26T08:26:01Z</time>
      </trkpt>
      <trkpt lat="45.44336" lon="5.91699">
        <ele>1387.366</ele>
        <time>2011-06-26T08:26:11Z</time>
      </trkpt>
      <trkpt lat="45.44335" lon="5.91706">
        <ele>1390.645</ele>
        <time>2011-06-26T08:26:25Z</time>
      </trkpt>
      <trkpt lat="45.44334" lon="5.91713">
        <ele>1393.356</ele>
        <time>2011-06-26T08:26:39Z</time>
      </trkpt>
      <trkpt lat="45.44335" lon="5.91722">
        <ele>1396.567</ele>
        <time>2011-06-26T08:26:53Z</time>
      </trkpt>
      <trkpt lat="45.44338" lon="5.91723">
        <ele>1398.593</ele>
        <time>2011-06-26T08:27:04Z</time>
      </trkpt>
      <trkpt lat="45.44346" lon="5.91726">
        <ele>1401.133</ele>
        <time>2011-06-26T08:27:17Z</time>
      </trkpt>
      <trkpt lat="45.44353" lon="5.91733">
        <ele>1404.135</ele>
        <time>2011-06-26T08:27:30Z</time>
      </trkpt>
      <trkpt lat="45.44355" lon="5.91738">
        <ele>1406.794</ele>
        <time>2011-06-26T08:27:44Z</time>
      </trkpt>
      <trkpt lat="45.44355" lon="5.91742">
        <ele>1407.999</ele>
        <time>2011-06-26T08:27:50Z</time>
      </trkpt>
      <trkpt lat="45.44346" lon="5.91745">
        <ele>1411.03</ele>
        <time>2011-06-26T08:28:05Z</time>
      </trkpt>
      <trkpt lat="45.44343" lon="5.91756">
        <ele>1413.408</ele>
        <time>2011-06-26T08:28:21Z</time>
      </trkpt>
      <trkpt lat="45.44344" lon="5.91763">
        <ele>1415.814</ele>
        <time>2011-06-26T08:28:33Z</time>
      </trkpt>
      <trkpt lat="45.4435" lon="5.91765">
        <ele>1418.846</ele>
        <time>2011-06-26T08:28:47Z</time>
      </trkpt>
      <trkpt lat="45.4435" lon="5.91783">
        <ele>1422.119</ele>
        <time>2011-06-26T08:29:03Z</time>
      </trkpt>
      <trkpt lat="45.44347" lon="5.91794">
        <ele>1424.905</ele>
        <time>2011-06-26T08:29:15Z</time>
      </trkpt>
      <trkpt lat="45.44341" lon="5.918">
        <ele>1427.201</ele>
        <time>2011-06-26T08:29:28Z</time>
      </trkpt>
      <trkpt lat="45.4434" lon="5.91808">
        <ele>1428.769</ele>
        <time>2011-06-26T08:29:39Z</time>
      </trkpt>
      <trkpt lat="45.44338" lon="5.91813">
        <ele>1429.468</ele>
        <time>2011-06-26T08:29:41Z</time>
      </trkpt>
      <trkpt lat="45.44335" lon="5.91822">
        <ele>1431.055</ele>
        <time>2011-06-26T08:29:53Z</time>
      </trkpt>
      <trkpt lat="45.44335" lon="5.91835">
        <ele>1434.128</ele>
        <time>2011-06-26T08:30:08Z</time>
      </trkpt>
      <trkpt lat="45.44326" lon="5.91839">
        <ele>1436.115</ele>
        <time>2011-06-26T08:30:20Z</time>
      </trkpt>
      <trkpt lat="45.44325" lon="5.91843">
        <ele>1438.107</ele>
        <time>2011-06-26T08:30:29Z</time>
      </trkpt>
      <trkpt lat="45.44319" lon="5.91844">
        <ele>1439.931</ele>
        <time>2011-06-26T08:30:40Z</time>
      </trkpt>
      <trkpt lat="45.44314" lon="5.9185">
        <ele>1442.73</ele>
        <time>2011-06-26T08:30:55Z</time>
      </trkpt>
      <trkpt lat="45.44305" lon="5.91858">
        <ele>1444.976</ele>
        <time>2011-06-26T08:31:09Z</time>
      </trkpt>
      <trkpt lat="45.44298" lon="5.91861">
        <ele>1447.048</ele>
        <time>2011-06-26T08:31:17Z</time>
      </trkpt>
      <trkpt lat="45.44294" lon="5.91865">
        <ele>1447.209</ele>
        <time>2011-06-26T08:31:19Z</time>
      </trkpt>
      <trkpt lat="45.44287" lon="5.91857">
        <ele>1449.365</ele>
        <time>2011-06-26T08:31:35Z</time>
      </trkpt>
      <trkpt lat="45.44286" lon="5.91857">
        <ele>1449.339</ele>
        <time>2011-06-26T08:31:38Z</time>
      </trkpt>
      <trkpt lat="45.44286" lon="5.9185">
        <ele>1451.181</ele>
        <time>2011-06-26T08:31:48Z</time>
      </trkpt>
      <trkpt lat="45.44285" lon="5.91838">
        <ele>1454.32</ele>
        <time>2011-06-26T08:32:03Z</time>
      </trkpt>
      <trkpt lat="45.44275" lon="5.91832">
        <ele>1456.481</ele>
        <time>2011-06-26T08:32:15Z</time>
      </trkpt>
      <trkpt lat="45.44269" lon="5.91824">
        <ele>1458.682</ele>
        <time>2011-06-26T08:32:27Z</time>
      </trkpt>
      <trkpt lat="45.4426" lon="5.91818">
        <ele>1461.655</ele>
        <time>2011-06-26T08:32:40Z</time>
      </trkpt>
      <trkpt lat="45.44259" lon="5.91815">
        <ele>1464.427</ele>
        <time>2011-06-26T08:32:55Z</time>
      </trkpt>
      <trkpt lat="45.44246" lon="5.9181">
        <ele>1467.079</ele>
        <time>2011-06-26T08:33:07Z</time>
      </trkpt>
      <trkpt lat="45.44243" lon="5.91804">
        <ele>1469.064</ele>
        <time>2011-06-26T08:33:16Z</time>
      </trkpt>
      <trkpt lat="45.44246" lon="5.91796">
        <ele>1471.357</ele>
        <time>2011-06-26T08:33:30Z</time>
      </trkpt>
      <trkpt lat="45.4424" lon="5.91793">
        <ele>1472.981</ele>
        <time>2011-06-26T08:33:39Z</time>
      </trkpt>
      <trkpt lat="45.44235" lon="5.91787">
        <ele>1476.334</ele>
        <time>2011-06-26T08:33:52Z</time>
      </trkpt>
      <trkpt lat="45.44233" lon="5.91778">
        <ele>1478.928</ele>
        <time>2011-06-26T08:34:06Z</time>
      </trkpt>
      <trkpt lat="45.44231" lon="5.9177">
        <ele>1481.343</ele>
        <time>2011-06-26T08:34:21Z</time>
      </trkpt>
      <trkpt lat="45.44229" lon="5.91777">
        <ele>1483.513</ele>
        <time>2011-06-26T08:34:47Z</time>
      </trkpt>
      <trkpt lat="45.4423" lon="5.91791">
        <ele>1486.081</ele>
        <time>2011-06-26T08:35:02Z</time>
      </trkpt>
      <trkpt lat="45.44233" lon="5.91804">
        <ele>1489.561</ele>
        <time>2011-06-26T08:35:18Z</time>
      </trkpt>
      <trkpt lat="45.44231" lon="5.91816">
        <ele>1492.925</ele>
        <time>2011-06-26T08:35:36Z</time>
      </trkpt>
      <trkpt lat="45.44228" lon="5.9181">
        <ele>1494.818</ele>
        <time>2011-06-26T08:35:46Z</time>
      </trkpt>
      <trkpt lat="45.44224" lon="5.91803">
        <ele>1497.636</ele>
        <time>2011-06-26T08:36:02Z</time>
      </trkpt>
      <trkpt lat="45.44226" lon="5.91819">
        <ele>1500.816</ele>
        <time>2011-06-26T08:36:18Z</time>
      </trkpt>
      <trkpt lat="45.44223" lon="5.91824">
        <ele>1504.435</ele>
        <time>2011-06-26T08:36:32Z</time>
      </trkpt>
      <trkpt lat="45.4422" lon="5.91835">
        <ele>1507.921</ele>
        <time>2011-06-26T08:36:50Z</time>
      </trkpt>
      <trkpt lat="45.44214" lon="5.91841">
        <ele>1511.143</ele>
        <time>2011-06-26T08:37:07Z</time>
      </trkpt>
      <trkpt lat="45.44205" lon="5.91842">
        <ele>1514.465</ele>
        <time>2011-06-26T08:37:25Z</time>
      </trkpt>
      <trkpt lat="45.44201" lon="5.91855">
        <ele>1517.806</ele>
        <time>2011-06-26T08:37:42Z</time>
      </trkpt>
      <trkpt lat="45.44201" lon="5.91866">
        <ele>1521.082</ele>
        <time>2011-06-26T08:37:57Z</time>
      </trkpt>
      <trkpt lat="45.44194" lon="5.91871">
        <ele>1524.189</ele>
        <time>2011-06-26T08:38:12Z</time>
      </trkpt>
      <trkpt lat="45.44184" lon="5.9188">
        <ele>1527.246</ele>
        <time>2011-06-26T08:38:28Z</time>
      </trkpt>
      <trkpt lat="45.44183" lon="5.91891">
        <ele>1527.395</ele>
        <time>2011-06-26T08:38:44Z</time>
      </trkpt>
      <trkpt lat="45.44183" lon="5.91894">
        <ele>1527.868</ele>
        <time>2011-06-26T08:38:56Z</time>
      </trkpt>
      <trkpt lat="45.44183" lon="5.9189">
        <ele>1527.594</ele>
        <time>2011-06-26T08:39:06Z</time>
      </trkpt>
      <trkpt lat="45.44181" lon="5.91894">
        <ele>1528.203</ele>
        <time>2011-06-26T08:39:27Z</time>
      </trkpt>
      <trkpt lat="45.44181" lon="5.919">
        <ele>1528.35</ele>
        <time>2011-06-26T08:39:30Z</time>
      </trkpt>
      <trkpt lat="45.44177" lon="5.91944">
        <ele>1528.921</ele>
        <time>2011-06-26T08:39:55Z</time>
      </trkpt>
      <trkpt lat="45.44175" lon="5.91991">
        <ele>1530.334</ele>
        <time>2011-06-26T08:40:24Z</time>
      </trkpt>
      <trkpt lat="45.44174" lon="5.92019">
        <ele>1531.774</ele>
        <time>2011-06-26T08:40:42Z</time>
      </trkpt>
      <trkpt lat="45.44177" lon="5.92046">
        <ele>1535.124</ele>
        <time>2011-06-26T08:41:01Z</time>
      </trkpt>
      <trkpt lat="45.44174" lon="5.92087">
        <ele>1537.187</ele>
        <time>2011-06-26T08:41:27Z</time>
      </trkpt>
      <trkpt lat="45.44181" lon="5.92127">
        <ele>1536.671</ele>
        <time>2011-06-26T08:41:50Z</time>
      </trkpt>
      <trkpt lat="45.44184" lon="5.92148">
        <ele>1535.502</ele>
        <time>2011-06-26T08:42:02Z</time>
      </trkpt>
      <trkpt lat="45.44194" lon="5.92164">
        <ele>1537.395</ele>
        <time>2011-06-26T08:43:26Z</time>
      </trkpt>
      <trkpt lat="45.44199" lon="5.92168">
        <ele>1537.479</ele>
        <time>2011-06-26T08:43:31Z</time>
      </trkpt>
      <trkpt lat="45.44207" lon="5.92191">
        <ele>1537.959</ele>
        <time>2011-06-26T08:43:47Z</time>
      </trkpt>
      <trkpt lat="45.44208" lon="5.92194">
        <ele>1537.842</ele>
        <time>2011-06-26T08:43:49Z</time>
      </trkpt>
      <trkpt lat="45.44208" lon="5.92202">
        <ele>1538.039</ele>
        <time>2011-06-26T08:43:54Z</time>
      </trkpt>
      <trkpt lat="45.44206" lon="5.92205">
        <ele>1537.732</ele>
        <time>2011-06-26T08:43:57Z</time>
      </trkpt>
      <trkpt lat="45.44206" lon="5.92214">
        <ele>1537.243</ele>
        <time>2011-06-26T08:44:02Z</time>
      </trkpt>
      <trkpt lat="45.44202" lon="5.92221">
        <ele>1536.778</ele>
        <time>2011-06-26T08:44:16Z</time>
      </trkpt>
      <trkpt lat="45.44202" lon="5.92224">
        <ele>1536.811</ele>
        <time>2011-06-26T08:45:32Z</time>
      </trkpt>
      <trkpt lat="45.44201" lon="5.92227">
        <ele>1537.053</ele>
        <time>2011-06-26T08:45:34Z</time>
      </trkpt>
      <trkpt lat="45.44191" lon="5.92246">
        <ele>1538.147</ele>
        <time>2011-06-26T08:46:00Z</time>
      </trkpt>
      <trkpt lat="45.44201" lon="5.92256">
        <ele>1535.261</ele>
        <time>2011-06-26T08:46:11Z</time>
      </trkpt>
      <trkpt lat="45.44204" lon="5.92255">
        <ele>1534.702</ele>
        <time>2011-06-26T08:46:14Z</time>
      </trkpt>
      <trkpt lat="45.44207" lon="5.92258">
        <ele>1533.286</ele>
        <time>2011-06-26T08:46:17Z</time>
      </trkpt>
      <trkpt lat="45.44217" lon="5.92269">
        <ele>1530.442</ele>
        <time>2011-06-26T08:46:27Z</time>
      </trkpt>
      <trkpt lat="45.44231" lon="5.92304">
        <ele>1531.807</ele>
        <time>2011-06-26T08:46:52Z</time>
      </trkpt>
      <trkpt lat="45.44236" lon="5.92324">
        <ele>1534.564</ele>
        <time>2011-06-26T08:47:08Z</time>
      </trkpt>
      <trkpt lat="45.44242" lon="5.92349">
        <ele>1535.294</ele>
        <time>2011-06-26T08:47:26Z</time>
      </trkpt>
      <trkpt lat="45.44253" lon="5.92372">
        <ele>1534.247</ele>
        <time>2011-06-26T08:47:44Z</time>
      </trkpt>
      <trkpt lat="45.44262" lon="5.92393">
        <ele>1535.175</ele>
        <time>2011-06-26T08:48:01Z</time>
      </trkpt>
      <trkpt lat="45.44262" lon="5.92395">
        <ele>1535.917</ele>
        <time>2011-06-26T08:48:19Z</time>
      </trkpt>
      <trkpt lat="45.44261" lon="5.92408">
        <ele>1535.069</ele>
        <time>2011-06-26T08:48:35Z</time>
      </trkpt>
      <trkpt lat="45.44263" lon="5.92413">
        <ele>1534.373</ele>
        <time>2011-06-26T08:48:40Z</time>
      </trkpt>
      <trkpt lat="45.44267" lon="5.92416">
        <ele>1533.624</ele>
        <time>2011-06-26T08:48:46Z</time>
      </trkpt>
      <trkpt lat="45.44275" lon="5.9242">
        <ele>1532.081</ele>
        <time>2011-06-26T08:48:54Z</time>
      </trkpt>
      <trkpt lat="45.44286" lon="5.9243">
        <ele>1532.544</ele>
        <time>2011-06-26T08:49:04Z</time>
      </trkpt>
      <trkpt lat="45.443" lon="5.92457">
        <ele>1532.792</ele>
        <time>2011-06-26T08:49:25Z</time>
      </trkpt>
      <trkpt lat="45.44309" lon="5.92469">
        <ele>1533.7</ele>
        <time>2011-06-26T08:49:36Z</time>
      </trkpt>
      <trkpt lat="45.44323" lon="5.92506">
        <ele>1533.09</ele>
        <time>2011-06-26T08:50:00Z</time>
      </trkpt>
      <trkpt lat="45.4434" lon="5.92543">
        <ele>1533.592</ele>
        <time>2011-06-26T08:50:26Z</time>
      </trkpt>
      <trkpt lat="45.44353" lon="5.92555">
        <ele>1535.014</ele>
        <time>2011-06-26T08:50:40Z</time>
      </trkpt>
      <trkpt lat="45.44371" lon="5.92589">
        <ele>1535.052</ele>
        <time>2011-06-26T08:51:05Z</time>
      </trkpt>
      <trkpt lat="45.44382" lon="5.92608">
        <ele>1535.203</ele>
        <time>2011-06-26T08:51:20Z</time>
      </trkpt>
      <trkpt lat="45.44396" lon="5.92627">
        <ele>1537.439</ele>
        <time>2011-06-26T08:51:37Z</time>
      </trkpt>
      <trkpt lat="45.44413" lon="5.92652">
        <ele>1538.521</ele>
        <time>2011-06-26T08:51:58Z</time>
      </trkpt>
      <trkpt lat="45.44428" lon="5.92671">
        <ele>1540.261</ele>
        <time>2011-06-26T08:52:17Z</time>
      </trkpt>
      <trkpt lat="45.44445" lon="5.92698">
        <ele>1542.393</ele>
        <time>2011-06-26T08:52:40Z</time>
      </trkpt>
      <trkpt lat="45.4446" lon="5.9272">
        <ele>1543.428</ele>
        <time>2011-06-26T08:53:00Z</time>
      </trkpt>
      <trkpt lat="45.44467" lon="5.92734">
        <ele>1543.039</ele>
        <time>2011-06-26T08:53:23Z</time>
      </trkpt>
      <trkpt lat="45.44489" lon="5.92769">
        <ele>1543.111</ele>
        <time>2011-06-26T08:53:49Z</time>
      </trkpt>
      <trkpt lat="45.445" lon="5.92774">
        <ele>1543.257</ele>
        <time>2011-06-26T08:54:00Z</time>
      </trkpt>
      <trkpt lat="45.44515" lon="5.92779">
        <ele>1544.143</ele>
        <time>2011-06-26T08:54:14Z</time>
      </trkpt>
      <trkpt lat="45.44519" lon="5.92783">
        <ele>1544.398</ele>
        <time>2011-06-26T08:54:19Z</time>
      </trkpt>
      <trkpt lat="45.44528" lon="5.92788">
        <ele>1544.58</ele>
        <time>2011-06-26T08:54:35Z</time>
      </trkpt>
      <trkpt lat="45.44534" lon="5.92797">
        <ele>1543.133</ele>
        <time>2011-06-26T08:54:44Z</time>
      </trkpt>
      <trkpt lat="45.44544" lon="5.92799">
        <ele>1543.231</ele>
        <time>2011-06-26T08:54:53Z</time>
      </trkpt>
      <trkpt lat="45.44553" lon="5.92805">
        <ele>1545.523</ele>
        <time>2011-06-26T08:55:11Z</time>
      </trkpt>
      <trkpt lat="45.44558" lon="5.92808">
        <ele>1546.433</ele>
        <time>2011-06-26T08:55:36Z</time>
      </trkpt>
      <trkpt lat="45.44563" lon="5.92812">
        <ele>1547.269</ele>
        <time>2011-06-26T08:55:41Z</time>
      </trkpt>
      <trkpt lat="45.44577" lon="5.92818">
        <ele>1549.925</ele>
        <time>2011-06-26T08:55:57Z</time>
      </trkpt>
      <trkpt lat="45.44589" lon="5.92826">
        <ele>1553.226</ele>
        <time>2011-06-26T08:56:15Z</time>
      </trkpt>
      <trkpt lat="45.44603" lon="5.92834">
        <ele>1555.629</ele>
        <time>2011-06-26T08:56:32Z</time>
      </trkpt>
      <trkpt lat="45.44617" lon="5.92838">
        <ele>1558.677</ele>
        <time>2011-06-26T08:56:52Z</time>
      </trkpt>
      <trkpt lat="45.4462" lon="5.92839">
        <ele>1559.203</ele>
        <time>2011-06-26T08:56:56Z</time>
      </trkpt>
      <trkpt lat="45.4463" lon="5.92844">
        <ele>1561.156</ele>
        <time>2011-06-26T08:57:13Z</time>
      </trkpt>
      <trkpt lat="45.44647" lon="5.92855">
        <ele>1563.492</ele>
        <time>2011-06-26T08:57:36Z</time>
      </trkpt>
      <trkpt lat="45.44659" lon="5.92862">
        <ele>1565.489</ele>
        <time>2011-06-26T08:57:51Z</time>
      </trkpt>
      <trkpt lat="45.44671" lon="5.92864">
        <ele>1567.95</ele>
        <time>2011-06-26T08:58:05Z</time>
      </trkpt>
      <trkpt lat="45.4468" lon="5.92866">
        <ele>1570.919</ele>
        <time>2011-06-26T08:58:20Z</time>
      </trkpt>
      <trkpt lat="45.44691" lon="5.92873">
        <ele>1574.27</ele>
        <time>2011-06-26T08:58:36Z</time>
      </trkpt>
      <trkpt lat="45.44704" lon="5.92881">
        <ele>1575.15</ele>
        <time>2011-06-26T08:58:51Z</time>
      </trkpt>
      <trkpt lat="45.44719" lon="5.92903">
        <ele>1575.234</ele>
        <time>2011-06-26T08:59:10Z</time>
      </trkpt>
      <trkpt lat="45.44738" lon="5.92922">
        <ele>1576.179</ele>
        <time>2011-06-26T08:59:32Z</time>
      </trkpt>
      <trkpt lat="45.44739" lon="5.92925">
        <ele>1575.857</ele>
        <time>2011-06-26T08:59:35Z</time>
      </trkpt>
      <trkpt lat="45.44752" lon="5.92947">
        <ele>1575.085</ele>
        <time>2011-06-26T08:59:52Z</time>
      </trkpt>
      <trkpt lat="45.4476" lon="5.92959">
        <ele>1574.385</ele>
        <time>2011-06-26T09:00:02Z</time>
      </trkpt>
      <trkpt lat="45.44774" lon="5.92982">
        <ele>1574.828</ele>
        <time>2011-06-26T09:00:21Z</time>
      </trkpt>
      <trkpt lat="45.44794" lon="5.9301">
        <ele>1573.434</ele>
        <time>2011-06-26T09:00:44Z</time>
      </trkpt>
      <trkpt lat="45.44796" lon="5.93014">
        <ele>1573.816</ele>
        <time>2011-06-26T09:00:48Z</time>
      </trkpt>
      <trkpt lat="45.44805" lon="5.93027">
        <ele>1575.077</ele>
        <time>2011-06-26T09:01:08Z</time>
      </trkpt>
      <trkpt lat="45.44812" lon="5.93041">
        <ele>1571.446</ele>
        <time>2011-06-26T09:01:21Z</time>
      </trkpt>
      <trkpt lat="45.44818" lon="5.93049">
        <ele>1569.908</ele>
        <time>2011-06-26T09:01:27Z</time>
      </trkpt>
      <trkpt lat="45.44819" lon="5.93057">
        <ele>1569.928</ele>
        <time>2011-06-26T09:01:31Z</time>
      </trkpt>
      <trkpt lat="45.44833" lon="5.93086">
        <ele>1568.023</ele>
        <time>2011-06-26T09:01:49Z</time>
      </trkpt>
      <trkpt lat="45.4484" lon="5.93095">
        <ele>1567.687</ele>
        <time>2011-06-26T09:01:56Z</time>
      </trkpt>
      <trkpt lat="45.44846" lon="5.931">
        <ele>1567.526</ele>
        <time>2011-06-26T09:02:01Z</time>
      </trkpt>
      <trkpt lat="45.44847" lon="5.93103">
        <ele>1567.713</ele>
        <time>2011-06-26T09:02:03Z</time>
      </trkpt>
      <trkpt lat="45.4485" lon="5.93107">
        <ele>1568.021</ele>
        <time>2011-06-26T09:02:06Z</time>
      </trkpt>
      <trkpt lat="45.44854" lon="5.93114">
        <ele>1568.052</ele>
        <time>2011-06-26T09:02:12Z</time>
      </trkpt>
      <trkpt lat="45.44857" lon="5.93121">
        <ele>1568.415</ele>
        <time>2011-06-26T09:02:16Z</time>
      </trkpt>
      <trkpt lat="45.44859" lon="5.93127">
        <ele>1568.554</ele>
        <time>2011-06-26T09:02:20Z</time>
      </trkpt>
      <trkpt lat="45.44859" lon="5.93141">
        <ele>1568.733</ele>
        <time>2011-06-26T09:02:26Z</time>
      </trkpt>
      <trkpt lat="45.4486" lon="5.9315">
        <ele>1568.266</ele>
        <time>2011-06-26T09:02:31Z</time>
      </trkpt>
      <trkpt lat="45.44868" lon="5.93156">
        <ele>1567.159</ele>
        <time>2011-06-26T09:02:37Z</time>
      </trkpt>
      <trkpt lat="45.44871" lon="5.93159">
        <ele>1566.664</ele>
        <time>2011-06-26T09:02:39Z</time>
      </trkpt>
      <trkpt lat="45.44878" lon="5.9317">
        <ele>1565.424</ele>
        <time>2011-06-26T09:02:47Z</time>
      </trkpt>
      <trkpt lat="45.44884" lon="5.9318">
        <ele>1564.473</ele>
        <time>2011-06-26T09:02:54Z</time>
      </trkpt>
      <trkpt lat="45.44895" lon="5.93185">
        <ele>1565.412</ele>
        <time>2011-06-26T09:03:03Z</time>
      </trkpt>
      <trkpt lat="45.44902" lon="5.93192">
        <ele>1567.489</ele>
        <time>2011-06-26T09:03:14Z</time>
      </trkpt>
      <trkpt lat="45.44909" lon="5.93197">
        <ele>1569.74</ele>
        <time>2011-06-26T09:03:24Z</time>
      </trkpt>
      <trkpt lat="45.4491" lon="5.932">
        <ele>1569.681</ele>
        <time>2011-06-26T09:03:26Z</time>
      </trkpt>
      <trkpt lat="45.44912" lon="5.93212">
        <ele>1571.075</ele>
        <time>2011-06-26T09:03:33Z</time>
      </trkpt>
      <trkpt lat="45.44913" lon="5.9322">
        <ele>1571.513</ele>
        <time>2011-06-26T09:03:38Z</time>
      </trkpt>
      <trkpt lat="45.44915" lon="5.93223">
        <ele>1571.263</ele>
        <time>2011-06-26T09:03:41Z</time>
      </trkpt>
      <trkpt lat="45.44922" lon="5.93232">
        <ele>1569.351</ele>
        <time>2011-06-26T09:03:48Z</time>
      </trkpt>
      <trkpt lat="45.44923" lon="5.9324">
        <ele>1569.104</ele>
        <time>2011-06-26T09:04:31Z</time>
      </trkpt>
      <trkpt lat="45.44928" lon="5.93258">
        <ele>1566.399</ele>
        <time>2011-06-26T09:04:40Z</time>
      </trkpt>
      <trkpt lat="45.44932" lon="5.93265">
        <ele>1565.367</ele>
        <time>2011-06-26T09:04:44Z</time>
      </trkpt>
      <trkpt lat="45.44935" lon="5.93272">
        <ele>1564.58</ele>
        <time>2011-06-26T09:04:49Z</time>
      </trkpt>
      <trkpt lat="45.44944" lon="5.93295">
        <ele>1564.318</ele>
        <time>2011-06-26T09:05:03Z</time>
      </trkpt>
      <trkpt lat="45.44947" lon="5.93304">
        <ele>1564.785</ele>
        <time>2011-06-26T09:05:08Z</time>
      </trkpt>
      <trkpt lat="45.44948" lon="5.93307">
        <ele>1564.448</ele>
        <time>2011-06-26T09:05:10Z</time>
      </trkpt>
      <trkpt lat="45.44959" lon="5.93333">
        <ele>1560.96</ele>
        <time>2011-06-26T09:05:26Z</time>
      </trkpt>
      <trkpt lat="45.44961" lon="5.93338">
        <ele>1559.664</ele>
        <time>2011-06-26T09:05:29Z</time>
      </trkpt>
      <trkpt lat="45.44963" lon="5.93348">
        <ele>1557.879</ele>
        <time>2011-06-26T09:05:35Z</time>
      </trkpt>
      <trkpt lat="45.44969" lon="5.93379">
        <ele>1554.168</ele>
        <time>2011-06-26T09:05:52Z</time>
      </trkpt>
      <trkpt lat="45.44978" lon="5.93393">
        <ele>1552.674</ele>
        <time>2011-06-26T09:06:04Z</time>
      </trkpt>
      <trkpt lat="45.4498" lon="5.93393">
        <ele>1552.208</ele>
        <time>2011-06-26T09:06:15Z</time>
      </trkpt>
      <trkpt lat="45.44978" lon="5.93395">
        <ele>1552.236</ele>
        <time>2011-06-26T09:06:34Z</time>
      </trkpt>
      <trkpt lat="45.44984" lon="5.934">
        <ele>1550.869</ele>
        <time>2011-06-26T09:06:42Z</time>
      </trkpt>
      <trkpt lat="45.4498" lon="5.93406">
        <ele>1548.439</ele>
        <time>2011-06-26T09:06:49Z</time>
      </trkpt>
      <trkpt lat="45.44979" lon="5.93415">
        <ele>1544.878</ele>
        <time>2011-06-26T09:07:15Z</time>
      </trkpt>
      <trkpt lat="45.4498" lon="5.93412">
        <ele>1546.473</ele>
        <time>2011-06-26T09:08:05Z</time>
      </trkpt>
      <trkpt lat="45.44979" lon="5.93407">
        <ele>1546.312</ele>
        <time>2011-06-26T09:08:26Z</time>
      </trkpt>
      <trkpt lat="45.44982" lon="5.93399">
        <ele>1549.602</ele>
        <time>2011-06-26T09:09:52Z</time>
      </trkpt>
      <trkpt lat="45.44978" lon="5.93394">
        <ele>1551.832</ele>
        <time>2011-06-26T09:10:02Z</time>
      </trkpt>
      <trkpt lat="45.44972" lon="5.93386">
        <ele>1553.417</ele>
        <time>2011-06-26T09:10:11Z</time>
      </trkpt>
      <trkpt lat="45.44972" lon="5.93384">
        <ele>1553.691</ele>
        <time>2011-06-26T09:10:13Z</time>
      </trkpt>
      <trkpt lat="45.44963" lon="5.93364">
        <ele>1555.232</ele>
        <time>2011-06-26T09:10:29Z</time>
      </trkpt>
      <trkpt lat="45.4496" lon="5.93342">
        <ele>1557.641</ele>
        <time>2011-06-26T09:10:47Z</time>
      </trkpt>
      <trkpt lat="45.44957" lon="5.93328">
        <ele>1560.661</ele>
        <time>2011-06-26T09:11:02Z</time>
      </trkpt>
      <trkpt lat="45.44952" lon="5.93311">
        <ele>1563.336</ele>
        <time>2011-06-26T09:11:19Z</time>
      </trkpt>
      <trkpt lat="45.44949" lon="5.93302">
        <ele>1563.691</ele>
        <time>2011-06-26T09:11:26Z</time>
      </trkpt>
      <trkpt lat="45.44937" lon="5.93275">
        <ele>1564.667</ele>
        <time>2011-06-26T09:11:49Z</time>
      </trkpt>
      <trkpt lat="45.44935" lon="5.93265">
        <ele>1565.32</ele>
        <time>2011-06-26T09:11:58Z</time>
      </trkpt>
      <trkpt lat="45.44926" lon="5.9325">
        <ele>1566.718</ele>
        <time>2011-06-26T09:12:13Z</time>
      </trkpt>
      <trkpt lat="45.44922" lon="5.9324">
        <ele>1568.624</ele>
        <time>2011-06-26T09:12:25Z</time>
      </trkpt>
      <trkpt lat="45.44918" lon="5.93229">
        <ele>1569.748</ele>
        <time>2011-06-26T09:12:35Z</time>
      </trkpt>
      <trkpt lat="45.44912" lon="5.93209">
        <ele>1571.575</ele>
        <time>2011-06-26T09:12:53Z</time>
      </trkpt>
      <trkpt lat="45.4491" lon="5.93206">
        <ele>1571.574</ele>
        <time>2011-06-26T09:12:55Z</time>
      </trkpt>
      <trkpt lat="45.44909" lon="5.932">
        <ele>1571.407</ele>
        <time>2011-06-26T09:13:00Z</time>
      </trkpt>
      <trkpt lat="45.44906" lon="5.93195">
        <ele>1570.633</ele>
        <time>2011-06-26T09:13:04Z</time>
      </trkpt>
      <trkpt lat="45.44897" lon="5.93185">
        <ele>1567.176</ele>
        <time>2011-06-26T09:13:16Z</time>
      </trkpt>
      <trkpt lat="45.44891" lon="5.93176">
        <ele>1565.575</ele>
        <time>2011-06-26T09:13:24Z</time>
      </trkpt>
      <trkpt lat="45.4488" lon="5.93155">
        <ele>1565.445</ele>
        <time>2011-06-26T09:13:41Z</time>
      </trkpt>
      <trkpt lat="45.44878" lon="5.93153">
        <ele>1565.906</ele>
        <time>2011-06-26T09:13:45Z</time>
      </trkpt>
      <trkpt lat="45.44873" lon="5.93146">
        <ele>1566.908</ele>
        <time>2011-06-26T09:13:51Z</time>
      </trkpt>
      <trkpt lat="45.44866" lon="5.93135">
        <ele>1567.82</ele>
        <time>2011-06-26T09:14:02Z</time>
      </trkpt>
      <trkpt lat="45.44862" lon="5.93123">
        <ele>1568.83</ele>
        <time>2011-06-26T09:14:12Z</time>
      </trkpt>
      <trkpt lat="45.44861" lon="5.9312">
        <ele>1569.272</ele>
        <time>2011-06-26T09:14:14Z</time>
      </trkpt>
      <trkpt lat="45.44846" lon="5.93099">
        <ele>1568.01</ele>
        <time>2011-06-26T09:14:35Z</time>
      </trkpt>
      <trkpt lat="45.44845" lon="5.93095">
        <ele>1567.892</ele>
        <time>2011-06-26T09:14:38Z</time>
      </trkpt>
      <trkpt lat="45.44832" lon="5.93081">
        <ele>1568.551</ele>
        <time>2011-06-26T09:14:54Z</time>
      </trkpt>
      <trkpt lat="45.44818" lon="5.93062">
        <ele>1568.828</ele>
        <time>2011-06-26T09:15:12Z</time>
      </trkpt>
      <trkpt lat="45.44815" lon="5.93051">
        <ele>1570.075</ele>
        <time>2011-06-26T09:15:22Z</time>
      </trkpt>
      <trkpt lat="45.44808" lon="5.93035">
        <ele>1572.112</ele>
        <time>2011-06-26T09:15:39Z</time>
      </trkpt>
      <trkpt lat="45.44806" lon="5.93026">
        <ele>1575.256</ele>
        <time>2011-06-26T09:15:54Z</time>
      </trkpt>
      <trkpt lat="45.44807" lon="5.93025">
        <ele>1574.952</ele>
        <time>2011-06-26T09:16:26Z</time>
      </trkpt>
      <trkpt lat="45.44808" lon="5.93029">
        <ele>1576.153</ele>
        <time>2011-06-26T09:17:30Z</time>
      </trkpt>
      <trkpt lat="45.44809" lon="5.93024">
        <ele>1576.05</ele>
        <time>2011-06-26T09:17:44Z</time>
      </trkpt>
      <trkpt lat="45.44807" lon="5.93019">
        <ele>1578.342</ele>
        <time>2011-06-26T09:17:50Z</time>
      </trkpt>
      <trkpt lat="45.44804" lon="5.93011">
        <ele>1581.539</ele>
        <time>2011-06-26T09:18:04Z</time>
      </trkpt>
      <trkpt lat="45.44809" lon="5.93012">
        <ele>1584.119</ele>
        <time>2011-06-26T09:18:16Z</time>
      </trkpt>
      <trkpt lat="45.44814" lon="5.93023">
        <ele>1583.851</ele>
        <time>2011-06-26T09:18:26Z</time>
      </trkpt>
      <trkpt lat="45.44821" lon="5.93035">
        <ele>1586.219</ele>
        <time>2011-06-26T09:18:43Z</time>
      </trkpt>
      <trkpt lat="45.4482" lon="5.93041">
        <ele>1587.852</ele>
        <time>2011-06-26T09:18:57Z</time>
      </trkpt>
      <trkpt lat="45.4483" lon="5.93053">
        <ele>1589.866</ele>
        <time>2011-06-26T09:19:22Z</time>
      </trkpt>
      <trkpt lat="45.4484" lon="5.93054">
        <ele>1592.879</ele>
        <time>2011-06-26T09:19:36Z</time>
      </trkpt>
      <trkpt lat="45.4484" lon="5.93045">
        <ele>1596.061</ele>
        <time>2011-06-26T09:19:48Z</time>
      </trkpt>
      <trkpt lat="45.44835" lon="5.93037">
        <ele>1599.729</ele>
        <time>2011-06-26T09:20:03Z</time>
      </trkpt>
      <trkpt lat="45.44834" lon="5.93027">
        <ele>1602.883</ele>
        <time>2011-06-26T09:20:22Z</time>
      </trkpt>
      <trkpt lat="45.4483" lon="5.93025">
        <ele>1605.766</ele>
        <time>2011-06-26T09:20:38Z</time>
      </trkpt>
      <trkpt lat="45.44831" lon="5.93015">
        <ele>1608.633</ele>
        <time>2011-06-26T09:20:56Z</time>
      </trkpt>
      <trkpt lat="45.4484" lon="5.93025">
        <ele>1610.042</ele>
        <time>2011-06-26T09:21:11Z</time>
      </trkpt>
      <trkpt lat="45.44848" lon="5.93027">
        <ele>1612.577</ele>
        <time>2011-06-26T09:21:27Z</time>
      </trkpt>
      <trkpt lat="45.44852" lon="5.93031">
        <ele>1612.792</ele>
        <time>2011-06-26T09:21:38Z</time>
      </trkpt>
      <trkpt lat="45.44855" lon="5.93036">
        <ele>1612.544</ele>
        <time>2011-06-26T09:21:42Z</time>
      </trkpt>
      <trkpt lat="45.4486" lon="5.93043">
        <ele>1612.783</ele>
        <time>2011-06-26T09:21:48Z</time>
      </trkpt>
      <trkpt lat="45.44865" lon="5.93056">
        <ele>1610.629</ele>
        <time>2011-06-26T09:21:59Z</time>
      </trkpt>
      <trkpt lat="45.4487" lon="5.93063">
        <ele>1609.49</ele>
        <time>2011-06-26T09:22:05Z</time>
      </trkpt>
      <trkpt lat="45.44887" lon="5.93094">
        <ele>1607.6</ele>
        <time>2011-06-26T09:22:28Z</time>
      </trkpt>
      <trkpt lat="45.44896" lon="5.93128">
        <ele>1606.148</ele>
        <time>2011-06-26T09:22:50Z</time>
      </trkpt>
      <trkpt lat="45.44909" lon="5.93144">
        <ele>1608.916</ele>
        <time>2011-06-26T09:23:10Z</time>
      </trkpt>
      <trkpt lat="45.44912" lon="5.93156">
        <ele>1607.84</ele>
        <time>2011-06-26T09:23:17Z</time>
      </trkpt>
      <trkpt lat="45.4492" lon="5.93175">
        <ele>1606.848</ele>
        <time>2011-06-26T09:23:30Z</time>
      </trkpt>
      <trkpt lat="45.44929" lon="5.9319">
        <ele>1607.246</ele>
        <time>2011-06-26T09:23:42Z</time>
      </trkpt>
      <trkpt lat="45.44932" lon="5.93191">
        <ele>1607.423</ele>
        <time>2011-06-26T09:23:44Z</time>
      </trkpt>
      <trkpt lat="45.44945" lon="5.93206">
        <ele>1609.681</ele>
        <time>2011-06-26T09:24:03Z</time>
      </trkpt>
      <trkpt lat="45.44949" lon="5.93211">
        <ele>1611.095</ele>
        <time>2011-06-26T09:24:21Z</time>
      </trkpt>
      <trkpt lat="45.44951" lon="5.9321">
        <ele>1614.282</ele>
        <time>2011-06-26T09:24:35Z</time>
      </trkpt>
      <trkpt lat="45.44955" lon="5.9321">
        <ele>1622.598</ele>
        <time>2011-06-26T09:25:40Z</time>
      </trkpt>
      <trkpt lat="45.44958" lon="5.93208">
        <ele>1627.595</ele>
        <time>2011-06-26T09:26:08Z</time>
      </trkpt>
      <trkpt lat="45.44958" lon="5.93204">
        <ele>1631.346</ele>
        <time>2011-06-26T09:26:53Z</time>
      </trkpt>
      <trkpt lat="45.44956" lon="5.93208">
        <ele>1632.642</ele>
        <time>2011-06-26T09:27:07Z</time>
      </trkpt>
      <trkpt lat="45.44958" lon="5.93214">
        <ele>1634.03</ele>
        <time>2011-06-26T09:27:27Z</time>
      </trkpt>
      <trkpt lat="45.44961" lon="5.93215">
        <ele>1637.438</ele>
        <time>2011-06-26T09:27:40Z</time>
      </trkpt>
      <trkpt lat="45.44962" lon="5.93227">
        <ele>1638.938</ele>
        <time>2011-06-26T09:28:06Z</time>
      </trkpt>
      <trkpt lat="45.44966" lon="5.93237">
        <ele>1639.659</ele>
        <time>2011-06-26T09:29:05Z</time>
      </trkpt>
      <trkpt lat="45.44967" lon="5.9324">
        <ele>1639.306</ele>
        <time>2011-06-26T09:29:07Z</time>
      </trkpt>
      <trkpt lat="45.44973" lon="5.93243">
        <ele>1641.473</ele>
        <time>2011-06-26T09:29:21Z</time>
      </trkpt>
      <trkpt lat="45.44974" lon="5.93244">
        <ele>1642.127</ele>
        <time>2011-06-26T09:29:23Z</time>
      </trkpt>
      <trkpt lat="45.44985" lon="5.93247">
        <ele>1645.78</ele>
        <time>2011-06-26T09:29:43Z</time>
      </trkpt>
      <trkpt lat="45.44985" lon="5.93244">
        <ele>1648.403</ele>
        <time>2011-06-26T09:30:01Z</time>
      </trkpt>
      <trkpt lat="45.44979" lon="5.93234">
        <ele>1652.015</ele>
        <time>2011-06-26T09:30:17Z</time>
      </trkpt>
      <trkpt lat="45.4498" lon="5.93229">
        <ele>1654.067</ele>
        <time>2011-06-26T09:30:33Z</time>
      </trkpt>
      <trkpt lat="45.44979" lon="5.93225">
        <ele>1655.668</ele>
        <time>2011-06-26T09:30:54Z</time>
      </trkpt>
      <trkpt lat="45.44982" lon="5.93225">
        <ele>1657.985</ele>
        <time>2011-06-26T09:33:03Z</time>
      </trkpt>
      <trkpt lat="45.44982" lon="5.93222">
        <ele>1661.458</ele>
        <time>2011-06-26T09:33:18Z</time>
      </trkpt>
      <trkpt lat="45.44987" lon="5.93223">
        <ele>1664.468</ele>
        <time>2011-06-26T09:33:32Z</time>
      </trkpt>
      <trkpt lat="45.44987" lon="5.93216">
        <ele>1667.64</ele>
        <time>2011-06-26T09:33:44Z</time>
      </trkpt>
      <trkpt lat="45.44985" lon="5.9321">
        <ele>1670.677</ele>
        <time>2011-06-26T09:34:07Z</time>
      </trkpt>
      <trkpt lat="45.44981" lon="5.93196">
        <ele>1673.457</ele>
        <time>2011-06-26T09:34:25Z</time>
      </trkpt>
      <trkpt lat="45.44985" lon="5.93197">
        <ele>1674.63</ele>
        <time>2011-06-26T09:34:31Z</time>
      </trkpt>
      <trkpt lat="45.44994" lon="5.93202">
        <ele>1678.034</ele>
        <time>2011-06-26T09:34:49Z</time>
      </trkpt>
      <trkpt lat="45.44997" lon="5.93198">
        <ele>1681.077</ele>
        <time>2011-06-26T09:35:04Z</time>
      </trkpt>
      <trkpt lat="45.44999" lon="5.93193">
        <ele>1691.295</ele>
        <time>2011-06-26T09:56:56Z</time>
      </trkpt>
      <trkpt lat="45.44994" lon="5.93186">
        <ele>1691.618</ele>
        <time>2011-06-26T09:57:13Z</time>
      </trkpt>
      <trkpt lat="45.44991" lon="5.93183">
        <ele>1692.008</ele>
        <time>2011-06-26T09:57:16Z</time>
      </trkpt>
      <trkpt lat="45.44985" lon="5.9317">
        <ele>1695.218</ele>
        <time>2011-06-26T09:57:32Z</time>
      </trkpt>
      <trkpt lat="45.44982" lon="5.93169">
        <ele>1695.679</ele>
        <time>2011-06-26T09:57:35Z</time>
      </trkpt>
      <trkpt lat="45.44975" lon="5.93147">
        <ele>1697.6</ele>
        <time>2011-06-26T09:57:52Z</time>
      </trkpt>
      <trkpt lat="45.44971" lon="5.9314">
        <ele>1699.158</ele>
        <time>2011-06-26T09:58:01Z</time>
      </trkpt>
      <trkpt lat="45.44956" lon="5.93129">
        <ele>1701.556</ele>
        <time>2011-06-26T09:58:18Z</time>
      </trkpt>
      <trkpt lat="45.44945" lon="5.9312">
        <ele>1703.726</ele>
        <time>2011-06-26T09:58:30Z</time>
      </trkpt>
      <trkpt lat="45.44932" lon="5.93108">
        <ele>1706.37</ele>
        <time>2011-06-26T09:58:47Z</time>
      </trkpt>
      <trkpt lat="45.4493" lon="5.93092">
        <ele>1709.6</ele>
        <time>2011-06-26T09:59:03Z</time>
      </trkpt>
      <trkpt lat="45.44935" lon="5.93085">
        <ele>1713.024</ele>
        <time>2011-06-26T09:59:19Z</time>
      </trkpt>
      <trkpt lat="45.44944" lon="5.93083">
        <ele>1716.091</ele>
        <time>2011-06-26T09:59:33Z</time>
      </trkpt>
      <trkpt lat="45.44947" lon="5.93081">
        <ele>1718.547</ele>
        <time>2011-06-26T09:59:43Z</time>
      </trkpt>
      <trkpt lat="45.44945" lon="5.93071">
        <ele>1721.555</ele>
        <time>2011-06-26T10:00:00Z</time>
      </trkpt>
      <trkpt lat="45.44949" lon="5.93068">
        <ele>1724.127</ele>
        <time>2011-06-26T10:00:15Z</time>
      </trkpt>
      <trkpt lat="45.44951" lon="5.93062">
        <ele>1726.5</ele>
        <time>2011-06-26T10:00:53Z</time>
      </trkpt>
      <trkpt lat="45.44956" lon="5.93057">
        <ele>1729.634</ele>
        <time>2011-06-26T10:01:06Z</time>
      </trkpt>
      <trkpt lat="45.44951" lon="5.9305">
        <ele>1731.976</ele>
        <time>2011-06-26T10:01:22Z</time>
      </trkpt>
      <trkpt lat="45.44949" lon="5.93038">
        <ele>1734.738</ele>
        <time>2011-06-26T10:01:39Z</time>
      </trkpt>
      <trkpt lat="45.44948" lon="5.93029">
        <ele>1738.519</ele>
        <time>2011-06-26T10:01:56Z</time>
      </trkpt>
      <trkpt lat="45.44944" lon="5.93019">
        <ele>1741.739</ele>
        <time>2011-06-26T10:02:10Z</time>
      </trkpt>
      <trkpt lat="45.44941" lon="5.9301">
        <ele>1744.494</ele>
        <time>2011-06-26T10:02:24Z</time>
      </trkpt>
      <trkpt lat="45.44936" lon="5.93002">
        <ele>1748.015</ele>
        <time>2011-06-26T10:02:40Z</time>
      </trkpt>
      <trkpt lat="45.44933" lon="5.92996">
        <ele>1750.416</ele>
        <time>2011-06-26T10:02:54Z</time>
      </trkpt>
      <trkpt lat="45.44932" lon="5.92987">
        <ele>1754.921</ele>
        <time>2011-06-26T10:03:24Z</time>
      </trkpt>
      <trkpt lat="45.44934" lon="5.92983">
        <ele>1755.421</ele>
        <time>2011-06-26T10:03:59Z</time>
      </trkpt>
      <trkpt lat="45.44935" lon="5.92977">
        <ele>1758.478</ele>
        <time>2011-06-26T10:04:13Z</time>
      </trkpt>
      <trkpt lat="45.44934" lon="5.9297">
        <ele>1760.749</ele>
        <time>2011-06-26T10:04:27Z</time>
      </trkpt>
      <trkpt lat="45.44936" lon="5.92968">
        <ele>1761.485</ele>
        <time>2011-06-26T10:04:29Z</time>
      </trkpt>
      <trkpt lat="45.44948" lon="5.92967">
        <ele>1764.199</ele>
        <time>2011-06-26T10:04:42Z</time>
      </trkpt>
      <trkpt lat="45.44957" lon="5.92966">
        <ele>1767.131</ele>
        <time>2011-06-26T10:04:57Z</time>
      </trkpt>
      <trkpt lat="45.44963" lon="5.92966">
        <ele>1768.384</ele>
        <time>2011-06-26T10:05:08Z</time>
      </trkpt>
      <trkpt lat="45.44971" lon="5.92967">
        <ele>1768.735</ele>
        <time>2011-06-26T10:05:20Z</time>
      </trkpt>
      <trkpt lat="45.44972" lon="5.92962">
        <ele>1769.127</ele>
        <time>2011-06-26T10:05:40Z</time>
      </trkpt>
      <trkpt lat="45.44975" lon="5.9296">
        <ele>1769.678</ele>
        <time>2011-06-26T10:05:43Z</time>
      </trkpt>
      <trkpt lat="45.44993" lon="5.92965">
        <ele>1771.878</ele>
        <time>2011-06-26T10:06:01Z</time>
      </trkpt>
      <trkpt lat="45.44998" lon="5.92965">
        <ele>1773.437</ele>
        <time>2011-06-26T10:06:08Z</time>
      </trkpt>
      <trkpt lat="45.45001" lon="5.92964">
        <ele>1773.442</ele>
        <time>2011-06-26T10:06:10Z</time>
      </trkpt>
      <trkpt lat="45.45012" lon="5.92968">
        <ele>1775.806</ele>
        <time>2011-06-26T10:06:24Z</time>
      </trkpt>
      <trkpt lat="45.45016" lon="5.92968">
        <ele>1777.06</ele>
        <time>2011-06-26T10:07:15Z</time>
      </trkpt>
      <trkpt lat="45.45026" lon="5.92972">
        <ele>1777.614</ele>
        <time>2011-06-26T10:07:31Z</time>
      </trkpt>
      <trkpt lat="45.45027" lon="5.92973">
        <ele>1777.322</ele>
        <time>2011-06-26T10:07:34Z</time>
      </trkpt>
      <trkpt lat="45.45031" lon="5.92974">
        <ele>1776.604</ele>
        <time>2011-06-26T10:07:40Z</time>
      </trkpt>
      <trkpt lat="45.45039" lon="5.92977">
        <ele>1775.704</ele>
        <time>2011-06-26T10:07:48Z</time>
      </trkpt>
      <trkpt lat="45.45042" lon="5.92979">
        <ele>1775.34</ele>
        <time>2011-06-26T10:07:51Z</time>
      </trkpt>
      <trkpt lat="45.45052" lon="5.92976">
        <ele>1774.133</ele>
        <time>2011-06-26T10:08:02Z</time>
      </trkpt>
      <trkpt lat="45.45056" lon="5.92973">
        <ele>1774.124</ele>
        <time>2011-06-26T10:08:07Z</time>
      </trkpt>
      <trkpt lat="45.4506" lon="5.92975">
        <ele>1773.04</ele>
        <time>2011-06-26T10:08:11Z</time>
      </trkpt>
      <trkpt lat="45.45062" lon="5.92975">
        <ele>1772.761</ele>
        <time>2011-06-26T10:08:13Z</time>
      </trkpt>
      <trkpt lat="45.45069" lon="5.92971">
        <ele>1772.856</ele>
        <time>2011-06-26T10:08:21Z</time>
      </trkpt>
      <trkpt lat="45.45074" lon="5.92972">
        <ele>1773.01</ele>
        <time>2011-06-26T10:08:25Z</time>
      </trkpt>
      <trkpt lat="45.45077" lon="5.92972">
        <ele>1772.692</ele>
        <time>2011-06-26T10:08:28Z</time>
      </trkpt>
      <trkpt lat="45.45082" lon="5.92968">
        <ele>1772.444</ele>
        <time>2011-06-26T10:08:33Z</time>
      </trkpt>
      <trkpt lat="45.45087" lon="5.92967">
        <ele>1771.824</ele>
        <time>2011-06-26T10:08:40Z</time>
      </trkpt>
      <trkpt lat="45.45094" lon="5.92963">
        <ele>1771.296</ele>
        <time>2011-06-26T10:08:47Z</time>
      </trkpt>
      <trkpt lat="45.45097" lon="5.92958">
        <ele>1770.848</ele>
        <time>2011-06-26T10:08:51Z</time>
      </trkpt>
      <trkpt lat="45.45099" lon="5.92956">
        <ele>1770.64</ele>
        <time>2011-06-26T10:08:53Z</time>
      </trkpt>
      <trkpt lat="45.45111" lon="5.92939">
        <ele>1770.741</ele>
        <time>2011-06-26T10:09:09Z</time>
      </trkpt>
      <trkpt lat="45.45116" lon="5.92928">
        <ele>1770.739</ele>
        <time>2011-06-26T10:09:18Z</time>
      </trkpt>
      <trkpt lat="45.45126" lon="5.92913">
        <ele>1770.965</ele>
        <time>2011-06-26T10:09:34Z</time>
      </trkpt>
      <trkpt lat="45.45129" lon="5.92909">
        <ele>1771.36</ele>
        <time>2011-06-26T10:09:39Z</time>
      </trkpt>
      <trkpt lat="45.45137" lon="5.92901">
        <ele>1769.897</ele>
        <time>2011-06-26T10:09:49Z</time>
      </trkpt>
      <trkpt lat="45.45139" lon="5.92895">
        <ele>1769.616</ele>
        <time>2011-06-26T10:09:53Z</time>
      </trkpt>
      <trkpt lat="45.45146" lon="5.92889">
        <ele>1769.332</ele>
        <time>2011-06-26T10:10:01Z</time>
      </trkpt>
      <trkpt lat="45.45155" lon="5.92881">
        <ele>1769.791</ele>
        <time>2011-06-26T10:10:11Z</time>
      </trkpt>
      <trkpt lat="45.45161" lon="5.92878">
        <ele>1768.973</ele>
        <time>2011-06-26T10:10:19Z</time>
      </trkpt>
      <trkpt lat="45.45165" lon="5.92874">
        <ele>1769.412</ele>
        <time>2011-06-26T10:10:23Z</time>
      </trkpt>
      <trkpt lat="45.45165" lon="5.92861">
        <ele>1770.254</ele>
        <time>2011-06-26T10:10:34Z</time>
      </trkpt>
      <trkpt lat="45.45181" lon="5.92842">
        <ele>1769.912</ele>
        <time>2011-06-26T10:10:52Z</time>
      </trkpt>
      <trkpt lat="45.45186" lon="5.92834">
        <ele>1768.971</ele>
        <time>2011-06-26T10:14:10Z</time>
      </trkpt>
      <trkpt lat="45.45191" lon="5.92832">
        <ele>1768.117</ele>
        <time>2011-06-26T10:14:15Z</time>
      </trkpt>
      <trkpt lat="45.45198" lon="5.92822">
        <ele>1765.016</ele>
        <time>2011-06-26T10:14:27Z</time>
      </trkpt>
      <trkpt lat="45.45203" lon="5.92823">
        <ele>1764.075</ele>
        <time>2011-06-26T10:14:34Z</time>
      </trkpt>
      <trkpt lat="45.45205" lon="5.92825">
        <ele>1763.093</ele>
        <time>2011-06-26T10:14:37Z</time>
      </trkpt>
      <trkpt lat="45.45212" lon="5.92827">
        <ele>1759.948</ele>
        <time>2011-06-26T10:14:51Z</time>
      </trkpt>
      <trkpt lat="45.45217" lon="5.92834">
        <ele>1756.228</ele>
        <time>2011-06-26T10:15:03Z</time>
      </trkpt>
      <trkpt lat="45.45218" lon="5.92832">
        <ele>1755.857</ele>
        <time>2011-06-26T10:15:06Z</time>
      </trkpt>
      <trkpt lat="45.4522" lon="5.9282">
        <ele>1755.156</ele>
        <time>2011-06-26T10:15:26Z</time>
      </trkpt>
      <trkpt lat="45.45223" lon="5.92825">
        <ele>1753.986</ele>
        <time>2011-06-26T10:15:31Z</time>
      </trkpt>
      <trkpt lat="45.45227" lon="5.92832">
        <ele>1753.364</ele>
        <time>2011-06-26T10:15:37Z</time>
      </trkpt>
      <trkpt lat="45.45235" lon="5.92835">
        <ele>1751.845</ele>
        <time>2011-06-26T10:15:45Z</time>
      </trkpt>
      <trkpt lat="45.45246" lon="5.92845">
        <ele>1750.89</ele>
        <time>2011-06-26T10:15:58Z</time>
      </trkpt>
      <trkpt lat="45.45248" lon="5.92849">
        <ele>1750.188</ele>
        <time>2011-06-26T10:16:01Z</time>
      </trkpt>
      <trkpt lat="45.45251" lon="5.92851">
        <ele>1749.631</ele>
        <time>2011-06-26T10:16:04Z</time>
      </trkpt>
      <trkpt lat="45.45262" lon="5.92865">
        <ele>1746.836</ele>
        <time>2011-06-26T10:16:22Z</time>
      </trkpt>
      <trkpt lat="45.45264" lon="5.9286">
        <ele>1746.143</ele>
        <time>2011-06-26T10:16:30Z</time>
      </trkpt>
      <trkpt lat="45.45268" lon="5.92861">
        <ele>1745.107</ele>
        <time>2011-06-26T10:16:34Z</time>
      </trkpt>
      <trkpt lat="45.45274" lon="5.92856">
        <ele>1743.024</ele>
        <time>2011-06-26T10:16:47Z</time>
      </trkpt>
      <trkpt lat="45.45276" lon="5.92857">
        <ele>1742.313</ele>
        <time>2011-06-26T10:16:50Z</time>
      </trkpt>
      <trkpt lat="45.4528" lon="5.92856">
        <ele>1741.626</ele>
        <time>2011-06-26T10:16:56Z</time>
      </trkpt>
      <trkpt lat="45.45291" lon="5.92861">
        <ele>1740.775</ele>
        <time>2011-06-26T10:17:07Z</time>
      </trkpt>
      <trkpt lat="45.45293" lon="5.92859">
        <ele>1740.357</ele>
        <time>2011-06-26T10:17:09Z</time>
      </trkpt>
      <trkpt lat="45.45298" lon="5.92857">
        <ele>1740.726</ele>
        <time>2011-06-26T10:17:14Z</time>
      </trkpt>
      <trkpt lat="45.45305" lon="5.92858">
        <ele>1739.535</ele>
        <time>2011-06-26T10:17:23Z</time>
      </trkpt>
      <trkpt lat="45.45314" lon="5.92865">
        <ele>1739.475</ele>
        <time>2011-06-26T10:17:35Z</time>
      </trkpt>
      <trkpt lat="45.45317" lon="5.92862">
        <ele>1737.394</ele>
        <time>2011-06-26T10:17:37Z</time>
      </trkpt>
      <trkpt lat="45.4532" lon="5.92861">
        <ele>1737.228</ele>
        <time>2011-06-26T10:17:40Z</time>
      </trkpt>
      <trkpt lat="45.45329" lon="5.92864">
        <ele>1734.38</ele>
        <time>2011-06-26T10:17:56Z</time>
      </trkpt>
      <trkpt lat="45.45328" lon="5.92865">
        <ele>1734.5</ele>
        <time>2011-06-26T10:18:33Z</time>
      </trkpt>
      <trkpt lat="45.45326" lon="5.92867">
        <ele>1734.825</ele>
        <time>2011-06-26T10:18:51Z</time>
      </trkpt>
      <trkpt lat="45.45326" lon="5.92865">
        <ele>1734.459</ele>
        <time>2011-06-26T10:19:39Z</time>
      </trkpt>
      <trkpt lat="45.45331" lon="5.92863">
        <ele>1734.162</ele>
        <time>2011-06-26T10:19:50Z</time>
      </trkpt>
      <trkpt lat="45.45335" lon="5.92859">
        <ele>1733.903</ele>
        <time>2011-06-26T10:20:08Z</time>
      </trkpt>
      <trkpt lat="45.45341" lon="5.92852">
        <ele>1732.698</ele>
        <time>2011-06-26T10:20:17Z</time>
      </trkpt>
      <trkpt lat="45.45349" lon="5.92847">
        <ele>1732.309</ele>
        <time>2011-06-26T10:20:24Z</time>
      </trkpt>
      <trkpt lat="45.45351" lon="5.92846">
        <ele>1731.047</ele>
        <time>2011-06-26T10:20:26Z</time>
      </trkpt>
      <trkpt lat="45.45354" lon="5.92845">
        <ele>1730.753</ele>
        <time>2011-06-26T10:20:28Z</time>
      </trkpt>
      <trkpt lat="45.45372" lon="5.9284">
        <ele>1728.983</ele>
        <time>2011-06-26T10:20:45Z</time>
      </trkpt>
      <trkpt lat="45.45382" lon="5.92836">
        <ele>1729.526</ele>
        <time>2011-06-26T10:20:54Z</time>
      </trkpt>
      <trkpt lat="45.45389" lon="5.92836">
        <ele>1729.148</ele>
        <time>2011-06-26T10:21:01Z</time>
      </trkpt>
      <trkpt lat="45.45393" lon="5.92837">
        <ele>1728.383</ele>
        <time>2011-06-26T10:21:06Z</time>
      </trkpt>
      <trkpt lat="45.45398" lon="5.92837">
        <ele>1727.728</ele>
        <time>2011-06-26T10:21:11Z</time>
      </trkpt>
      <trkpt lat="45.45403" lon="5.92837">
        <ele>1727.17</ele>
        <time>2011-06-26T10:21:15Z</time>
      </trkpt>
      <trkpt lat="45.45414" lon="5.92835">
        <ele>1725.446</ele>
        <time>2011-06-26T10:21:24Z</time>
      </trkpt>
      <trkpt lat="45.45418" lon="5.92833">
        <ele>1724.773</ele>
        <time>2011-06-26T10:21:30Z</time>
      </trkpt>
      <trkpt lat="45.45434" lon="5.92846">
        <ele>1722.076</ele>
        <time>2011-06-26T10:21:46Z</time>
      </trkpt>
      <trkpt lat="45.45449" lon="5.92856">
        <ele>1721.419</ele>
        <time>2011-06-26T10:21:59Z</time>
      </trkpt>
      <trkpt lat="45.45455" lon="5.92857">
        <ele>1720.021</ele>
        <time>2011-06-26T10:22:04Z</time>
      </trkpt>
      <trkpt lat="45.45459" lon="5.92858">
        <ele>1721.254</ele>
        <time>2011-06-26T10:22:08Z</time>
      </trkpt>
      <trkpt lat="45.45471" lon="5.92869">
        <ele>1720.049</ele>
        <time>2011-06-26T10:22:21Z</time>
      </trkpt>
      <trkpt lat="45.4548" lon="5.92877">
        <ele>1719.582</ele>
        <time>2011-06-26T10:22:32Z</time>
      </trkpt>
      <trkpt lat="45.45496" lon="5.92885">
        <ele>1718.421</ele>
        <time>2011-06-26T10:22:44Z</time>
      </trkpt>
      <trkpt lat="45.45499" lon="5.92887">
        <ele>1717.559</ele>
        <time>2011-06-26T10:22:47Z</time>
      </trkpt>
      <trkpt lat="45.45509" lon="5.92897">
        <ele>1715.62</ele>
        <time>2011-06-26T10:22:59Z</time>
      </trkpt>
      <trkpt lat="45.45524" lon="5.92901">
        <ele>1712.969</ele>
        <time>2011-06-26T10:23:12Z</time>
      </trkpt>
      <trkpt lat="45.45531" lon="5.92903">
        <ele>1712.099</ele>
        <time>2011-06-26T10:23:20Z</time>
      </trkpt>
      <trkpt lat="45.45533" lon="5.92905">
        <ele>1711.426</ele>
        <time>2011-06-26T10:23:22Z</time>
      </trkpt>
      <trkpt lat="45.45535" lon="5.92907">
        <ele>1710.942</ele>
        <time>2011-06-26T10:23:25Z</time>
      </trkpt>
      <trkpt lat="45.45544" lon="5.92913">
        <ele>1709.917</ele>
        <time>2011-06-26T10:23:39Z</time>
      </trkpt>
      <trkpt lat="45.45548" lon="5.9292">
        <ele>1708.19</ele>
        <time>2011-06-26T10:23:46Z</time>
      </trkpt>
      <trkpt lat="45.4555" lon="5.92922">
        <ele>1707.441</ele>
        <time>2011-06-26T10:23:48Z</time>
      </trkpt>
      <trkpt lat="45.45554" lon="5.92928">
        <ele>1706.899</ele>
        <time>2011-06-26T10:23:53Z</time>
      </trkpt>
      <trkpt lat="45.45557" lon="5.92933">
        <ele>1706.059</ele>
        <time>2011-06-26T10:23:57Z</time>
      </trkpt>
      <trkpt lat="45.45563" lon="5.92944">
        <ele>1703.269</ele>
        <time>2011-06-26T10:24:09Z</time>
      </trkpt>
      <trkpt lat="45.45576" lon="5.92956">
        <ele>1700.062</ele>
        <time>2011-06-26T10:24:22Z</time>
      </trkpt>
      <trkpt lat="45.45585" lon="5.92968">
        <ele>1699.774</ele>
        <time>2011-06-26T10:24:32Z</time>
      </trkpt>
      <trkpt lat="45.45591" lon="5.92995">
        <ele>1699.564</ele>
        <time>2011-06-26T10:24:49Z</time>
      </trkpt>
      <trkpt lat="45.45596" lon="5.93011">
        <ele>1698.962</ele>
        <time>2011-06-26T10:25:00Z</time>
      </trkpt>
      <trkpt lat="45.45599" lon="5.93022">
        <ele>1697.636</ele>
        <time>2011-06-26T10:25:07Z</time>
      </trkpt>
      <trkpt lat="45.45602" lon="5.93027">
        <ele>1697.383</ele>
        <time>2011-06-26T10:25:11Z</time>
      </trkpt>
      <trkpt lat="45.45603" lon="5.93033">
        <ele>1696.885</ele>
        <time>2011-06-26T10:25:15Z</time>
      </trkpt>
      <trkpt lat="45.45607" lon="5.93039">
        <ele>1695.766</ele>
        <time>2011-06-26T10:25:19Z</time>
      </trkpt>
      <trkpt lat="45.45609" lon="5.9304">
        <ele>1695.727</ele>
        <time>2011-06-26T10:25:21Z</time>
      </trkpt>
      <trkpt lat="45.4562" lon="5.93053">
        <ele>1694.598</ele>
        <time>2011-06-26T10:25:33Z</time>
      </trkpt>
      <trkpt lat="45.45629" lon="5.93059">
        <ele>1693.69</ele>
        <time>2011-06-26T10:25:42Z</time>
      </trkpt>
      <trkpt lat="45.45632" lon="5.93062">
        <ele>1693.418</ele>
        <time>2011-06-26T10:25:46Z</time>
      </trkpt>
      <trkpt lat="45.45641" lon="5.93063">
        <ele>1691.986</ele>
        <time>2011-06-26T10:25:55Z</time>
      </trkpt>
      <trkpt lat="45.45657" lon="5.93071">
        <ele>1690.389</ele>
        <time>2011-06-26T10:26:09Z</time>
      </trkpt>
      <trkpt lat="45.45658" lon="5.93072">
        <ele>1689.808</ele>
        <time>2011-06-26T10:26:10Z</time>
      </trkpt>
      <trkpt lat="45.45661" lon="5.93074">
        <ele>1689.997</ele>
        <time>2011-06-26T10:26:13Z</time>
      </trkpt>
      <trkpt lat="45.45679" lon="5.93079">
        <ele>1690.861</ele>
        <time>2011-06-26T10:26:28Z</time>
      </trkpt>
      <trkpt lat="45.45681" lon="5.93077">
        <ele>1689.219</ele>
        <time>2011-06-26T10:26:30Z</time>
      </trkpt>
      <trkpt lat="45.45684" lon="5.93077">
        <ele>1688.674</ele>
        <time>2011-06-26T10:26:32Z</time>
      </trkpt>
      <trkpt lat="45.45701" lon="5.93088">
        <ele>1685.735</ele>
        <time>2011-06-26T10:26:48Z</time>
      </trkpt>
      <trkpt lat="45.45704" lon="5.93089">
        <ele>1685.356</ele>
        <time>2011-06-26T10:26:54Z</time>
      </trkpt>
      <trkpt lat="45.45707" lon="5.93095">
        <ele>1685.217</ele>
        <time>2011-06-26T10:26:58Z</time>
      </trkpt>
      <trkpt lat="45.45712" lon="5.93101">
        <ele>1684.762</ele>
        <time>2011-06-26T10:27:04Z</time>
      </trkpt>
      <trkpt lat="45.45714" lon="5.93111">
        <ele>1683.907</ele>
        <time>2011-06-26T10:27:10Z</time>
      </trkpt>
      <trkpt lat="45.45716" lon="5.93119">
        <ele>1683.204</ele>
        <time>2011-06-26T10:27:15Z</time>
      </trkpt>
      <trkpt lat="45.45717" lon="5.93125">
        <ele>1682.522</ele>
        <time>2011-06-26T10:27:19Z</time>
      </trkpt>
      <trkpt lat="45.45724" lon="5.93143">
        <ele>1679.999</ele>
        <time>2011-06-26T10:27:32Z</time>
      </trkpt>
      <trkpt lat="45.45726" lon="5.93152">
        <ele>1678.289</ele>
        <time>2011-06-26T10:27:38Z</time>
      </trkpt>
      <trkpt lat="45.45729" lon="5.93154">
        <ele>1677.762</ele>
        <time>2011-06-26T10:27:41Z</time>
      </trkpt>
      <trkpt lat="45.45731" lon="5.93159">
        <ele>1677.207</ele>
        <time>2011-06-26T10:27:45Z</time>
      </trkpt>
      <trkpt lat="45.45736" lon="5.93176">
        <ele>1673.565</ele>
        <time>2011-06-26T10:28:01Z</time>
      </trkpt>
      <trkpt lat="45.45743" lon="5.93184">
        <ele>1671.323</ele>
        <time>2011-06-26T10:28:13Z</time>
      </trkpt>
      <trkpt lat="45.45755" lon="5.93192">
        <ele>1671.467</ele>
        <time>2011-06-26T10:28:27Z</time>
      </trkpt>
      <trkpt lat="45.45757" lon="5.93193">
        <ele>1670.547</ele>
        <time>2011-06-26T10:28:30Z</time>
      </trkpt>
      <trkpt lat="45.45759" lon="5.93197">
        <ele>1670.22</ele>
        <time>2011-06-26T10:28:34Z</time>
      </trkpt>
      <trkpt lat="45.45759" lon="5.932">
        <ele>1670.003</ele>
        <time>2011-06-26T10:28:36Z</time>
      </trkpt>
      <trkpt lat="45.45762" lon="5.93214">
        <ele>1668.503</ele>
        <time>2011-06-26T10:28:45Z</time>
      </trkpt>
      <trkpt lat="45.45773" lon="5.93216">
        <ele>1667.149</ele>
        <time>2011-06-26T10:28:54Z</time>
      </trkpt>
      <trkpt lat="45.45785" lon="5.93231">
        <ele>1664.964</ele>
        <time>2011-06-26T10:29:08Z</time>
      </trkpt>
      <trkpt lat="45.45785" lon="5.93236">
        <ele>1664.031</ele>
        <time>2011-06-26T10:29:12Z</time>
      </trkpt>
      <trkpt lat="45.45788" lon="5.93239">
        <ele>1663.465</ele>
        <time>2011-06-26T10:29:16Z</time>
      </trkpt>
      <trkpt lat="45.458" lon="5.93253">
        <ele>1661.086</ele>
        <time>2011-06-26T10:29:30Z</time>
      </trkpt>
      <trkpt lat="45.45811" lon="5.93272">
        <ele>1658.61</ele>
        <time>2011-06-26T10:29:45Z</time>
      </trkpt>
      <trkpt lat="45.45811" lon="5.93277">
        <ele>1657.9</ele>
        <time>2011-06-26T10:29:49Z</time>
      </trkpt>
      <trkpt lat="45.45812" lon="5.9328">
        <ele>1657.603</ele>
        <time>2011-06-26T10:29:51Z</time>
      </trkpt>
      <trkpt lat="45.45815" lon="5.93291">
        <ele>1656.699</ele>
        <time>2011-06-26T10:30:01Z</time>
      </trkpt>
      <trkpt lat="45.45814" lon="5.93301">
        <ele>1654.933</ele>
        <time>2011-06-26T10:30:13Z</time>
      </trkpt>
      <trkpt lat="45.45813" lon="5.93307">
        <ele>1651.756</ele>
        <time>2011-06-26T10:30:21Z</time>
      </trkpt>
      <trkpt lat="45.45811" lon="5.9331">
        <ele>1655.635</ele>
        <time>2011-06-26T10:30:24Z</time>
      </trkpt>
      <trkpt lat="45.4581" lon="5.93311">
        <ele>1653.65</ele>
        <time>2011-06-26T10:30:26Z</time>
      </trkpt>
      <trkpt lat="45.45813" lon="5.93318">
        <ele>1653.543</ele>
        <time>2011-06-26T10:30:40Z</time>
      </trkpt>
      <trkpt lat="45.45816" lon="5.93319">
        <ele>1653.835</ele>
        <time>2011-06-26T10:30:42Z</time>
      </trkpt>
      <trkpt lat="45.45815" lon="5.93329">
        <ele>1655.883</ele>
        <time>2011-06-26T10:30:58Z</time>
      </trkpt>
      <trkpt lat="45.45819" lon="5.93347">
        <ele>1654.734</ele>
        <time>2011-06-26T10:31:09Z</time>
      </trkpt>
      <trkpt lat="45.4582" lon="5.93352">
        <ele>1654.099</ele>
        <time>2011-06-26T10:31:13Z</time>
      </trkpt>
      <trkpt lat="45.45822" lon="5.93353">
        <ele>1653.776</ele>
        <time>2011-06-26T10:31:15Z</time>
      </trkpt>
      <trkpt lat="45.45824" lon="5.93358">
        <ele>1652.65</ele>
        <time>2011-06-26T10:31:19Z</time>
      </trkpt>
      <trkpt lat="45.4583" lon="5.93363">
        <ele>1651.869</ele>
        <time>2011-06-26T10:31:25Z</time>
      </trkpt>
      <trkpt lat="45.45835" lon="5.93367">
        <ele>1651.537</ele>
        <time>2011-06-26T10:31:31Z</time>
      </trkpt>
      <trkpt lat="45.45839" lon="5.93368">
        <ele>1650.913</ele>
        <time>2011-06-26T10:31:36Z</time>
      </trkpt>
      <trkpt lat="45.4584" lon="5.93382">
        <ele>1647.267</ele>
        <time>2011-06-26T10:31:49Z</time>
      </trkpt>
      <trkpt lat="45.45844" lon="5.93387">
        <ele>1646.276</ele>
        <time>2011-06-26T10:32:17Z</time>
      </trkpt>
      <trkpt lat="45.45858" lon="5.93407">
        <ele>1645.097</ele>
        <time>2011-06-26T10:32:34Z</time>
      </trkpt>
      <trkpt lat="45.4586" lon="5.93416">
        <ele>1644.973</ele>
        <time>2011-06-26T10:32:40Z</time>
      </trkpt>
      <trkpt lat="45.45861" lon="5.93418">
        <ele>1644.407</ele>
        <time>2011-06-26T10:32:42Z</time>
      </trkpt>
      <trkpt lat="45.45862" lon="5.93422">
        <ele>1644.444</ele>
        <time>2011-06-26T10:32:45Z</time>
      </trkpt>
      <trkpt lat="45.45864" lon="5.93425">
        <ele>1643.648</ele>
        <time>2011-06-26T10:32:47Z</time>
      </trkpt>
      <trkpt lat="45.45866" lon="5.9343">
        <ele>1643.616</ele>
        <time>2011-06-26T10:32:51Z</time>
      </trkpt>
      <trkpt lat="45.45868" lon="5.93436">
        <ele>1641.987</ele>
        <time>2011-06-26T10:32:58Z</time>
      </trkpt>
      <trkpt lat="45.45867" lon="5.93448">
        <ele>1640.707</ele>
        <time>2011-06-26T10:33:07Z</time>
      </trkpt>
      <trkpt lat="45.4587" lon="5.93453">
        <ele>1640.537</ele>
        <time>2011-06-26T10:33:11Z</time>
      </trkpt>
      <trkpt lat="45.45878" lon="5.93458">
        <ele>1641.106</ele>
        <time>2011-06-26T10:33:30Z</time>
      </trkpt>
      <trkpt lat="45.45889" lon="5.93473">
        <ele>1644.083</ele>
        <time>2011-06-26T10:33:47Z</time>
      </trkpt>
      <trkpt lat="45.45891" lon="5.93479">
        <ele>1645.132</ele>
        <time>2011-06-26T10:33:54Z</time>
      </trkpt>
      <trkpt lat="45.45896" lon="5.93495">
        <ele>1646.735</ele>
        <time>2011-06-26T10:34:13Z</time>
      </trkpt>
      <trkpt lat="45.45899" lon="5.93512">
        <ele>1647.463</ele>
        <time>2011-06-26T10:34:26Z</time>
      </trkpt>
      <trkpt lat="45.45905" lon="5.93533">
        <ele>1648.153</ele>
        <time>2011-06-26T10:34:38Z</time>
      </trkpt>
      <trkpt lat="45.45907" lon="5.93539">
        <ele>1652.175</ele>
        <time>2011-06-26T10:34:46Z</time>
      </trkpt>
      <trkpt lat="45.45908" lon="5.93542">
        <ele>1649.37</ele>
        <time>2011-06-26T10:34:48Z</time>
      </trkpt>
      <trkpt lat="45.45912" lon="5.9355">
        <ele>1645.798</ele>
        <time>2011-06-26T10:34:54Z</time>
      </trkpt>
      <trkpt lat="45.45915" lon="5.93553">
        <ele>1653.651</ele>
        <time>2011-06-26T10:34:57Z</time>
      </trkpt>
      <trkpt lat="45.45915" lon="5.93557">
        <ele>1650.665</ele>
        <time>2011-06-26T10:34:59Z</time>
      </trkpt>
      <trkpt lat="45.45921" lon="5.93567">
        <ele>1652.117</ele>
        <time>2011-06-26T10:35:11Z</time>
      </trkpt>
      <trkpt lat="45.45919" lon="5.93567">
        <ele>1653.602</ele>
        <time>2011-06-26T10:35:18Z</time>
      </trkpt>
      <trkpt lat="45.4592" lon="5.93569">
        <ele>1651.431</ele>
        <time>2011-06-26T10:35:20Z</time>
      </trkpt>
      <trkpt lat="45.45921" lon="5.9357">
        <ele>1652.347</ele>
        <time>2011-06-26T10:35:22Z</time>
      </trkpt>
      <trkpt lat="45.45924" lon="5.93573">
        <ele>1651.158</ele>
        <time>2011-06-26T10:35:46Z</time>
      </trkpt>
      <trkpt lat="45.4593" lon="5.93574">
        <ele>1650.301</ele>
        <time>2011-06-26T10:35:54Z</time>
      </trkpt>
      <trkpt lat="45.45935" lon="5.93569">
        <ele>1649.078</ele>
        <time>2011-06-26T10:35:59Z</time>
      </trkpt>
      <trkpt lat="45.4595" lon="5.93561">
        <ele>1647.276</ele>
        <time>2011-06-26T10:36:14Z</time>
      </trkpt>
      <trkpt lat="45.45953" lon="5.93552">
        <ele>1646.679</ele>
        <time>2011-06-26T10:36:19Z</time>
      </trkpt>
      <trkpt lat="45.45955" lon="5.93548">
        <ele>1646.785</ele>
        <time>2011-06-26T10:36:22Z</time>
      </trkpt>
      <trkpt lat="45.45965" lon="5.93541">
        <ele>1645.802</ele>
        <time>2011-06-26T10:36:34Z</time>
      </trkpt>
      <trkpt lat="45.45976" lon="5.93536">
        <ele>1644.15</ele>
        <time>2011-06-26T10:36:44Z</time>
      </trkpt>
      <trkpt lat="45.4598" lon="5.93535">
        <ele>1643.908</ele>
        <time>2011-06-26T10:36:48Z</time>
      </trkpt>
      <trkpt lat="45.45999" lon="5.93524">
        <ele>1643.705</ele>
        <time>2011-06-26T10:37:04Z</time>
      </trkpt>
      <trkpt lat="45.46015" lon="5.93531">
        <ele>1641.879</ele>
        <time>2011-06-26T10:37:20Z</time>
      </trkpt>
      <trkpt lat="45.46027" lon="5.93529">
        <ele>1640.81</ele>
        <time>2011-06-26T10:37:30Z</time>
      </trkpt>
      <trkpt lat="45.46035" lon="5.93521">
        <ele>1642.387</ele>
        <time>2011-06-26T10:37:43Z</time>
      </trkpt>
      <trkpt lat="45.46045" lon="5.93517">
        <ele>1642.375</ele>
        <time>2011-06-26T10:37:53Z</time>
      </trkpt>
      <trkpt lat="45.46047" lon="5.93516">
        <ele>1642.847</ele>
        <time>2011-06-26T10:37:56Z</time>
      </trkpt>
      <trkpt lat="45.46058" lon="5.93517">
        <ele>1644.513</ele>
        <time>2011-06-26T10:38:10Z</time>
      </trkpt>
      <trkpt lat="45.46067" lon="5.93519">
        <ele>1646.299</ele>
        <time>2011-06-26T10:38:22Z</time>
      </trkpt>
      <trkpt lat="45.46075" lon="5.93518">
        <ele>1648.981</ele>
        <time>2011-06-26T10:38:37Z</time>
      </trkpt>
      <trkpt lat="45.46083" lon="5.93524">
        <ele>1651.749</ele>
        <time>2011-06-26T10:38:48Z</time>
      </trkpt>
      <trkpt lat="45.46087" lon="5.93528">
        <ele>1653.055</ele>
        <time>2011-06-26T10:38:55Z</time>
      </trkpt>
      <trkpt lat="45.46092" lon="5.93541">
        <ele>1654.284</ele>
        <time>2011-06-26T10:39:09Z</time>
      </trkpt>
      <trkpt lat="45.46094" lon="5.93541">
        <ele>1652.656</ele>
        <time>2011-06-26T10:39:51Z</time>
      </trkpt>
      <trkpt lat="45.46099" lon="5.93554">
        <ele>1653.283</ele>
        <time>2011-06-26T10:40:06Z</time>
      </trkpt>
      <trkpt lat="45.46103" lon="5.93559">
        <ele>1652.12</ele>
        <time>2011-06-26T10:40:23Z</time>
      </trkpt>
      <trkpt lat="45.46116" lon="5.93568">
        <ele>1650.616</ele>
        <time>2011-06-26T10:40:40Z</time>
      </trkpt>
      <trkpt lat="45.46116" lon="5.9357">
        <ele>1650.221</ele>
        <time>2011-06-26T10:40:42Z</time>
      </trkpt>
      <trkpt lat="45.46126" lon="5.93591">
        <ele>1646.199</ele>
        <time>2011-06-26T10:41:00Z</time>
      </trkpt>
      <trkpt lat="45.46139" lon="5.93599">
        <ele>1644.073</ele>
        <time>2011-06-26T10:41:15Z</time>
      </trkpt>
      <trkpt lat="45.46153" lon="5.93601">
        <ele>1643.772</ele>
        <time>2011-06-26T10:41:27Z</time>
      </trkpt>
      <trkpt lat="45.46158" lon="5.93602">
        <ele>1643.109</ele>
        <time>2011-06-26T10:41:48Z</time>
      </trkpt>
      <trkpt lat="45.46162" lon="5.936">
        <ele>1643.556</ele>
        <time>2011-06-26T10:41:53Z</time>
      </trkpt>
      <trkpt lat="45.46165" lon="5.93597">
        <ele>1642.072</ele>
        <time>2011-06-26T10:41:57Z</time>
      </trkpt>
      <trkpt lat="45.46176" lon="5.93592">
        <ele>1641.287</ele>
        <time>2011-06-26T10:42:09Z</time>
      </trkpt>
      <trkpt lat="45.46193" lon="5.9359">
        <ele>1643.968</ele>
        <time>2011-06-26T10:42:28Z</time>
      </trkpt>
      <trkpt lat="45.46208" lon="5.93581">
        <ele>1644.94</ele>
        <time>2011-06-26T10:42:43Z</time>
      </trkpt>
      <trkpt lat="45.46216" lon="5.93584">
        <ele>1643.963</ele>
        <time>2011-06-26T10:42:54Z</time>
      </trkpt>
      <trkpt lat="45.46221" lon="5.93582">
        <ele>1640.494</ele>
        <time>2011-06-26T10:43:04Z</time>
      </trkpt>
      <trkpt lat="45.46231" lon="5.93581">
        <ele>1637.884</ele>
        <time>2011-06-26T10:43:16Z</time>
      </trkpt>
      <trkpt lat="45.46232" lon="5.9358">
        <ele>1637.303</ele>
        <time>2011-06-26T10:43:18Z</time>
      </trkpt>
      <trkpt lat="45.46236" lon="5.93583">
        <ele>1637.135</ele>
        <time>2011-06-26T10:43:31Z</time>
      </trkpt>
      <trkpt lat="45.46235" lon="5.93585">
        <ele>1636.438</ele>
        <time>2011-06-26T10:46:50Z</time>
      </trkpt>
      <trkpt lat="45.46233" lon="5.93583">
        <ele>1637.973</ele>
        <time>2011-06-26T10:47:15Z</time>
      </trkpt>
      <trkpt lat="45.46233" lon="5.93567">
        <ele>1641.094</ele>
        <time>2011-06-26T10:47:31Z</time>
      </trkpt>
      <trkpt lat="45.4623" lon="5.93559">
        <ele>1643.004</ele>
        <time>2011-06-26T10:47:41Z</time>
      </trkpt>
      <trkpt lat="45.46227" lon="5.93547">
        <ele>1645.282</ele>
        <time>2011-06-26T10:47:55Z</time>
      </trkpt>
      <trkpt lat="45.46222" lon="5.93539">
        <ele>1647.151</ele>
        <time>2011-06-26T10:48:05Z</time>
      </trkpt>
      <trkpt lat="45.46218" lon="5.93533">
        <ele>1648.344</ele>
        <time>2011-06-26T10:48:17Z</time>
      </trkpt>
      <trkpt lat="45.46214" lon="5.93524">
        <ele>1649.605</ele>
        <time>2011-06-26T10:48:28Z</time>
      </trkpt>
      <trkpt lat="45.46209" lon="5.93518">
        <ele>1651.092</ele>
        <time>2011-06-26T10:48:41Z</time>
      </trkpt>
      <trkpt lat="45.46205" lon="5.9351">
        <ele>1653.86</ele>
        <time>2011-06-26T10:48:56Z</time>
      </trkpt>
      <trkpt lat="45.46209" lon="5.93502">
        <ele>1655.68</ele>
        <time>2011-06-26T10:49:09Z</time>
      </trkpt>
      <trkpt lat="45.4621" lon="5.93492">
        <ele>1658.241</ele>
        <time>2011-06-26T10:49:22Z</time>
      </trkpt>
      <trkpt lat="45.46206" lon="5.93486">
        <ele>1660.738</ele>
        <time>2011-06-26T10:49:32Z</time>
      </trkpt>
      <trkpt lat="45.46205" lon="5.93474">
        <ele>1663.948</ele>
        <time>2011-06-26T10:49:54Z</time>
      </trkpt>
      <trkpt lat="45.46204" lon="5.93463">
        <ele>1666.868</ele>
        <time>2011-06-26T10:50:10Z</time>
      </trkpt>
      <trkpt lat="45.46199" lon="5.93455">
        <ele>1668.735</ele>
        <time>2011-06-26T10:50:23Z</time>
      </trkpt>
      <trkpt lat="45.46195" lon="5.93442">
        <ele>1671.468</ele>
        <time>2011-06-26T10:50:38Z</time>
      </trkpt>
      <trkpt lat="45.46193" lon="5.9344">
        <ele>1672.352</ele>
        <time>2011-06-26T10:50:40Z</time>
      </trkpt>
      <trkpt lat="45.46186" lon="5.9343">
        <ele>1673.981</ele>
        <time>2011-06-26T10:50:53Z</time>
      </trkpt>
      <trkpt lat="45.46179" lon="5.93417">
        <ele>1675.966</ele>
        <time>2011-06-26T10:51:07Z</time>
      </trkpt>
      <trkpt lat="45.4618" lon="5.93408">
        <ele>1678.33</ele>
        <time>2011-06-26T10:51:29Z</time>
      </trkpt>
      <trkpt lat="45.46184" lon="5.93397">
        <ele>1681.342</ele>
        <time>2011-06-26T10:51:46Z</time>
      </trkpt>
      <trkpt lat="45.46182" lon="5.93386">
        <ele>1684.768</ele>
        <time>2011-06-26T10:52:00Z</time>
      </trkpt>
      <trkpt lat="45.46181" lon="5.93376">
        <ele>1687.838</ele>
        <time>2011-06-26T10:52:13Z</time>
      </trkpt>
      <trkpt lat="45.46184" lon="5.93367">
        <ele>1690.849</ele>
        <time>2011-06-26T10:52:28Z</time>
      </trkpt>
      <trkpt lat="45.46186" lon="5.9336">
        <ele>1694.123</ele>
        <time>2011-06-26T10:52:41Z</time>
      </trkpt>
      <trkpt lat="45.46187" lon="5.93356">
        <ele>1696.302</ele>
        <time>2011-06-26T10:52:56Z</time>
      </trkpt>
      <trkpt lat="45.46187" lon="5.93347">
        <ele>1699.393</ele>
        <time>2011-06-26T10:53:51Z</time>
      </trkpt>
      <trkpt lat="45.46187" lon="5.93337">
        <ele>1702.489</ele>
        <time>2011-06-26T10:54:05Z</time>
      </trkpt>
      <trkpt lat="45.46182" lon="5.93329">
        <ele>1705.451</ele>
        <time>2011-06-26T10:54:20Z</time>
      </trkpt>
      <trkpt lat="45.4618" lon="5.9332">
        <ele>1707.76</ele>
        <time>2011-06-26T10:54:33Z</time>
      </trkpt>
      <trkpt lat="45.46187" lon="5.93312">
        <ele>1709.981</ele>
        <time>2011-06-26T10:55:14Z</time>
      </trkpt>
      <trkpt lat="45.46191" lon="5.93308">
        <ele>1712.995</ele>
        <time>2011-06-26T10:55:28Z</time>
      </trkpt>
      <trkpt lat="45.46194" lon="5.93305">
        <ele>1715.72</ele>
        <time>2011-06-26T10:55:41Z</time>
      </trkpt>
      <trkpt lat="45.46199" lon="5.93306">
        <ele>1718.659</ele>
        <time>2011-06-26T10:56:18Z</time>
      </trkpt>
      <trkpt lat="45.46202" lon="5.93304">
        <ele>1721.566</ele>
        <time>2011-06-26T10:56:32Z</time>
      </trkpt>
      <trkpt lat="45.46207" lon="5.9331">
        <ele>1724.867</ele>
        <time>2011-06-26T10:56:47Z</time>
      </trkpt>
      <trkpt lat="45.46209" lon="5.93314">
        <ele>1727.013</ele>
        <time>2011-06-26T10:57:23Z</time>
      </trkpt>
      <trkpt lat="45.46211" lon="5.93314">
        <ele>1727.693</ele>
        <time>2011-06-26T10:58:10Z</time>
      </trkpt>
      <trkpt lat="45.46214" lon="5.93308">
        <ele>1730.334</ele>
        <time>2011-06-26T10:58:24Z</time>
      </trkpt>
      <trkpt lat="45.46219" lon="5.93312">
        <ele>1732.786</ele>
        <time>2011-06-26T10:58:36Z</time>
      </trkpt>
      <trkpt lat="45.46225" lon="5.93316">
        <ele>1735.269</ele>
        <time>2011-06-26T10:58:53Z</time>
      </trkpt>
      <trkpt lat="45.46234" lon="5.93311">
        <ele>1737.368</ele>
        <time>2011-06-26T10:59:07Z</time>
      </trkpt>
      <trkpt lat="45.46232" lon="5.93302">
        <ele>1740.456</ele>
        <time>2011-06-26T10:59:17Z</time>
      </trkpt>
      <trkpt lat="45.46229" lon="5.93293">
        <ele>1743.279</ele>
        <time>2011-06-26T10:59:28Z</time>
      </trkpt>
      <trkpt lat="45.46231" lon="5.93288">
        <ele>1745.959</ele>
        <time>2011-06-26T10:59:41Z</time>
      </trkpt>
      <trkpt lat="45.4623" lon="5.93283">
        <ele>1747.984</ele>
        <time>2011-06-26T10:59:56Z</time>
      </trkpt>
      <trkpt lat="45.46234" lon="5.93274">
        <ele>1750.942</ele>
        <time>2011-06-26T11:00:12Z</time>
      </trkpt>
      <trkpt lat="45.46236" lon="5.93266">
        <ele>1754.279</ele>
        <time>2011-06-26T11:00:25Z</time>
      </trkpt>
      <trkpt lat="45.46241" lon="5.93258">
        <ele>1757.781</ele>
        <time>2011-06-26T11:00:41Z</time>
      </trkpt>
      <trkpt lat="45.46244" lon="5.9326">
        <ele>1759.066</ele>
        <time>2011-06-26T11:01:03Z</time>
      </trkpt>
      <trkpt lat="45.46246" lon="5.93259">
        <ele>1759.36</ele>
        <time>2011-06-26T11:01:10Z</time>
      </trkpt>
      <trkpt lat="45.4626" lon="5.93249">
        <ele>1760.348</ele>
        <time>2011-06-26T11:01:26Z</time>
      </trkpt>
      <trkpt lat="45.46262" lon="5.93238">
        <ele>1763.494</ele>
        <time>2011-06-26T11:01:41Z</time>
      </trkpt>
      <trkpt lat="45.46258" lon="5.93235">
        <ele>1763.438</ele>
        <time>2011-06-26T11:01:54Z</time>
      </trkpt>
      <trkpt lat="45.4626" lon="5.93235">
        <ele>1763.163</ele>
        <time>2011-06-26T11:02:04Z</time>
      </trkpt>
      <trkpt lat="45.46264" lon="5.93235">
        <ele>1764.47</ele>
        <time>2011-06-26T11:02:16Z</time>
      </trkpt>
      <trkpt lat="45.46264" lon="5.93229">
        <ele>1768.557</ele>
        <time>2011-06-26T11:03:01Z</time>
      </trkpt>
      <trkpt lat="45.46265" lon="5.93231">
        <ele>1767.178</ele>
        <time>2011-06-26T11:03:03Z</time>
      </trkpt>
      <trkpt lat="45.46268" lon="5.93235">
        <ele>1769.133</ele>
        <time>2011-06-26T11:03:12Z</time>
      </trkpt>
      <trkpt lat="45.46276" lon="5.93239">
        <ele>1767.526</ele>
        <time>2011-06-26T11:07:16Z</time>
      </trkpt>
      <trkpt lat="45.46275" lon="5.9324">
        <ele>1767.785</ele>
        <time>2011-06-26T11:07:40Z</time>
      </trkpt>
      <trkpt lat="45.46276" lon="5.93239">
        <ele>1767.417</ele>
        <time>2011-06-26T11:07:54Z</time>
      </trkpt>
      <trkpt lat="45.46281" lon="5.93243">
        <ele>1766.869</ele>
        <time>2011-06-26T11:08:08Z</time>
      </trkpt>
      <trkpt lat="45.46285" lon="5.93243">
        <ele>1766.694</ele>
        <time>2011-06-26T11:08:12Z</time>
      </trkpt>
      <trkpt lat="45.46288" lon="5.93248">
        <ele>1766.342</ele>
        <time>2011-06-26T11:08:16Z</time>
      </trkpt>
      <trkpt lat="45.46291" lon="5.93253">
        <ele>1766.011</ele>
        <time>2011-06-26T11:08:20Z</time>
      </trkpt>
      <trkpt lat="45.46311" lon="5.93269">
        <ele>1764.002</ele>
        <time>2011-06-26T11:08:40Z</time>
      </trkpt>
      <trkpt lat="45.46324" lon="5.93277">
        <ele>1764.748</ele>
        <time>2011-06-26T11:08:55Z</time>
      </trkpt>
      <trkpt lat="45.46333" lon="5.9328">
        <ele>1767.531</ele>
        <time>2011-06-26T11:09:11Z</time>
      </trkpt>
      <trkpt lat="45.46341" lon="5.93283">
        <ele>1770.026</ele>
        <time>2011-06-26T11:09:27Z</time>
      </trkpt>
      <trkpt lat="45.46348" lon="5.93288">
        <ele>1772.995</ele>
        <time>2011-06-26T11:09:41Z</time>
      </trkpt>
      <trkpt lat="45.4635" lon="5.93294">
        <ele>1775.042</ele>
        <time>2011-06-26T11:09:48Z</time>
      </trkpt>
      <trkpt lat="45.46358" lon="5.93303">
        <ele>1777.467</ele>
        <time>2011-06-26T11:10:03Z</time>
      </trkpt>
      <trkpt lat="45.46359" lon="5.93304">
        <ele>1778.552</ele>
        <time>2011-06-26T11:10:06Z</time>
      </trkpt>
      <trkpt lat="45.46366" lon="5.93301">
        <ele>1780.139</ele>
        <time>2011-06-26T11:10:20Z</time>
      </trkpt>
      <trkpt lat="45.46371" lon="5.93291">
        <ele>1781.321</ele>
        <time>2011-06-26T11:10:33Z</time>
      </trkpt>
      <trkpt lat="45.46374" lon="5.93284">
        <ele>1782.048</ele>
        <time>2011-06-26T11:11:04Z</time>
      </trkpt>
      <trkpt lat="45.46382" lon="5.93263">
        <ele>1784.141</ele>
        <time>2011-06-26T11:11:24Z</time>
      </trkpt>
      <trkpt lat="45.46386" lon="5.93258">
        <ele>1784.914</ele>
        <time>2011-06-26T11:11:41Z</time>
      </trkpt>
      <trkpt lat="45.46392" lon="5.93244">
        <ele>1786.704</ele>
        <time>2011-06-26T11:11:56Z</time>
      </trkpt>
      <trkpt lat="45.46403" lon="5.93227">
        <ele>1788.269</ele>
        <time>2011-06-26T11:12:12Z</time>
      </trkpt>
      <trkpt lat="45.46414" lon="5.9321">
        <ele>1788.962</ele>
        <time>2011-06-26T11:12:28Z</time>
      </trkpt>
      <trkpt lat="45.46425" lon="5.93198">
        <ele>1790.784</ele>
        <time>2011-06-26T11:12:44Z</time>
      </trkpt>
      <trkpt lat="45.46428" lon="5.93196">
        <ele>1791.007</ele>
        <time>2011-06-26T11:12:47Z</time>
      </trkpt>
      <trkpt lat="45.46445" lon="5.93172">
        <ele>1791.591</ele>
        <time>2011-06-26T11:13:09Z</time>
      </trkpt>
      <trkpt lat="45.46448" lon="5.93167">
        <ele>1791.893</ele>
        <time>2011-06-26T11:13:13Z</time>
      </trkpt>
      <trkpt lat="45.46459" lon="5.93153">
        <ele>1792.49</ele>
        <time>2011-06-26T11:13:29Z</time>
      </trkpt>
      <trkpt lat="45.46471" lon="5.93142">
        <ele>1792.95</ele>
        <time>2011-06-26T11:13:45Z</time>
      </trkpt>
      <trkpt lat="45.46473" lon="5.9314">
        <ele>1793.388</ele>
        <time>2011-06-26T11:13:48Z</time>
      </trkpt>
      <trkpt lat="45.46475" lon="5.93137">
        <ele>1793.398</ele>
        <time>2011-06-26T11:13:51Z</time>
      </trkpt>
      <trkpt lat="45.46491" lon="5.93134">
        <ele>1793.757</ele>
        <time>2011-06-26T11:14:06Z</time>
      </trkpt>
      <trkpt lat="45.46494" lon="5.93134">
        <ele>1794.111</ele>
        <time>2011-06-26T11:14:09Z</time>
      </trkpt>
      <trkpt lat="45.46498" lon="5.93136">
        <ele>1794.549</ele>
        <time>2011-06-26T11:14:13Z</time>
      </trkpt>
      <trkpt lat="45.46515" lon="5.93136">
        <ele>1797.921</ele>
        <time>2011-06-26T11:14:33Z</time>
      </trkpt>
      <trkpt lat="45.46524" lon="5.93129">
        <ele>1799.985</ele>
        <time>2011-06-26T11:14:45Z</time>
      </trkpt>
      <trkpt lat="45.46537" lon="5.93118">
        <ele>1799.687</ele>
        <time>2011-06-26T11:15:02Z</time>
      </trkpt>
      <trkpt lat="45.4654" lon="5.93109">
        <ele>1799.227</ele>
        <time>2011-06-26T11:15:10Z</time>
      </trkpt>
      <trkpt lat="45.46553" lon="5.931">
        <ele>1800.422</ele>
        <time>2011-06-26T11:15:29Z</time>
      </trkpt>
      <trkpt lat="45.46566" lon="5.93101">
        <ele>1802.461</ele>
        <time>2011-06-26T11:15:44Z</time>
      </trkpt>
      <trkpt lat="45.46574" lon="5.93099">
        <ele>1802.045</ele>
        <time>2011-06-26T11:15:52Z</time>
      </trkpt>
      <trkpt lat="45.46588" lon="5.93105">
        <ele>1803.852</ele>
        <time>2011-06-26T11:16:09Z</time>
      </trkpt>
      <trkpt lat="45.46599" lon="5.93111">
        <ele>1806.89</ele>
        <time>2011-06-26T11:16:26Z</time>
      </trkpt>
      <trkpt lat="45.46597" lon="5.93105">
        <ele>1807.253</ele>
        <time>2011-06-26T11:18:55Z</time>
      </trkpt>
      <trkpt lat="45.46606" lon="5.93111">
        <ele>1809.103</ele>
        <time>2011-06-26T11:19:09Z</time>
      </trkpt>
      <trkpt lat="45.46609" lon="5.93111">
        <ele>1809.922</ele>
        <time>2011-06-26T11:19:38Z</time>
      </trkpt>
      <trkpt lat="45.46618" lon="5.93102">
        <ele>1811.791</ele>
        <time>2011-06-26T11:19:58Z</time>
      </trkpt>
      <trkpt lat="45.4662" lon="5.93098">
        <ele>1811.079</ele>
        <time>2011-06-26T11:20:22Z</time>
      </trkpt>
      <trkpt lat="45.46623" lon="5.93096">
        <ele>1812.536</ele>
        <time>2011-06-26T11:20:38Z</time>
      </trkpt>
      <trkpt lat="45.46629" lon="5.93095">
        <ele>1811.968</ele>
        <time>2011-06-26T11:20:44Z</time>
      </trkpt>
      <trkpt lat="45.46641" lon="5.93085">
        <ele>1811.935</ele>
        <time>2011-06-26T11:20:58Z</time>
      </trkpt>
      <trkpt lat="45.46657" lon="5.93081">
        <ele>1812.797</ele>
        <time>2011-06-26T11:21:16Z</time>
      </trkpt>
      <trkpt lat="45.46673" lon="5.93088">
        <ele>1814.083</ele>
        <time>2011-06-26T11:21:35Z</time>
      </trkpt>
      <trkpt lat="45.46677" lon="5.93082">
        <ele>1814.344</ele>
        <time>2011-06-26T11:21:41Z</time>
      </trkpt>
      <trkpt lat="45.46692" lon="5.93076">
        <ele>1816.625</ele>
        <time>2011-06-26T11:21:59Z</time>
      </trkpt>
      <trkpt lat="45.46696" lon="5.93071">
        <ele>1817.401</ele>
        <time>2011-06-26T11:22:05Z</time>
      </trkpt>
      <trkpt lat="45.46705" lon="5.93063">
        <ele>1818.743</ele>
        <time>2011-06-26T11:22:20Z</time>
      </trkpt>
      <trkpt lat="45.46712" lon="5.93064">
        <ele>1820.785</ele>
        <time>2011-06-26T11:22:31Z</time>
      </trkpt>
      <trkpt lat="45.46714" lon="5.93064">
        <ele>1821.451</ele>
        <time>2011-06-26T11:22:35Z</time>
      </trkpt>
      <trkpt lat="45.4672" lon="5.9306">
        <ele>1822.179</ele>
        <time>2011-06-26T11:22:41Z</time>
      </trkpt>
      <trkpt lat="45.46724" lon="5.93059">
        <ele>1822.755</ele>
        <time>2011-06-26T11:22:45Z</time>
      </trkpt>
      <trkpt lat="45.46738" lon="5.93062">
        <ele>1823.686</ele>
        <time>2011-06-26T11:23:03Z</time>
      </trkpt>
      <trkpt lat="45.46745" lon="5.93049">
        <ele>1824.847</ele>
        <time>2011-06-26T11:23:17Z</time>
      </trkpt>
      <trkpt lat="45.46753" lon="5.93022">
        <ele>1827.796</ele>
        <time>2011-06-26T11:23:40Z</time>
      </trkpt>
      <trkpt lat="45.4676" lon="5.93004">
        <ele>1830.116</ele>
        <time>2011-06-26T11:23:58Z</time>
      </trkpt>
      <trkpt lat="45.46774" lon="5.92983">
        <ele>1832.883</ele>
        <time>2011-06-26T11:24:22Z</time>
      </trkpt>
      <trkpt lat="45.46783" lon="5.9297">
        <ele>1834.94</ele>
        <time>2011-06-26T11:24:40Z</time>
      </trkpt>
      <trkpt lat="45.46789" lon="5.9296">
        <ele>1836.351</ele>
        <time>2011-06-26T11:24:53Z</time>
      </trkpt>
      <trkpt lat="45.46796" lon="5.92953">
        <ele>1837.314</ele>
        <time>2011-06-26T11:25:02Z</time>
      </trkpt>
      <trkpt lat="45.46803" lon="5.92932">
        <ele>1840.375</ele>
        <time>2011-06-26T11:25:22Z</time>
      </trkpt>
      <trkpt lat="45.46801" lon="5.92914">
        <ele>1843.591</ele>
        <time>2011-06-26T11:25:41Z</time>
      </trkpt>
      <trkpt lat="45.468" lon="5.92912">
        <ele>1843.886</ele>
        <time>2011-06-26T11:25:43Z</time>
      </trkpt>
      <trkpt lat="45.46796" lon="5.92902">
        <ele>1844.879</ele>
        <time>2011-06-26T11:26:05Z</time>
      </trkpt>
      <trkpt lat="45.46794" lon="5.92882">
        <ele>1847.024</ele>
        <time>2011-06-26T11:26:25Z</time>
      </trkpt>
      <trkpt lat="45.46789" lon="5.92874">
        <ele>1848.276</ele>
        <time>2011-06-26T11:26:40Z</time>
      </trkpt>
      <trkpt lat="45.46791" lon="5.92859">
        <ele>1851.241</ele>
        <time>2011-06-26T11:26:58Z</time>
      </trkpt>
      <trkpt lat="45.46787" lon="5.92837">
        <ele>1854.543</ele>
        <time>2011-06-26T11:27:18Z</time>
      </trkpt>
      <trkpt lat="45.46782" lon="5.92829">
        <ele>1855.766</ele>
        <time>2011-06-26T11:27:36Z</time>
      </trkpt>
      <trkpt lat="45.46773" lon="5.92821">
        <ele>1858.812</ele>
        <time>2011-06-26T11:27:51Z</time>
      </trkpt>
      <trkpt lat="45.4677" lon="5.92818">
        <ele>1860.465</ele>
        <time>2011-06-26T11:27:57Z</time>
      </trkpt>
      <trkpt lat="45.46769" lon="5.92803">
        <ele>1862.923</ele>
        <time>2011-06-26T11:28:16Z</time>
      </trkpt>
      <trkpt lat="45.46768" lon="5.9279">
        <ele>1865.21</ele>
        <time>2011-06-26T11:28:33Z</time>
      </trkpt>
      <trkpt lat="45.46767" lon="5.9279">
        <ele>1864.985</ele>
        <time>2011-06-26T11:28:41Z</time>
      </trkpt>
      <trkpt lat="45.46757" lon="5.92776">
        <ele>1867.187</ele>
        <time>2011-06-26T11:29:00Z</time>
      </trkpt>
      <trkpt lat="45.46756" lon="5.9276">
        <ele>1870.219</ele>
        <time>2011-06-26T11:29:17Z</time>
      </trkpt>
      <trkpt lat="45.46761" lon="5.92745">
        <ele>1873.451</ele>
        <time>2011-06-26T11:29:37Z</time>
      </trkpt>
      <trkpt lat="45.46761" lon="5.92733">
        <ele>1876.658</ele>
        <time>2011-06-26T11:29:54Z</time>
      </trkpt>
      <trkpt lat="45.4676" lon="5.9272">
        <ele>1879.749</ele>
        <time>2011-06-26T11:30:12Z</time>
      </trkpt>
      <trkpt lat="45.46762" lon="5.9271">
        <ele>1883.355</ele>
        <time>2011-06-26T11:30:28Z</time>
      </trkpt>
      <trkpt lat="45.46761" lon="5.92707">
        <ele>1884.507</ele>
        <time>2011-06-26T11:30:49Z</time>
      </trkpt>
      <trkpt lat="45.46762" lon="5.92691">
        <ele>1886.935</ele>
        <time>2011-06-26T11:31:12Z</time>
      </trkpt>
      <trkpt lat="45.46759" lon="5.92681">
        <ele>1890.385</ele>
        <time>2011-06-26T11:31:29Z</time>
      </trkpt>
      <trkpt lat="45.46764" lon="5.92667">
        <ele>1893.263</ele>
        <time>2011-06-26T11:31:47Z</time>
      </trkpt>
      <trkpt lat="45.46763" lon="5.92653">
        <ele>1895.673</ele>
        <time>2011-06-26T11:32:03Z</time>
      </trkpt>
      <trkpt lat="45.46763" lon="5.92651">
        <ele>1895.906</ele>
        <time>2011-06-26T11:32:05Z</time>
      </trkpt>
      <trkpt lat="45.46763" lon="5.92623">
        <ele>1899.677</ele>
        <time>2011-06-26T11:32:28Z</time>
      </trkpt>
      <trkpt lat="45.46765" lon="5.92617">
        <ele>1901.018</ele>
        <time>2011-06-26T11:33:34Z</time>
      </trkpt>
      <trkpt lat="45.46761" lon="5.92612">
        <ele>1901.127</ele>
        <time>2011-06-26T11:33:39Z</time>
      </trkpt>
      <trkpt lat="45.46758" lon="5.9261">
        <ele>1901.716</ele>
        <time>2011-06-26T11:33:42Z</time>
      </trkpt>
      <trkpt lat="45.46755" lon="5.92602">
        <ele>1902.108</ele>
        <time>2011-06-26T11:33:47Z</time>
      </trkpt>
      <trkpt lat="45.46753" lon="5.92598">
        <ele>1902.48</ele>
        <time>2011-06-26T11:33:50Z</time>
      </trkpt>
      <trkpt lat="45.46745" lon="5.92576">
        <ele>1901.417</ele>
        <time>2011-06-26T11:34:06Z</time>
      </trkpt>
      <trkpt lat="45.46742" lon="5.9257">
        <ele>1900.886</ele>
        <time>2011-06-26T11:34:10Z</time>
      </trkpt>
      <trkpt lat="45.46731" lon="5.92546">
        <ele>1900.604</ele>
        <time>2011-06-26T11:34:28Z</time>
      </trkpt>
      <trkpt lat="45.46725" lon="5.92521">
        <ele>1901.582</ele>
        <time>2011-06-26T11:34:45Z</time>
      </trkpt>
      <trkpt lat="45.46727" lon="5.92486">
        <ele>1898.805</ele>
        <time>2011-06-26T11:35:07Z</time>
      </trkpt>
      <trkpt lat="45.46739" lon="5.92465">
        <ele>1896.389</ele>
        <time>2011-06-26T11:35:25Z</time>
      </trkpt>
      <trkpt lat="45.46748" lon="5.9244">
        <ele>1895.078</ele>
        <time>2011-06-26T11:37:06Z</time>
      </trkpt>
      <trkpt lat="45.46737" lon="5.9247">
        <ele>1896.219</ele>
        <time>2011-06-26T11:37:26Z</time>
      </trkpt>
      <trkpt lat="45.46724" lon="5.92488">
        <ele>1898.201</ele>
        <time>2011-06-26T11:37:43Z</time>
      </trkpt>
      <trkpt lat="45.46698" lon="5.925">
        <ele>1899.003</ele>
        <time>2011-06-26T11:38:07Z</time>
      </trkpt>
      <trkpt lat="45.46676" lon="5.92504">
        <ele>1899.4</ele>
        <time>2011-06-26T11:38:26Z</time>
      </trkpt>
      <trkpt lat="45.46658" lon="5.92506">
        <ele>1899.603</ele>
        <time>2011-06-26T11:38:44Z</time>
      </trkpt>
      <trkpt lat="45.46642" lon="5.92504">
        <ele>1903.01</ele>
        <time>2011-06-26T11:39:02Z</time>
      </trkpt>
      <trkpt lat="45.46636" lon="5.92509">
        <ele>1906.53</ele>
        <time>2011-06-26T11:39:16Z</time>
      </trkpt>
      <trkpt lat="45.46629" lon="5.92517">
        <ele>1909.818</ele>
        <time>2011-06-26T11:39:33Z</time>
      </trkpt>
      <trkpt lat="45.46626" lon="5.92517">
        <ele>1909.961</ele>
        <time>2011-06-26T11:39:36Z</time>
      </trkpt>
      <trkpt lat="45.46614" lon="5.92517">
        <ele>1910.517</ele>
        <time>2011-06-26T11:39:47Z</time>
      </trkpt>
      <trkpt lat="45.46608" lon="5.92516">
        <ele>1910.762</ele>
        <time>2011-06-26T11:40:04Z</time>
      </trkpt>
      <trkpt lat="45.46592" lon="5.92517">
        <ele>1913.043</ele>
        <time>2011-06-26T11:40:24Z</time>
      </trkpt>
      <trkpt lat="45.46575" lon="5.92513">
        <ele>1915.719</ele>
        <time>2011-06-26T11:40:43Z</time>
      </trkpt>
      <trkpt lat="45.46548" lon="5.92509">
        <ele>1916.41</ele>
        <time>2011-06-26T11:41:05Z</time>
      </trkpt>
      <trkpt lat="45.46538" lon="5.92504">
        <ele>1917.147</ele>
        <time>2011-06-26T11:41:16Z</time>
      </trkpt>
      <trkpt lat="45.46521" lon="5.92507">
        <ele>1921.357</ele>
        <time>2011-06-26T11:41:38Z</time>
      </trkpt>
      <trkpt lat="45.46506" lon="5.92502">
        <ele>1923.773</ele>
        <time>2011-06-26T11:41:58Z</time>
      </trkpt>
      <trkpt lat="45.46493" lon="5.92504">
        <ele>1926.563</ele>
        <time>2011-06-26T11:42:14Z</time>
      </trkpt>
      <trkpt lat="45.46491" lon="5.92503">
        <ele>1926.979</ele>
        <time>2011-06-26T11:42:34Z</time>
      </trkpt>
      <trkpt lat="45.46485" lon="5.92507">
        <ele>1926.74</ele>
        <time>2011-06-26T11:42:41Z</time>
      </trkpt>
      <trkpt lat="45.46483" lon="5.92507">
        <ele>1927.294</ele>
        <time>2011-06-26T11:42:43Z</time>
      </trkpt>
      <trkpt lat="45.46478" lon="5.92509">
        <ele>1927.406</ele>
        <time>2011-06-26T11:42:48Z</time>
      </trkpt>
      <trkpt lat="45.46472" lon="5.92512">
        <ele>1927.442</ele>
        <time>2011-06-26T11:42:54Z</time>
      </trkpt>
      <trkpt lat="45.4647" lon="5.92511">
        <ele>1925.342</ele>
        <time>2011-06-26T11:42:57Z</time>
      </trkpt>
      <trkpt lat="45.46468" lon="5.92507">
        <ele>1927.379</ele>
        <time>2011-06-26T11:43:32Z</time>
      </trkpt>
      <trkpt lat="45.46464" lon="5.92507">
        <ele>1927.586</ele>
        <time>2011-06-26T11:43:41Z</time>
      </trkpt>
      <trkpt lat="45.46464" lon="5.92514">
        <ele>1927.478</ele>
        <time>2011-06-26T11:44:38Z</time>
      </trkpt>
      <trkpt lat="45.46462" lon="5.92521">
        <ele>1926.099</ele>
        <time>2011-06-26T11:44:43Z</time>
      </trkpt>
      <trkpt lat="45.46441" lon="5.92534">
        <ele>1923.343</ele>
        <time>2011-06-26T11:45:06Z</time>
      </trkpt>
      <trkpt lat="45.46432" lon="5.92539">
        <ele>1921.528</ele>
        <time>2011-06-26T11:45:17Z</time>
      </trkpt>
      <trkpt lat="45.46418" lon="5.92545">
        <ele>1918.947</ele>
        <time>2011-06-26T11:45:35Z</time>
      </trkpt>
      <trkpt lat="45.46412" lon="5.92551">
        <ele>1916.064</ele>
        <time>2011-06-26T11:45:48Z</time>
      </trkpt>
      <trkpt lat="45.46412" lon="5.92555">
        <ele>1915.525</ele>
        <time>2011-06-26T11:45:51Z</time>
      </trkpt>
      <trkpt lat="45.46409" lon="5.92568">
        <ele>1913.111</ele>
        <time>2011-06-26T11:46:07Z</time>
      </trkpt>
      <trkpt lat="45.46403" lon="5.9257">
        <ele>1911.323</ele>
        <time>2011-06-26T11:46:16Z</time>
      </trkpt>
      <trkpt lat="45.46394" lon="5.92571">
        <ele>1907.858</ele>
        <time>2011-06-26T11:46:31Z</time>
      </trkpt>
      <trkpt lat="45.4639" lon="5.92572">
        <ele>1904.8</ele>
        <time>2011-06-26T11:46:41Z</time>
      </trkpt>
      <trkpt lat="45.46378" lon="5.92572">
        <ele>1901.815</ele>
        <time>2011-06-26T11:46:56Z</time>
      </trkpt>
      <trkpt lat="45.46375" lon="5.92572">
        <ele>1900.89</ele>
        <time>2011-06-26T11:47:02Z</time>
      </trkpt>
      <trkpt lat="45.46372" lon="5.92571">
        <ele>1900.589</ele>
        <time>2011-06-26T11:47:05Z</time>
      </trkpt>
      <trkpt lat="45.4636" lon="5.92557">
        <ele>1898.676</ele>
        <time>2011-06-26T11:47:20Z</time>
      </trkpt>
      <trkpt lat="45.4635" lon="5.92544">
        <ele>1896.767</ele>
        <time>2011-06-26T11:47:35Z</time>
      </trkpt>
      <trkpt lat="45.46334" lon="5.92526">
        <ele>1894</ele>
        <time>2011-06-26T11:47:55Z</time>
      </trkpt>
      <trkpt lat="45.46317" lon="5.92519">
        <ele>1892.821</ele>
        <time>2011-06-26T11:48:12Z</time>
      </trkpt>
      <trkpt lat="45.46292" lon="5.92509">
        <ele>1890.63</ele>
        <time>2011-06-26T11:48:34Z</time>
      </trkpt>
      <trkpt lat="45.4627" lon="5.92499">
        <ele>1890.839</ele>
        <time>2011-06-26T11:48:54Z</time>
      </trkpt>
      <trkpt lat="45.46259" lon="5.92493">
        <ele>1889.96</ele>
        <time>2011-06-26T11:49:05Z</time>
      </trkpt>
      <trkpt lat="45.46248" lon="5.92475">
        <ele>1891.19</ele>
        <time>2011-06-26T11:49:23Z</time>
      </trkpt>
      <trkpt lat="45.46243" lon="5.9247">
        <ele>1892.175</ele>
        <time>2011-06-26T11:51:24Z</time>
      </trkpt>
      <trkpt lat="45.46233" lon="5.92476">
        <ele>1890.944</ele>
        <time>2011-06-26T11:51:34Z</time>
      </trkpt>
      <trkpt lat="45.46215" lon="5.92482">
        <ele>1889.538</ele>
        <time>2011-06-26T11:51:52Z</time>
      </trkpt>
      <trkpt lat="45.46199" lon="5.92479">
        <ele>1890.507</ele>
        <time>2011-06-26T11:52:08Z</time>
      </trkpt>
      <trkpt lat="45.4618" lon="5.92473">
        <ele>1892.067</ele>
        <time>2011-06-26T11:52:27Z</time>
      </trkpt>
      <trkpt lat="45.46164" lon="5.92473">
        <ele>1892.482</ele>
        <time>2011-06-26T11:52:43Z</time>
      </trkpt>
      <trkpt lat="45.46161" lon="5.92473">
        <ele>1892.803</ele>
        <time>2011-06-26T11:52:46Z</time>
      </trkpt>
      <trkpt lat="45.46153" lon="5.9247">
        <ele>1893.412</ele>
        <time>2011-06-26T11:52:54Z</time>
      </trkpt>
      <trkpt lat="45.46135" lon="5.92461">
        <ele>1891.678</ele>
        <time>2011-06-26T11:53:11Z</time>
      </trkpt>
      <trkpt lat="45.46103" lon="5.9245">
        <ele>1891.601</ele>
        <time>2011-06-26T11:53:38Z</time>
      </trkpt>
      <trkpt lat="45.46086" lon="5.92444">
        <ele>1894.039</ele>
        <time>2011-06-26T11:53:56Z</time>
      </trkpt>
      <trkpt lat="45.46076" lon="5.9244">
        <ele>1894.337</ele>
        <time>2011-06-26T11:54:12Z</time>
      </trkpt>
      <trkpt lat="45.46064" lon="5.9244">
        <ele>1893.897</ele>
        <time>2011-06-26T11:54:25Z</time>
      </trkpt>
      <trkpt lat="45.46055" lon="5.92438">
        <ele>1897.233</ele>
        <time>2011-06-26T11:54:38Z</time>
      </trkpt>
      <trkpt lat="45.46052" lon="5.92438">
        <ele>1896.662</ele>
        <time>2011-06-26T11:54:42Z</time>
      </trkpt>
      <trkpt lat="45.46047" lon="5.92436">
        <ele>1896.756</ele>
        <time>2011-06-26T11:54:49Z</time>
      </trkpt>
      <trkpt lat="45.46028" lon="5.92442">
        <ele>1895.374</ele>
        <time>2011-06-26T11:55:08Z</time>
      </trkpt>
      <trkpt lat="45.46025" lon="5.92443">
        <ele>1894.946</ele>
        <time>2011-06-26T11:55:11Z</time>
      </trkpt>
      <trkpt lat="45.46021" lon="5.9244">
        <ele>1895.844</ele>
        <time>2011-06-26T11:55:25Z</time>
      </trkpt>
      <trkpt lat="45.46018" lon="5.92451">
        <ele>1894.448</ele>
        <time>2011-06-26T11:55:41Z</time>
      </trkpt>
      <trkpt lat="45.46008" lon="5.92454">
        <ele>1890.602</ele>
        <time>2011-06-26T11:55:56Z</time>
      </trkpt>
      <trkpt lat="45.46006" lon="5.92457">
        <ele>1889.635</ele>
        <time>2011-06-26T11:56:18Z</time>
      </trkpt>
      <trkpt lat="45.46001" lon="5.92466">
        <ele>1890.703</ele>
        <time>2011-06-26T11:56:26Z</time>
      </trkpt>
      <trkpt lat="45.45997" lon="5.92469">
        <ele>1888.357</ele>
        <time>2011-06-26T11:56:30Z</time>
      </trkpt>
      <trkpt lat="45.45994" lon="5.92471">
        <ele>1889.162</ele>
        <time>2011-06-26T11:56:34Z</time>
      </trkpt>
      <trkpt lat="45.4599" lon="5.92472">
        <ele>1889.8</ele>
        <time>2011-06-26T11:56:39Z</time>
      </trkpt>
      <trkpt lat="45.45988" lon="5.92472">
        <ele>1888.239</ele>
        <time>2011-06-26T11:56:42Z</time>
      </trkpt>
      <trkpt lat="45.45966" lon="5.92473">
        <ele>1888.004</ele>
        <time>2011-06-26T11:57:00Z</time>
      </trkpt>
      <trkpt lat="45.4594" lon="5.92475">
        <ele>1889.691</ele>
        <time>2011-06-26T11:57:24Z</time>
      </trkpt>
      <trkpt lat="45.4593" lon="5.92457">
        <ele>1892.136</ele>
        <time>2011-06-26T11:57:42Z</time>
      </trkpt>
      <trkpt lat="45.4593" lon="5.92455">
        <ele>1892.354</ele>
        <time>2011-06-26T11:57:44Z</time>
      </trkpt>
      <trkpt lat="45.45927" lon="5.92447">
        <ele>1892.69</ele>
        <time>2011-06-26T11:58:03Z</time>
      </trkpt>
      <trkpt lat="45.45927" lon="5.92445">
        <ele>1894.865</ele>
        <time>2011-06-26T12:34:31Z</time>
      </trkpt>
      <trkpt lat="45.45926" lon="5.92444">
        <ele>1894.652</ele>
        <time>2011-06-26T12:35:34Z</time>
      </trkpt>
      <trkpt lat="45.45927" lon="5.92447">
        <ele>1894.033</ele>
        <time>2011-06-26T12:35:50Z</time>
      </trkpt>
      <trkpt lat="45.45924" lon="5.92454">
        <ele>1892.68</ele>
        <time>2011-06-26T12:36:03Z</time>
      </trkpt>
      <trkpt lat="45.45923" lon="5.92457">
        <ele>1891.904</ele>
        <time>2011-06-26T12:36:19Z</time>
      </trkpt>
      <trkpt lat="45.45917" lon="5.92448">
        <ele>1889.158</ele>
        <time>2011-06-26T12:36:35Z</time>
      </trkpt>
      <trkpt lat="45.45911" lon="5.9244">
        <ele>1887.005</ele>
        <time>2011-06-26T12:36:54Z</time>
      </trkpt>
      <trkpt lat="45.45907" lon="5.92436">
        <ele>1887.125</ele>
        <time>2011-06-26T12:36:59Z</time>
      </trkpt>
      <trkpt lat="45.45896" lon="5.9243">
        <ele>1886.646</ele>
        <time>2011-06-26T12:37:15Z</time>
      </trkpt>
      <trkpt lat="45.45889" lon="5.92429">
        <ele>1884.894</ele>
        <time>2011-06-26T12:37:28Z</time>
      </trkpt>
      <trkpt lat="45.45887" lon="5.92431">
        <ele>1883.287</ele>
        <time>2011-06-26T12:37:45Z</time>
      </trkpt>
      <trkpt lat="45.45876" lon="5.92425">
        <ele>1882.171</ele>
        <time>2011-06-26T12:38:19Z</time>
      </trkpt>
      <trkpt lat="45.4587" lon="5.92423">
        <ele>1881.445</ele>
        <time>2011-06-26T12:38:29Z</time>
      </trkpt>
      <trkpt lat="45.45864" lon="5.92422">
        <ele>1880.028</ele>
        <time>2011-06-26T12:38:36Z</time>
      </trkpt>
      <trkpt lat="45.45835" lon="5.92401">
        <ele>1879.119</ele>
        <time>2011-06-26T12:39:06Z</time>
      </trkpt>
      <trkpt lat="45.45822" lon="5.92388">
        <ele>1880.828</ele>
        <time>2011-06-26T12:39:24Z</time>
      </trkpt>
      <trkpt lat="45.45811" lon="5.92371">
        <ele>1882.523</ele>
        <time>2011-06-26T12:39:42Z</time>
      </trkpt>
      <trkpt lat="45.45804" lon="5.92363">
        <ele>1882.873</ele>
        <time>2011-06-26T12:39:56Z</time>
      </trkpt>
      <trkpt lat="45.45801" lon="5.92362">
        <ele>1881.617</ele>
        <time>2011-06-26T12:40:03Z</time>
      </trkpt>
      <trkpt lat="45.4579" lon="5.92361">
        <ele>1880.935</ele>
        <time>2011-06-26T12:40:13Z</time>
      </trkpt>
      <trkpt lat="45.45785" lon="5.9236">
        <ele>1880.53</ele>
        <time>2011-06-26T12:40:28Z</time>
      </trkpt>
      <trkpt lat="45.45773" lon="5.92356">
        <ele>1880.576</ele>
        <time>2011-06-26T12:40:41Z</time>
      </trkpt>
      <trkpt lat="45.45763" lon="5.92356">
        <ele>1880.193</ele>
        <time>2011-06-26T12:40:51Z</time>
      </trkpt>
      <trkpt lat="45.45761" lon="5.92356">
        <ele>1880.098</ele>
        <time>2011-06-26T12:40:53Z</time>
      </trkpt>
      <trkpt lat="45.45752" lon="5.92351">
        <ele>1881.907</ele>
        <time>2011-06-26T12:41:07Z</time>
      </trkpt>
      <trkpt lat="45.45751" lon="5.92351">
        <ele>1883.406</ele>
        <time>2011-06-26T12:41:25Z</time>
      </trkpt>
      <trkpt lat="45.45745" lon="5.92349">
        <ele>1880.291</ele>
        <time>2011-06-26T12:41:48Z</time>
      </trkpt>
      <trkpt lat="45.45743" lon="5.9235">
        <ele>1879.489</ele>
        <time>2011-06-26T12:41:53Z</time>
      </trkpt>
      <trkpt lat="45.45737" lon="5.9236">
        <ele>1877.327</ele>
        <time>2011-06-26T12:42:10Z</time>
      </trkpt>
      <trkpt lat="45.45732" lon="5.92356">
        <ele>1875.231</ele>
        <time>2011-06-26T12:42:25Z</time>
      </trkpt>
      <trkpt lat="45.45729" lon="5.92355">
        <ele>1873.575</ele>
        <time>2011-06-26T12:42:38Z</time>
      </trkpt>
      <trkpt lat="45.45724" lon="5.9235">
        <ele>1874.101</ele>
        <time>2011-06-26T12:42:56Z</time>
      </trkpt>
      <trkpt lat="45.4572" lon="5.92354">
        <ele>1870.991</ele>
        <time>2011-06-26T12:43:10Z</time>
      </trkpt>
      <trkpt lat="45.45712" lon="5.9236">
        <ele>1868.916</ele>
        <time>2011-06-26T12:43:28Z</time>
      </trkpt>
      <trkpt lat="45.45706" lon="5.92364">
        <ele>1866.366</ele>
        <time>2011-06-26T12:43:42Z</time>
      </trkpt>
      <trkpt lat="45.45699" lon="5.9237">
        <ele>1863.008</ele>
        <time>2011-06-26T12:43:55Z</time>
      </trkpt>
      <trkpt lat="45.4569" lon="5.92374">
        <ele>1859.898</ele>
        <time>2011-06-26T12:44:08Z</time>
      </trkpt>
      <trkpt lat="45.45688" lon="5.92375">
        <ele>1859.079</ele>
        <time>2011-06-26T12:44:10Z</time>
      </trkpt>
      <trkpt lat="45.45683" lon="5.92378">
        <ele>1857.584</ele>
        <time>2011-06-26T12:44:22Z</time>
      </trkpt>
      <trkpt lat="45.45673" lon="5.92384">
        <ele>1854.647</ele>
        <time>2011-06-26T12:44:39Z</time>
      </trkpt>
      <trkpt lat="45.45664" lon="5.92389">
        <ele>1853.262</ele>
        <time>2011-06-26T12:44:50Z</time>
      </trkpt>
      <trkpt lat="45.45647" lon="5.92386">
        <ele>1853.003</ele>
        <time>2011-06-26T12:45:09Z</time>
      </trkpt>
      <trkpt lat="45.45644" lon="5.92386">
        <ele>1853.498</ele>
        <time>2011-06-26T12:45:14Z</time>
      </trkpt>
      <trkpt lat="45.45629" lon="5.92378">
        <ele>1853.048</ele>
        <time>2011-06-26T12:45:31Z</time>
      </trkpt>
      <trkpt lat="45.45623" lon="5.92376">
        <ele>1851.99</ele>
        <time>2011-06-26T12:45:49Z</time>
      </trkpt>
      <trkpt lat="45.4562" lon="5.92376">
        <ele>1851.692</ele>
        <time>2011-06-26T12:45:56Z</time>
      </trkpt>
      <trkpt lat="45.45618" lon="5.92376">
        <ele>1850.813</ele>
        <time>2011-06-26T12:45:58Z</time>
      </trkpt>
      <trkpt lat="45.45609" lon="5.92375">
        <ele>1849.831</ele>
        <time>2011-06-26T12:46:09Z</time>
      </trkpt>
      <trkpt lat="45.45607" lon="5.92375">
        <ele>1848.891</ele>
        <time>2011-06-26T12:46:11Z</time>
      </trkpt>
      <trkpt lat="45.45598" lon="5.92371">
        <ele>1848.739</ele>
        <time>2011-06-26T12:46:31Z</time>
      </trkpt>
      <trkpt lat="45.45591" lon="5.92377">
        <ele>1845.284</ele>
        <time>2011-06-26T12:46:46Z</time>
      </trkpt>
      <trkpt lat="45.45589" lon="5.92375">
        <ele>1844.82</ele>
        <time>2011-06-26T12:46:59Z</time>
      </trkpt>
      <trkpt lat="45.45583" lon="5.92378">
        <ele>1843.074</ele>
        <time>2011-06-26T12:47:10Z</time>
      </trkpt>
      <trkpt lat="45.45569" lon="5.92369">
        <ele>1841.696</ele>
        <time>2011-06-26T12:47:26Z</time>
      </trkpt>
      <trkpt lat="45.45565" lon="5.92366">
        <ele>1841.532</ele>
        <time>2011-06-26T12:47:30Z</time>
      </trkpt>
      <trkpt lat="45.45562" lon="5.92364">
        <ele>1841.603</ele>
        <time>2011-06-26T12:47:33Z</time>
      </trkpt>
      <trkpt lat="45.45548" lon="5.92354">
        <ele>1843.028</ele>
        <time>2011-06-26T12:47:51Z</time>
      </trkpt>
      <trkpt lat="45.45544" lon="5.92356">
        <ele>1841.604</ele>
        <time>2011-06-26T12:47:57Z</time>
      </trkpt>
      <trkpt lat="45.45533" lon="5.92349">
        <ele>1841.137</ele>
        <time>2011-06-26T12:48:11Z</time>
      </trkpt>
      <trkpt lat="45.45517" lon="5.92331">
        <ele>1840.341</ele>
        <time>2011-06-26T12:48:32Z</time>
      </trkpt>
      <trkpt lat="45.45507" lon="5.92323">
        <ele>1841.826</ele>
        <time>2011-06-26T12:48:47Z</time>
      </trkpt>
      <trkpt lat="45.45503" lon="5.9232">
        <ele>1841.422</ele>
        <time>2011-06-26T12:48:53Z</time>
      </trkpt>
      <trkpt lat="45.45501" lon="5.92319">
        <ele>1840.849</ele>
        <time>2011-06-26T12:48:56Z</time>
      </trkpt>
      <trkpt lat="45.455" lon="5.92319">
        <ele>1841.301</ele>
        <time>2011-06-26T12:48:58Z</time>
      </trkpt>
      <trkpt lat="45.4549" lon="5.92309">
        <ele>1841.788</ele>
        <time>2011-06-26T12:49:11Z</time>
      </trkpt>
      <trkpt lat="45.45484" lon="5.92308">
        <ele>1840.716</ele>
        <time>2011-06-26T12:49:28Z</time>
      </trkpt>
      <trkpt lat="45.45478" lon="5.923">
        <ele>1843.163</ele>
        <time>2011-06-26T12:49:39Z</time>
      </trkpt>
      <trkpt lat="45.45478" lon="5.92297">
        <ele>1844.679</ele>
        <time>2011-06-26T12:49:48Z</time>
      </trkpt>
      <trkpt lat="45.45475" lon="5.92297">
        <ele>1845.988</ele>
        <time>2011-06-26T12:49:51Z</time>
      </trkpt>
      <trkpt lat="45.45472" lon="5.92291">
        <ele>1847.363</ele>
        <time>2011-06-26T12:50:02Z</time>
      </trkpt>
      <trkpt lat="45.45476" lon="5.92283">
        <ele>1850.305</ele>
        <time>2011-06-26T12:50:16Z</time>
      </trkpt>
      <trkpt lat="45.45474" lon="5.92275">
        <ele>1853.522</ele>
        <time>2011-06-26T12:50:29Z</time>
      </trkpt>
      <trkpt lat="45.45473" lon="5.92263">
        <ele>1856.302</ele>
        <time>2011-06-26T12:50:45Z</time>
      </trkpt>
      <trkpt lat="45.45468" lon="5.92255">
        <ele>1859.399</ele>
        <time>2011-06-26T12:50:58Z</time>
      </trkpt>
      <trkpt lat="45.45465" lon="5.92255">
        <ele>1859.554</ele>
        <time>2011-06-26T12:51:07Z</time>
      </trkpt>
      <trkpt lat="45.45453" lon="5.92262">
        <ele>1859.086</ele>
        <time>2011-06-26T12:51:26Z</time>
      </trkpt>
      <trkpt lat="45.4544" lon="5.92262">
        <ele>1859.109</ele>
        <time>2011-06-26T12:51:46Z</time>
      </trkpt>
      <trkpt lat="45.45437" lon="5.92254">
        <ele>1856.262</ele>
        <time>2011-06-26T12:51:56Z</time>
      </trkpt>
      <trkpt lat="45.45436" lon="5.92251">
        <ele>1856.159</ele>
        <time>2011-06-26T12:51:58Z</time>
      </trkpt>
      <trkpt lat="45.45424" lon="5.92243">
        <ele>1858.248</ele>
        <time>2011-06-26T12:52:13Z</time>
      </trkpt>
      <trkpt lat="45.45422" lon="5.92241">
        <ele>1857.999</ele>
        <time>2011-06-26T12:52:16Z</time>
      </trkpt>
      <trkpt lat="45.45419" lon="5.92242">
        <ele>1857.949</ele>
        <time>2011-06-26T12:52:19Z</time>
      </trkpt>
      <trkpt lat="45.45414" lon="5.92245">
        <ele>1858.347</ele>
        <time>2011-06-26T12:52:25Z</time>
      </trkpt>
      <trkpt lat="45.45403" lon="5.92251">
        <ele>1857.873</ele>
        <time>2011-06-26T12:52:36Z</time>
      </trkpt>
      <trkpt lat="45.45394" lon="5.92246">
        <ele>1859.381</ele>
        <time>2011-06-26T12:52:49Z</time>
      </trkpt>
      <trkpt lat="45.45379" lon="5.92234">
        <ele>1856.745</ele>
        <time>2011-06-26T12:53:11Z</time>
      </trkpt>
      <trkpt lat="45.45377" lon="5.92234">
        <ele>1856.174</ele>
        <time>2011-06-26T12:53:14Z</time>
      </trkpt>
      <trkpt lat="45.45373" lon="5.92234">
        <ele>1855.508</ele>
        <time>2011-06-26T12:53:17Z</time>
      </trkpt>
      <trkpt lat="45.45371" lon="5.92236">
        <ele>1852.414</ele>
        <time>2011-06-26T12:53:20Z</time>
      </trkpt>
      <trkpt lat="45.45367" lon="5.92235">
        <ele>1853.265</ele>
        <time>2011-06-26T12:53:25Z</time>
      </trkpt>
      <trkpt lat="45.45366" lon="5.92234">
        <ele>1853.861</ele>
        <time>2011-06-26T12:53:27Z</time>
      </trkpt>
      <trkpt lat="45.45358" lon="5.92231">
        <ele>1852.652</ele>
        <time>2011-06-26T12:53:34Z</time>
      </trkpt>
      <trkpt lat="45.45348" lon="5.92229">
        <ele>1851.331</ele>
        <time>2011-06-26T12:53:43Z</time>
      </trkpt>
      <trkpt lat="45.45334" lon="5.9222">
        <ele>1850.169</ele>
        <time>2011-06-26T12:53:58Z</time>
      </trkpt>
      <trkpt lat="45.45333" lon="5.92217">
        <ele>1849.779</ele>
        <time>2011-06-26T12:54:01Z</time>
      </trkpt>
      <trkpt lat="45.45319" lon="5.92204">
        <ele>1850.223</ele>
        <time>2011-06-26T12:54:15Z</time>
      </trkpt>
      <trkpt lat="45.45314" lon="5.922">
        <ele>1850.323</ele>
        <time>2011-06-26T12:54:20Z</time>
      </trkpt>
      <trkpt lat="45.45312" lon="5.92199">
        <ele>1850.346</ele>
        <time>2011-06-26T12:54:22Z</time>
      </trkpt>
      <trkpt lat="45.45309" lon="5.92198">
        <ele>1850.388</ele>
        <time>2011-06-26T12:54:26Z</time>
      </trkpt>
      <trkpt lat="45.45296" lon="5.92189">
        <ele>1850.272</ele>
        <time>2011-06-26T12:54:40Z</time>
      </trkpt>
      <trkpt lat="45.45287" lon="5.92174">
        <ele>1851.148</ele>
        <time>2011-06-26T12:54:57Z</time>
      </trkpt>
      <trkpt lat="45.45286" lon="5.92174">
        <ele>1851.383</ele>
        <time>2011-06-26T12:55:01Z</time>
      </trkpt>
      <trkpt lat="45.45272" lon="5.92171">
        <ele>1849.277</ele>
        <time>2011-06-26T12:55:16Z</time>
      </trkpt>
      <trkpt lat="45.45268" lon="5.92167">
        <ele>1849.93</ele>
        <time>2011-06-26T12:55:21Z</time>
      </trkpt>
      <trkpt lat="45.45254" lon="5.92155">
        <ele>1851.568</ele>
        <time>2011-06-26T12:55:39Z</time>
      </trkpt>
      <trkpt lat="45.45248" lon="5.92153">
        <ele>1850.877</ele>
        <time>2011-06-26T12:55:53Z</time>
      </trkpt>
      <trkpt lat="45.45235" lon="5.9214">
        <ele>1851.738</ele>
        <time>2011-06-26T12:56:12Z</time>
      </trkpt>
      <trkpt lat="45.45229" lon="5.92128">
        <ele>1854.211</ele>
        <time>2011-06-26T12:56:25Z</time>
      </trkpt>
      <trkpt lat="45.45228" lon="5.9212">
        <ele>1854.724</ele>
        <time>2011-06-26T12:56:30Z</time>
      </trkpt>
      <trkpt lat="45.45227" lon="5.92118">
        <ele>1854.72</ele>
        <time>2011-06-26T12:56:32Z</time>
      </trkpt>
      <trkpt lat="45.45224" lon="5.92103">
        <ele>1853.687</ele>
        <time>2011-06-26T12:56:49Z</time>
      </trkpt>
      <trkpt lat="45.45216" lon="5.9208">
        <ele>1855.301</ele>
        <time>2011-06-26T12:57:08Z</time>
      </trkpt>
      <trkpt lat="45.45208" lon="5.9206">
        <ele>1857.662</ele>
        <time>2011-06-26T12:57:26Z</time>
      </trkpt>
      <trkpt lat="45.45202" lon="5.92046">
        <ele>1857.939</ele>
        <time>2011-06-26T12:57:43Z</time>
      </trkpt>
      <trkpt lat="45.45185" lon="5.92062">
        <ele>1854.705</ele>
        <time>2011-06-26T12:58:05Z</time>
      </trkpt>
      <trkpt lat="45.45178" lon="5.92067">
        <ele>1851.559</ele>
        <time>2011-06-26T12:58:19Z</time>
      </trkpt>
      <trkpt lat="45.45173" lon="5.92068">
        <ele>1848.704</ele>
        <time>2011-06-26T12:58:34Z</time>
      </trkpt>
      <trkpt lat="45.45167" lon="5.92071">
        <ele>1846.322</ele>
        <time>2011-06-26T12:58:50Z</time>
      </trkpt>
      <trkpt lat="45.45159" lon="5.92069">
        <ele>1843.062</ele>
        <time>2011-06-26T12:59:04Z</time>
      </trkpt>
      <trkpt lat="45.45162" lon="5.92064">
        <ele>1841.5</ele>
        <time>2011-06-26T12:59:11Z</time>
      </trkpt>
      <trkpt lat="45.45154" lon="5.92065">
        <ele>1838.456</ele>
        <time>2011-06-26T12:59:25Z</time>
      </trkpt>
      <trkpt lat="45.45149" lon="5.92061">
        <ele>1837.492</ele>
        <time>2011-06-26T12:59:39Z</time>
      </trkpt>
      <trkpt lat="45.45149" lon="5.92054">
        <ele>1834.268</ele>
        <time>2011-06-26T12:59:53Z</time>
      </trkpt>
      <trkpt lat="45.45153" lon="5.92048">
        <ele>1830.559</ele>
        <time>2011-06-26T13:00:09Z</time>
      </trkpt>
      <trkpt lat="45.45152" lon="5.92047">
        <ele>1830.139</ele>
        <time>2011-06-26T13:00:11Z</time>
      </trkpt>
      <trkpt lat="45.4514" lon="5.92044">
        <ele>1826.148</ele>
        <time>2011-06-26T13:00:28Z</time>
      </trkpt>
      <trkpt lat="45.45133" lon="5.92034">
        <ele>1822.963</ele>
        <time>2011-06-26T13:00:44Z</time>
      </trkpt>
      <trkpt lat="45.45127" lon="5.92029">
        <ele>1819.711</ele>
        <time>2011-06-26T13:01:01Z</time>
      </trkpt>
      <trkpt lat="45.4512" lon="5.92025">
        <ele>1816.651</ele>
        <time>2011-06-26T13:01:17Z</time>
      </trkpt>
      <trkpt lat="45.45115" lon="5.92017">
        <ele>1813.613</ele>
        <time>2011-06-26T13:01:31Z</time>
      </trkpt>
      <trkpt lat="45.45115" lon="5.92007">
        <ele>1810.405</ele>
        <time>2011-06-26T13:01:45Z</time>
      </trkpt>
      <trkpt lat="45.45112" lon="5.91997">
        <ele>1806.947</ele>
        <time>2011-06-26T13:01:59Z</time>
      </trkpt>
      <trkpt lat="45.45109" lon="5.91992">
        <ele>1806.392</ele>
        <time>2011-06-26T13:02:04Z</time>
      </trkpt>
      <trkpt lat="45.45108" lon="5.9198">
        <ele>1803.714</ele>
        <time>2011-06-26T13:02:21Z</time>
      </trkpt>
      <trkpt lat="45.45113" lon="5.91982">
        <ele>1801.108</ele>
        <time>2011-06-26T13:02:37Z</time>
      </trkpt>
      <trkpt lat="45.45119" lon="5.91982">
        <ele>1797.866</ele>
        <time>2011-06-26T13:02:47Z</time>
      </trkpt>
      <trkpt lat="45.45124" lon="5.91979">
        <ele>1795.206</ele>
        <time>2011-06-26T13:03:02Z</time>
      </trkpt>
      <trkpt lat="45.45118" lon="5.9197">
        <ele>1792.102</ele>
        <time>2011-06-26T13:03:15Z</time>
      </trkpt>
      <trkpt lat="45.45111" lon="5.91963">
        <ele>1790.074</ele>
        <time>2011-06-26T13:03:32Z</time>
      </trkpt>
      <trkpt lat="45.45118" lon="5.9196">
        <ele>1786.83</ele>
        <time>2011-06-26T13:03:43Z</time>
      </trkpt>
      <trkpt lat="45.45123" lon="5.9196">
        <ele>1784.916</ele>
        <time>2011-06-26T13:03:51Z</time>
      </trkpt>
      <trkpt lat="45.45129" lon="5.91957">
        <ele>1782.03</ele>
        <time>2011-06-26T13:04:06Z</time>
      </trkpt>
      <trkpt lat="45.45131" lon="5.91955">
        <ele>1778.979</ele>
        <time>2011-06-26T13:04:15Z</time>
      </trkpt>
      <trkpt lat="45.45136" lon="5.91955">
        <ele>1776.712</ele>
        <time>2011-06-26T13:04:30Z</time>
      </trkpt>
      <trkpt lat="45.45135" lon="5.9195">
        <ele>1773.473</ele>
        <time>2011-06-26T13:04:43Z</time>
      </trkpt>
      <trkpt lat="45.45136" lon="5.91944">
        <ele>1770.131</ele>
        <time>2011-06-26T13:04:55Z</time>
      </trkpt>
      <trkpt lat="45.45137" lon="5.91937">
        <ele>1766.899</ele>
        <time>2011-06-26T13:05:10Z</time>
      </trkpt>
      <trkpt lat="45.45133" lon="5.9193">
        <ele>1763.426</ele>
        <time>2011-06-26T13:05:24Z</time>
      </trkpt>
      <trkpt lat="45.45133" lon="5.9192">
        <ele>1760.456</ele>
        <time>2011-06-26T13:05:40Z</time>
      </trkpt>
      <trkpt lat="45.4513" lon="5.9191">
        <ele>1758.343</ele>
        <time>2011-06-26T13:05:57Z</time>
      </trkpt>
      <trkpt lat="45.45131" lon="5.91904">
        <ele>1756.502</ele>
        <time>2011-06-26T13:06:24Z</time>
      </trkpt>
      <trkpt lat="45.45134" lon="5.91896">
        <ele>1753.321</ele>
        <time>2011-06-26T13:06:38Z</time>
      </trkpt>
      <trkpt lat="45.45142" lon="5.91895">
        <ele>1750.166</ele>
        <time>2011-06-26T13:06:52Z</time>
      </trkpt>
      <trkpt lat="45.45147" lon="5.91889">
        <ele>1746.515</ele>
        <time>2011-06-26T13:07:06Z</time>
      </trkpt>
      <trkpt lat="45.45142" lon="5.91882">
        <ele>1744.017</ele>
        <time>2011-06-26T13:07:22Z</time>
      </trkpt>
      <trkpt lat="45.45141" lon="5.91875">
        <ele>1740.979</ele>
        <time>2011-06-26T13:07:32Z</time>
      </trkpt>
      <trkpt lat="45.45143" lon="5.91867">
        <ele>1737.887</ele>
        <time>2011-06-26T13:07:44Z</time>
      </trkpt>
      <trkpt lat="45.45142" lon="5.91861">
        <ele>1735.446</ele>
        <time>2011-06-26T13:07:52Z</time>
      </trkpt>
      <trkpt lat="45.45139" lon="5.91862">
        <ele>1734.215</ele>
        <time>2011-06-26T13:07:57Z</time>
      </trkpt>
      <trkpt lat="45.45131" lon="5.9186">
        <ele>1732.52</ele>
        <time>2011-06-26T13:08:05Z</time>
      </trkpt>
      <trkpt lat="45.45126" lon="5.91856">
        <ele>1732.206</ele>
        <time>2011-06-26T13:08:10Z</time>
      </trkpt>
      <trkpt lat="45.45122" lon="5.91853">
        <ele>1732.574</ele>
        <time>2011-06-26T13:08:14Z</time>
      </trkpt>
      <trkpt lat="45.45119" lon="5.91851">
        <ele>1733.137</ele>
        <time>2011-06-26T13:08:17Z</time>
      </trkpt>
      <trkpt lat="45.4511" lon="5.91844">
        <ele>1734.542</ele>
        <time>2011-06-26T13:08:26Z</time>
      </trkpt>
      <trkpt lat="45.45103" lon="5.91838">
        <ele>1735.119</ele>
        <time>2011-06-26T13:08:34Z</time>
      </trkpt>
      <trkpt lat="45.45096" lon="5.91831">
        <ele>1736.067</ele>
        <time>2011-06-26T13:08:43Z</time>
      </trkpt>
      <trkpt lat="45.4509" lon="5.9183">
        <ele>1736.374</ele>
        <time>2011-06-26T13:08:47Z</time>
      </trkpt>
      <trkpt lat="45.45086" lon="5.91827">
        <ele>1736.201</ele>
        <time>2011-06-26T13:08:51Z</time>
      </trkpt>
      <trkpt lat="45.4507" lon="5.9182">
        <ele>1736.042</ele>
        <time>2011-06-26T13:09:06Z</time>
      </trkpt>
      <trkpt lat="45.45068" lon="5.9182">
        <ele>1736.776</ele>
        <time>2011-06-26T13:09:07Z</time>
      </trkpt>
      <trkpt lat="45.45059" lon="5.91817">
        <ele>1736.478</ele>
        <time>2011-06-26T13:09:15Z</time>
      </trkpt>
      <trkpt lat="45.45053" lon="5.91819">
        <ele>1735.865</ele>
        <time>2011-06-26T13:09:22Z</time>
      </trkpt>
      <trkpt lat="45.45039" lon="5.91806">
        <ele>1734.888</ele>
        <time>2011-06-26T13:09:37Z</time>
      </trkpt>
      <trkpt lat="45.45031" lon="5.91802">
        <ele>1735.879</ele>
        <time>2011-06-26T13:09:48Z</time>
      </trkpt>
      <trkpt lat="45.45017" lon="5.91785">
        <ele>1737.577</ele>
        <time>2011-06-26T13:10:11Z</time>
      </trkpt>
      <trkpt lat="45.45016" lon="5.91782">
        <ele>1736.837</ele>
        <time>2011-06-26T13:10:13Z</time>
      </trkpt>
      <trkpt lat="45.45015" lon="5.91779">
        <ele>1736.975</ele>
        <time>2011-06-26T13:10:16Z</time>
      </trkpt>
      <trkpt lat="45.45003" lon="5.91763">
        <ele>1734.374</ele>
        <time>2011-06-26T13:10:35Z</time>
      </trkpt>
      <trkpt lat="45.45012" lon="5.91733">
        <ele>1693.192</ele>
        <time>2011-06-26T13:19:07Z</time>
      </trkpt>
      <trkpt lat="45.45001" lon="5.91732">
        <ele>1689.909</ele>
        <time>2011-06-26T13:19:18Z</time>
      </trkpt>
      <trkpt lat="45.44998" lon="5.91728">
        <ele>1688.14</ele>
        <time>2011-06-26T13:19:29Z</time>
      </trkpt>
      <trkpt lat="45.44995" lon="5.91722">
        <ele>1685.991</ele>
        <time>2011-06-26T13:19:42Z</time>
      </trkpt>
      <trkpt lat="45.44988" lon="5.91719">
        <ele>1682.728</ele>
        <time>2011-06-26T13:19:53Z</time>
      </trkpt>
      <trkpt lat="45.44982" lon="5.91717">
        <ele>1680.217</ele>
        <time>2011-06-26T13:20:13Z</time>
      </trkpt>
      <trkpt lat="45.44976" lon="5.91711">
        <ele>1676.861</ele>
        <time>2011-06-26T13:20:23Z</time>
      </trkpt>
      <trkpt lat="45.44978" lon="5.91703">
        <ele>1673.757</ele>
        <time>2011-06-26T13:20:34Z</time>
      </trkpt>
      <trkpt lat="45.44977" lon="5.91701">
        <ele>1673.122</ele>
        <time>2011-06-26T13:20:36Z</time>
      </trkpt>
      <trkpt lat="45.44978" lon="5.91696">
        <ele>1670.068</ele>
        <time>2011-06-26T13:20:48Z</time>
      </trkpt>
      <trkpt lat="45.4498" lon="5.91689">
        <ele>1666.993</ele>
        <time>2011-06-26T13:20:58Z</time>
      </trkpt>
      <trkpt lat="45.44975" lon="5.91681">
        <ele>1663.64</ele>
        <time>2011-06-26T13:21:11Z</time>
      </trkpt>
      <trkpt lat="45.44982" lon="5.91675">
        <ele>1660.377</ele>
        <time>2011-06-26T13:21:23Z</time>
      </trkpt>
      <trkpt lat="45.44977" lon="5.9167">
        <ele>1657.374</ele>
        <time>2011-06-26T13:21:39Z</time>
      </trkpt>
      <trkpt lat="45.44975" lon="5.91661">
        <ele>1654.342</ele>
        <time>2011-06-26T13:21:49Z</time>
      </trkpt>
      <trkpt lat="45.44978" lon="5.91654">
        <ele>1651.34</ele>
        <time>2011-06-26T13:22:02Z</time>
      </trkpt>
      <trkpt lat="45.44974" lon="5.91652">
        <ele>1648.944</ele>
        <time>2011-06-26T13:22:10Z</time>
      </trkpt>
      <trkpt lat="45.44983" lon="5.91643">
        <ele>1645.363</ele>
        <time>2011-06-26T13:22:24Z</time>
      </trkpt>
      <trkpt lat="45.44988" lon="5.91638">
        <ele>1643.008</ele>
        <time>2011-06-26T13:22:34Z</time>
      </trkpt>
      <trkpt lat="45.44987" lon="5.91632">
        <ele>1641.16</ele>
        <time>2011-06-26T13:22:46Z</time>
      </trkpt>
      <trkpt lat="45.44975" lon="5.91627">
        <ele>1637.443</ele>
        <time>2011-06-26T13:23:00Z</time>
      </trkpt>
      <trkpt lat="45.44969" lon="5.91625">
        <ele>1634.212</ele>
        <time>2011-06-26T13:23:10Z</time>
      </trkpt>
      <trkpt lat="45.44965" lon="5.91622">
        <ele>1633.079</ele>
        <time>2011-06-26T13:23:20Z</time>
      </trkpt>
      <trkpt lat="45.44972" lon="5.91612">
        <ele>1629.789</ele>
        <time>2011-06-26T13:23:33Z</time>
      </trkpt>
      <trkpt lat="45.44979" lon="5.91604">
        <ele>1627.186</ele>
        <time>2011-06-26T13:23:48Z</time>
      </trkpt>
      <trkpt lat="45.44987" lon="5.91597">
        <ele>1624.055</ele>
        <time>2011-06-26T13:24:00Z</time>
      </trkpt>
      <trkpt lat="45.44991" lon="5.91589">
        <ele>1620.97</ele>
        <time>2011-06-26T13:24:10Z</time>
      </trkpt>
      <trkpt lat="45.44998" lon="5.91582">
        <ele>1617.843</ele>
        <time>2011-06-26T13:24:22Z</time>
      </trkpt>
      <trkpt lat="45.45001" lon="5.91577">
        <ele>1614.977</ele>
        <time>2011-06-26T13:24:34Z</time>
      </trkpt>
      <trkpt lat="45.45003" lon="5.91577">
        <ele>1614.557</ele>
        <time>2011-06-26T13:24:59Z</time>
      </trkpt>
      <trkpt lat="45.45001" lon="5.91566">
        <ele>1611.318</ele>
        <time>2011-06-26T13:25:12Z</time>
      </trkpt>
      <trkpt lat="45.45003" lon="5.91565">
        <ele>1610.584</ele>
        <time>2011-06-26T13:25:14Z</time>
      </trkpt>
      <trkpt lat="45.45005" lon="5.91563">
        <ele>1609.337</ele>
        <time>2011-06-26T13:25:41Z</time>
      </trkpt>
      <trkpt lat="45.45" lon="5.91557">
        <ele>1607.368</ele>
        <time>2011-06-26T13:25:55Z</time>
      </trkpt>
      <trkpt lat="45.45002" lon="5.91553">
        <ele>1606.108</ele>
        <time>2011-06-26T13:25:58Z</time>
      </trkpt>
      <trkpt lat="45.45004" lon="5.91546">
        <ele>1602.703</ele>
        <time>2011-06-26T13:26:19Z</time>
      </trkpt>
      <trkpt lat="45.45006" lon="5.91532">
        <ele>1598.992</ele>
        <time>2011-06-26T13:26:31Z</time>
      </trkpt>
      <trkpt lat="45.45008" lon="5.91527">
        <ele>1597.297</ele>
        <time>2011-06-26T13:26:35Z</time>
      </trkpt>
      <trkpt lat="45.4501" lon="5.9152">
        <ele>1595.102</ele>
        <time>2011-06-26T13:26:42Z</time>
      </trkpt>
      <trkpt lat="45.45018" lon="5.91512">
        <ele>1591.856</ele>
        <time>2011-06-26T13:26:56Z</time>
      </trkpt>
      <trkpt lat="45.45021" lon="5.91503">
        <ele>1588.413</ele>
        <time>2011-06-26T13:27:08Z</time>
      </trkpt>
      <trkpt lat="45.45024" lon="5.91494">
        <ele>1584.916</ele>
        <time>2011-06-26T13:27:20Z</time>
      </trkpt>
      <trkpt lat="45.45028" lon="5.91487">
        <ele>1581.369</ele>
        <time>2011-06-26T13:27:34Z</time>
      </trkpt>
      <trkpt lat="45.45032" lon="5.9148">
        <ele>1578.127</ele>
        <time>2011-06-26T13:27:47Z</time>
      </trkpt>
      <trkpt lat="45.45031" lon="5.91476">
        <ele>1576.604</ele>
        <time>2011-06-26T13:27:55Z</time>
      </trkpt>
      <trkpt lat="45.45038" lon="5.9147">
        <ele>1573.874</ele>
        <time>2011-06-26T13:28:07Z</time>
      </trkpt>
      <trkpt lat="45.45039" lon="5.91464">
        <ele>1570.275</ele>
        <time>2011-06-26T13:28:18Z</time>
      </trkpt>
      <trkpt lat="45.45036" lon="5.91453">
        <ele>1567.343</ele>
        <time>2011-06-26T13:28:31Z</time>
      </trkpt>
      <trkpt lat="45.45043" lon="5.91446">
        <ele>1564.035</ele>
        <time>2011-06-26T13:28:50Z</time>
      </trkpt>
      <trkpt lat="45.45038" lon="5.91442">
        <ele>1561.961</ele>
        <time>2011-06-26T13:29:01Z</time>
      </trkpt>
      <trkpt lat="45.45045" lon="5.91438">
        <ele>1559.763</ele>
        <time>2011-06-26T13:29:12Z</time>
      </trkpt>
      <trkpt lat="45.45046" lon="5.91435">
        <ele>1558.154</ele>
        <time>2011-06-26T13:29:16Z</time>
      </trkpt>
      <trkpt lat="45.4505" lon="5.91432">
        <ele>1556.517</ele>
        <time>2011-06-26T13:29:26Z</time>
      </trkpt>
      <trkpt lat="45.45053" lon="5.91425">
        <ele>1553.605</ele>
        <time>2011-06-26T13:29:39Z</time>
      </trkpt>
      <trkpt lat="45.45052" lon="5.91418">
        <ele>1551.689</ele>
        <time>2011-06-26T13:29:53Z</time>
      </trkpt>
      <trkpt lat="45.45056" lon="5.91415">
        <ele>1549.311</ele>
        <time>2011-06-26T13:30:06Z</time>
      </trkpt>
      <trkpt lat="45.45064" lon="5.91408">
        <ele>1545.776</ele>
        <time>2011-06-26T13:30:18Z</time>
      </trkpt>
      <trkpt lat="45.45065" lon="5.91401">
        <ele>1543.075</ele>
        <time>2011-06-26T13:30:31Z</time>
      </trkpt>
      <trkpt lat="45.45072" lon="5.914">
        <ele>1540.829</ele>
        <time>2011-06-26T13:30:43Z</time>
      </trkpt>
      <trkpt lat="45.45073" lon="5.91399">
        <ele>1539.971</ele>
        <time>2011-06-26T13:30:45Z</time>
      </trkpt>
      <trkpt lat="45.4508" lon="5.91394">
        <ele>1537.031</ele>
        <time>2011-06-26T13:30:57Z</time>
      </trkpt>
      <trkpt lat="45.45079" lon="5.91394">
        <ele>1535.231</ele>
        <time>2011-06-26T13:31:17Z</time>
      </trkpt>
      <trkpt lat="45.4508" lon="5.91387">
        <ele>1532.131</ele>
        <time>2011-06-26T13:31:30Z</time>
      </trkpt>
      <trkpt lat="45.45085" lon="5.9138">
        <ele>1528.942</ele>
        <time>2011-06-26T13:31:42Z</time>
      </trkpt>
      <trkpt lat="45.45086" lon="5.91369">
        <ele>1526.385</ele>
        <time>2011-06-26T13:31:56Z</time>
      </trkpt>
      <trkpt lat="45.45092" lon="5.91368">
        <ele>1524.134</ele>
        <time>2011-06-26T13:32:06Z</time>
      </trkpt>
      <trkpt lat="45.45097" lon="5.91367">
        <ele>1520.962</ele>
        <time>2011-06-26T13:32:19Z</time>
      </trkpt>
      <trkpt lat="45.45098" lon="5.91358">
        <ele>1517.912</ele>
        <time>2011-06-26T13:32:32Z</time>
      </trkpt>
      <trkpt lat="45.45104" lon="5.91352">
        <ele>1515.069</ele>
        <time>2011-06-26T13:32:48Z</time>
      </trkpt>
      <trkpt lat="45.45103" lon="5.91343">
        <ele>1512.039</ele>
        <time>2011-06-26T13:33:00Z</time>
      </trkpt>
      <trkpt lat="45.451" lon="5.91341">
        <ele>1511.261</ele>
        <time>2011-06-26T13:33:05Z</time>
      </trkpt>
      <trkpt lat="45.45103" lon="5.91336">
        <ele>1508.051</ele>
        <time>2011-06-26T13:33:17Z</time>
      </trkpt>
      <trkpt lat="45.45104" lon="5.91332">
        <ele>1506.078</ele>
        <time>2011-06-26T13:33:23Z</time>
      </trkpt>
      <trkpt lat="45.45109" lon="5.9133">
        <ele>1505.596</ele>
        <time>2011-06-26T13:33:27Z</time>
      </trkpt>
      <trkpt lat="45.45121" lon="5.91327">
        <ele>1502.646</ele>
        <time>2011-06-26T13:33:41Z</time>
      </trkpt>
      <trkpt lat="45.45125" lon="5.91326">
        <ele>1500.967</ele>
        <time>2011-06-26T13:33:48Z</time>
      </trkpt>
      <trkpt lat="45.45133" lon="5.91324">
        <ele>1498.694</ele>
        <time>2011-06-26T13:33:59Z</time>
      </trkpt>
      <trkpt lat="45.4514" lon="5.91323">
        <ele>1495.65</ele>
        <time>2011-06-26T13:34:11Z</time>
      </trkpt>
      <trkpt lat="45.45147" lon="5.91323">
        <ele>1492.65</ele>
        <time>2011-06-26T13:34:21Z</time>
      </trkpt>
      <trkpt lat="45.45146" lon="5.91318">
        <ele>1490.783</ele>
        <time>2011-06-26T13:34:56Z</time>
      </trkpt>
      <trkpt lat="45.45146" lon="5.91311">
        <ele>1488.776</ele>
        <time>2011-06-26T13:35:09Z</time>
      </trkpt>
      <trkpt lat="45.45157" lon="5.91304">
        <ele>1485.598</ele>
        <time>2011-06-26T13:35:21Z</time>
      </trkpt>
      <trkpt lat="45.45159" lon="5.91305">
        <ele>1482.71</ele>
        <time>2011-06-26T13:35:31Z</time>
      </trkpt>
      <trkpt lat="45.45165" lon="5.91305">
        <ele>1480.653</ele>
        <time>2011-06-26T13:35:39Z</time>
      </trkpt>
      <trkpt lat="45.45174" lon="5.91307">
        <ele>1477.985</ele>
        <time>2011-06-26T13:35:52Z</time>
      </trkpt>
      <trkpt lat="45.45178" lon="5.91305">
        <ele>1474.94</ele>
        <time>2011-06-26T13:36:01Z</time>
      </trkpt>
      <trkpt lat="45.45183" lon="5.913">
        <ele>1472.686</ele>
        <time>2011-06-26T13:36:12Z</time>
      </trkpt>
      <trkpt lat="45.45187" lon="5.91296">
        <ele>1469.667</ele>
        <time>2011-06-26T13:36:23Z</time>
      </trkpt>
      <trkpt lat="45.4519" lon="5.9129">
        <ele>1467.328</ele>
        <time>2011-06-26T13:36:33Z</time>
      </trkpt>
      <trkpt lat="45.45197" lon="5.91285">
        <ele>1464.229</ele>
        <time>2011-06-26T13:36:45Z</time>
      </trkpt>
      <trkpt lat="45.45199" lon="5.91289">
        <ele>1463.243</ele>
        <time>2011-06-26T13:36:50Z</time>
      </trkpt>
      <trkpt lat="45.45204" lon="5.91299">
        <ele>1461.575</ele>
        <time>2011-06-26T13:36:57Z</time>
      </trkpt>
      <trkpt lat="45.45206" lon="5.91301">
        <ele>1460.794</ele>
        <time>2011-06-26T13:37:10Z</time>
      </trkpt>
      <trkpt lat="45.45214" lon="5.91296">
        <ele>1457.672</ele>
        <time>2011-06-26T13:37:22Z</time>
      </trkpt>
      <trkpt lat="45.45217" lon="5.91286">
        <ele>1455.707</ele>
        <time>2011-06-26T13:37:32Z</time>
      </trkpt>
      <trkpt lat="45.45222" lon="5.91283">
        <ele>1453.444</ele>
        <time>2011-06-26T13:37:43Z</time>
      </trkpt>
      <trkpt lat="45.45218" lon="5.91274">
        <ele>1453.047</ele>
        <time>2011-06-26T13:37:50Z</time>
      </trkpt>
      <trkpt lat="45.45215" lon="5.91258">
        <ele>1450.616</ele>
        <time>2011-06-26T13:38:04Z</time>
      </trkpt>
      <trkpt lat="45.45214" lon="5.91253">
        <ele>1450.058</ele>
        <time>2011-06-26T13:38:07Z</time>
      </trkpt>
      <trkpt lat="45.45211" lon="5.91244">
        <ele>1448.697</ele>
        <time>2011-06-26T13:38:14Z</time>
      </trkpt>
      <trkpt lat="45.45206" lon="5.91235">
        <ele>1447.158</ele>
        <time>2011-06-26T13:38:22Z</time>
      </trkpt>
      <trkpt lat="45.45206" lon="5.91228">
        <ele>1445.488</ele>
        <time>2011-06-26T13:38:28Z</time>
      </trkpt>
      <trkpt lat="45.45201" lon="5.91214">
        <ele>1442.377</ele>
        <time>2011-06-26T13:38:42Z</time>
      </trkpt>
      <trkpt lat="45.452" lon="5.91211">
        <ele>1441.698</ele>
        <time>2011-06-26T13:38:45Z</time>
      </trkpt>
      <trkpt lat="45.45198" lon="5.91202">
        <ele>1440.451</ele>
        <time>2011-06-26T13:38:56Z</time>
      </trkpt>
      <trkpt lat="45.45197" lon="5.912">
        <ele>1440.045</ele>
        <time>2011-06-26T13:39:02Z</time>
      </trkpt>
      <trkpt lat="45.45187" lon="5.91194">
        <ele>1437.062</ele>
        <time>2011-06-26T13:39:15Z</time>
      </trkpt>
      <trkpt lat="45.45182" lon="5.91187">
        <ele>1435.185</ele>
        <time>2011-06-26T13:39:24Z</time>
      </trkpt>
      <trkpt lat="45.45179" lon="5.91185">
        <ele>1434.51</ele>
        <time>2011-06-26T13:39:28Z</time>
      </trkpt>
      <trkpt lat="45.45177" lon="5.91183">
        <ele>1434.083</ele>
        <time>2011-06-26T13:39:31Z</time>
      </trkpt>
      <trkpt lat="45.45172" lon="5.91172">
        <ele>1431.321</ele>
        <time>2011-06-26T13:39:42Z</time>
      </trkpt>
      <trkpt lat="45.45168" lon="5.91161">
        <ele>1429.339</ele>
        <time>2011-06-26T13:39:50Z</time>
      </trkpt>
      <trkpt lat="45.45165" lon="5.91155">
        <ele>1428.616</ele>
        <time>2011-06-26T13:39:55Z</time>
      </trkpt>
      <trkpt lat="45.45164" lon="5.91146">
        <ele>1426.558</ele>
        <time>2011-06-26T13:40:02Z</time>
      </trkpt>
      <trkpt lat="45.45165" lon="5.91142">
        <ele>1426.296</ele>
        <time>2011-06-26T13:40:05Z</time>
      </trkpt>
      <trkpt lat="45.45159" lon="5.91137">
        <ele>1424.323</ele>
        <time>2011-06-26T13:40:14Z</time>
      </trkpt>
      <trkpt lat="45.45151" lon="5.91126">
        <ele>1421.191</ele>
        <time>2011-06-26T13:40:27Z</time>
      </trkpt>
      <trkpt lat="45.45148" lon="5.9112">
        <ele>1420.506</ele>
        <time>2011-06-26T13:40:33Z</time>
      </trkpt>
      <trkpt lat="45.45149" lon="5.91114">
        <ele>1419.288</ele>
        <time>2011-06-26T13:40:38Z</time>
      </trkpt>
      <trkpt lat="45.45143" lon="5.91106">
        <ele>1416.816</ele>
        <time>2011-06-26T13:40:46Z</time>
      </trkpt>
      <trkpt lat="45.45143" lon="5.91098">
        <ele>1416.005</ele>
        <time>2011-06-26T13:40:52Z</time>
      </trkpt>
      <trkpt lat="45.4514" lon="5.91089">
        <ele>1413.109</ele>
        <time>2011-06-26T13:41:07Z</time>
      </trkpt>
      <trkpt lat="45.45139" lon="5.91088">
        <ele>1412.334</ele>
        <time>2011-06-26T13:41:19Z</time>
      </trkpt>
      <trkpt lat="45.45133" lon="5.91076">
        <ele>1408.526</ele>
        <time>2011-06-26T13:41:35Z</time>
      </trkpt>
      <trkpt lat="45.45129" lon="5.91072">
        <ele>1406.481</ele>
        <time>2011-06-26T13:41:44Z</time>
      </trkpt>
      <trkpt lat="45.45127" lon="5.91067">
        <ele>1405.85</ele>
        <time>2011-06-26T13:41:47Z</time>
      </trkpt>
      <trkpt lat="45.45123" lon="5.91055">
        <ele>1403.349</ele>
        <time>2011-06-26T13:41:57Z</time>
      </trkpt>
      <trkpt lat="45.45117" lon="5.91048">
        <ele>1401.68</ele>
        <time>2011-06-26T13:42:04Z</time>
      </trkpt>
      <trkpt lat="45.45114" lon="5.91035">
        <ele>1398.641</ele>
        <time>2011-06-26T13:42:16Z</time>
      </trkpt>
      <trkpt lat="45.45111" lon="5.91032">
        <ele>1397.419</ele>
        <time>2011-06-26T13:42:21Z</time>
      </trkpt>
      <trkpt lat="45.45116" lon="5.91025">
        <ele>1396.008</ele>
        <time>2011-06-26T13:42:31Z</time>
      </trkpt>
      <trkpt lat="45.45114" lon="5.91025">
        <ele>1395.328</ele>
        <time>2011-06-26T13:42:45Z</time>
      </trkpt>
      <trkpt lat="45.45104" lon="5.91014">
        <ele>1391.867</ele>
        <time>2011-06-26T13:43:00Z</time>
      </trkpt>
      <trkpt lat="45.45101" lon="5.91007">
        <ele>1389.857</ele>
        <time>2011-06-26T13:43:09Z</time>
      </trkpt>
      <trkpt lat="45.45098" lon="5.91003">
        <ele>1388.639</ele>
        <time>2011-06-26T13:43:14Z</time>
      </trkpt>
      <trkpt lat="45.45093" lon="5.91">
        <ele>1387.174</ele>
        <time>2011-06-26T13:43:19Z</time>
      </trkpt>
      <trkpt lat="45.45088" lon="5.9099">
        <ele>1385.52</ele>
        <time>2011-06-26T13:43:29Z</time>
      </trkpt>
      <trkpt lat="45.45085" lon="5.90984">
        <ele>1384.055</ele>
        <time>2011-06-26T13:43:35Z</time>
      </trkpt>
      <trkpt lat="45.4508" lon="5.90976">
        <ele>1382.268</ele>
        <time>2011-06-26T13:43:44Z</time>
      </trkpt>
      <trkpt lat="45.45075" lon="5.90975">
        <ele>1379.4</ele>
        <time>2011-06-26T13:43:56Z</time>
      </trkpt>
      <trkpt lat="45.45073" lon="5.90972">
        <ele>1379.041</ele>
        <time>2011-06-26T13:44:00Z</time>
      </trkpt>
      <trkpt lat="45.45067" lon="5.90972">
        <ele>1377.763</ele>
        <time>2011-06-26T13:44:05Z</time>
      </trkpt>
      <trkpt lat="45.45062" lon="5.90964">
        <ele>1376.615</ele>
        <time>2011-06-26T13:44:11Z</time>
      </trkpt>
      <trkpt lat="45.4506" lon="5.90965">
        <ele>1376.133</ele>
        <time>2011-06-26T13:44:13Z</time>
      </trkpt>
      <trkpt lat="45.45054" lon="5.90961">
        <ele>1374.605</ele>
        <time>2011-06-26T13:44:23Z</time>
      </trkpt>
      <trkpt lat="45.45049" lon="5.90954">
        <ele>1372.365</ele>
        <time>2011-06-26T13:44:34Z</time>
      </trkpt>
      <trkpt lat="45.45044" lon="5.9095">
        <ele>1370.319</ele>
        <time>2011-06-26T13:44:43Z</time>
      </trkpt>
      <trkpt lat="45.45037" lon="5.90951">
        <ele>1367.253</ele>
        <time>2011-06-26T13:44:54Z</time>
      </trkpt>
      <trkpt lat="45.45027" lon="5.90954">
        <ele>1363.972</ele>
        <time>2011-06-26T13:45:09Z</time>
      </trkpt>
      <trkpt lat="45.45018" lon="5.90953">
        <ele>1361.72</ele>
        <time>2011-06-26T13:45:22Z</time>
      </trkpt>
      <trkpt lat="45.4501" lon="5.90956">
        <ele>1359.291</ele>
        <time>2011-06-26T13:45:37Z</time>
      </trkpt>
      <trkpt lat="45.45002" lon="5.90958">
        <ele>1356.623</ele>
        <time>2011-06-26T13:46:03Z</time>
      </trkpt>
      <trkpt lat="45.44999" lon="5.90957">
        <ele>1355.293</ele>
        <time>2011-06-26T13:46:42Z</time>
      </trkpt>
      <trkpt lat="45.44991" lon="5.90958">
        <ele>1352.381</ele>
        <time>2011-06-26T13:47:01Z</time>
      </trkpt>
      <trkpt lat="45.44982" lon="5.90959">
        <ele>1348.763</ele>
        <time>2011-06-26T13:47:14Z</time>
      </trkpt>
      <trkpt lat="45.44975" lon="5.90961">
        <ele>1345.582</ele>
        <time>2011-06-26T13:47:26Z</time>
      </trkpt>
      <trkpt lat="45.44966" lon="5.90958">
        <ele>1342.741</ele>
        <time>2011-06-26T13:47:40Z</time>
      </trkpt>
      <trkpt lat="45.44961" lon="5.90957">
        <ele>1340.974</ele>
        <time>2011-06-26T13:47:48Z</time>
      </trkpt>
      <trkpt lat="45.44957" lon="5.90959">
        <ele>1338.842</ele>
        <time>2011-06-26T13:47:57Z</time>
      </trkpt>
      <trkpt lat="45.44941" lon="5.90954">
        <ele>1335.465</ele>
        <time>2011-06-26T13:48:11Z</time>
      </trkpt>
      <trkpt lat="45.44939" lon="5.90954">
        <ele>1334.184</ele>
        <time>2011-06-26T13:48:14Z</time>
      </trkpt>
      <trkpt lat="45.44933" lon="5.90949">
        <ele>1331.032</ele>
        <time>2011-06-26T13:48:27Z</time>
      </trkpt>
      <trkpt lat="45.44926" lon="5.90942">
        <ele>1328.929</ele>
        <time>2011-06-26T13:48:38Z</time>
      </trkpt>
      <trkpt lat="45.44918" lon="5.90943">
        <ele>1325.756</ele>
        <time>2011-06-26T13:48:54Z</time>
      </trkpt>
      <trkpt lat="45.44913" lon="5.90942">
        <ele>1322.883</ele>
        <time>2011-06-26T13:49:06Z</time>
      </trkpt>
      <trkpt lat="45.44906" lon="5.9094">
        <ele>1322.163</ele>
        <time>2011-06-26T13:49:12Z</time>
      </trkpt>
      <trkpt lat="45.44898" lon="5.90931">
        <ele>1320.905</ele>
        <time>2011-06-26T13:49:23Z</time>
      </trkpt>
      <trkpt lat="45.44889" lon="5.9093">
        <ele>1318.5</ele>
        <time>2011-06-26T13:49:33Z</time>
      </trkpt>
      <trkpt lat="45.44877" lon="5.90921">
        <ele>1315.558</ele>
        <time>2011-06-26T13:49:47Z</time>
      </trkpt>
      <trkpt lat="45.44866" lon="5.90912">
        <ele>1313.637</ele>
        <time>2011-06-26T13:50:01Z</time>
      </trkpt>
      <trkpt lat="45.44862" lon="5.90908">
        <ele>1312.928</ele>
        <time>2011-06-26T13:50:05Z</time>
      </trkpt>
      <trkpt lat="45.44848" lon="5.90902">
        <ele>1310.678</ele>
        <time>2011-06-26T13:50:21Z</time>
      </trkpt>
      <trkpt lat="45.44839" lon="5.90902">
        <ele>1308.037</ele>
        <time>2011-06-26T13:50:36Z</time>
      </trkpt>
      <trkpt lat="45.44834" lon="5.90895">
        <ele>1306.162</ele>
        <time>2011-06-26T13:50:46Z</time>
      </trkpt>
      <trkpt lat="45.44818" lon="5.90893">
        <ele>1303.688</ele>
        <time>2011-06-26T13:51:01Z</time>
      </trkpt>
      <trkpt lat="45.44807" lon="5.90892">
        <ele>1301.94</ele>
        <time>2011-06-26T13:51:11Z</time>
      </trkpt>
      <trkpt lat="45.44801" lon="5.90889">
        <ele>1299.541</ele>
        <time>2011-06-26T13:51:22Z</time>
      </trkpt>
      <trkpt lat="45.448" lon="5.90888">
        <ele>1299.109</ele>
        <time>2011-06-26T13:51:23Z</time>
      </trkpt>
      <trkpt lat="45.44788" lon="5.90879">
        <ele>1296.617</ele>
        <time>2011-06-26T13:51:37Z</time>
      </trkpt>
      <trkpt lat="45.44774" lon="5.90869">
        <ele>1293.795</ele>
        <time>2011-06-26T13:51:52Z</time>
      </trkpt>
      <trkpt lat="45.44767" lon="5.90864">
        <ele>1290.573</ele>
        <time>2011-06-26T13:52:04Z</time>
      </trkpt>
      <trkpt lat="45.44766" lon="5.90864">
        <ele>1290.563</ele>
        <time>2011-06-26T13:52:05Z</time>
      </trkpt>
      <trkpt lat="45.44763" lon="5.90856">
        <ele>1289.557</ele>
        <time>2011-06-26T13:52:19Z</time>
      </trkpt>
      <trkpt lat="45.44755" lon="5.90846">
        <ele>1286.849</ele>
        <time>2011-06-26T13:52:41Z</time>
      </trkpt>
      <trkpt lat="45.44751" lon="5.90835">
        <ele>1283.649</ele>
        <time>2011-06-26T13:52:53Z</time>
      </trkpt>
      <trkpt lat="45.44751" lon="5.90828">
        <ele>1282.837</ele>
        <time>2011-06-26T13:53:07Z</time>
      </trkpt>
      <trkpt lat="45.44749" lon="5.90812">
        <ele>1280.559</ele>
        <time>2011-06-26T13:53:22Z</time>
      </trkpt>
      <trkpt lat="45.44748" lon="5.90801">
        <ele>1278.388</ele>
        <time>2011-06-26T13:53:32Z</time>
      </trkpt>
      <trkpt lat="45.44743" lon="5.9078">
        <ele>1275.628</ele>
        <time>2011-06-26T13:53:50Z</time>
      </trkpt>
      <trkpt lat="45.44738" lon="5.90766">
        <ele>1273.741</ele>
        <time>2011-06-26T13:54:04Z</time>
      </trkpt>
      <trkpt lat="45.44736" lon="5.90754">
        <ele>1272.128</ele>
        <time>2011-06-26T13:54:14Z</time>
      </trkpt>
      <trkpt lat="45.44734" lon="5.9073">
        <ele>1269.975</ele>
        <time>2011-06-26T13:54:33Z</time>
      </trkpt>
      <trkpt lat="45.44734" lon="5.90711">
        <ele>1266.954</ele>
        <time>2011-06-26T13:54:51Z</time>
      </trkpt>
      <trkpt lat="45.44737" lon="5.90698">
        <ele>1265.121</ele>
        <time>2011-06-26T13:55:02Z</time>
      </trkpt>
      <trkpt lat="45.4474" lon="5.90689">
        <ele>1263.089</ele>
        <time>2011-06-26T13:55:18Z</time>
      </trkpt>
      <trkpt lat="45.44743" lon="5.90671">
        <ele>1260.619</ele>
        <time>2011-06-26T13:55:37Z</time>
      </trkpt>
      <trkpt lat="45.44743" lon="5.90652">
        <ele>1257.548</ele>
        <time>2011-06-26T13:55:55Z</time>
      </trkpt>
      <trkpt lat="45.44746" lon="5.90636">
        <ele>1255.772</ele>
        <time>2011-06-26T13:56:21Z</time>
      </trkpt>
      <trkpt lat="45.44748" lon="5.90607">
        <ele>1252.551</ele>
        <time>2011-06-26T13:56:42Z</time>
      </trkpt>
      <trkpt lat="45.44752" lon="5.90586">
        <ele>1250.209</ele>
        <time>2011-06-26T13:56:59Z</time>
      </trkpt>
      <trkpt lat="45.44755" lon="5.90567">
        <ele>1247.154</ele>
        <time>2011-06-26T13:57:15Z</time>
      </trkpt>
      <trkpt lat="45.44759" lon="5.90549">
        <ele>1243.965</ele>
        <time>2011-06-26T13:57:31Z</time>
      </trkpt>
      <trkpt lat="45.44763" lon="5.90529">
        <ele>1240.813</ele>
        <time>2011-06-26T13:57:49Z</time>
      </trkpt>
      <trkpt lat="45.44769" lon="5.90515">
        <ele>1238.785</ele>
        <time>2011-06-26T13:58:02Z</time>
      </trkpt>
      <trkpt lat="45.44786" lon="5.9049">
        <ele>1235.408</ele>
        <time>2011-06-26T13:58:26Z</time>
      </trkpt>
      <trkpt lat="45.44783" lon="5.90479">
        <ele>1233.184</ele>
        <time>2011-06-26T13:58:43Z</time>
      </trkpt>
      <trkpt lat="45.44778" lon="5.90482">
        <ele>1232.323</ele>
        <time>2011-06-26T13:59:05Z</time>
      </trkpt>
      <trkpt lat="45.44767" lon="5.90484">
        <ele>1229.199</ele>
        <time>2011-06-26T13:59:19Z</time>
      </trkpt>
      <trkpt lat="45.44753" lon="5.90488">
        <ele>1225.558</ele>
        <time>2011-06-26T13:59:38Z</time>
      </trkpt>
      <trkpt lat="45.44746" lon="5.90488">
        <ele>1224.009</ele>
        <time>2011-06-26T13:59:47Z</time>
      </trkpt>
      <trkpt lat="45.44732" lon="5.90489">
        <ele>1221.36</ele>
        <time>2011-06-26T14:00:02Z</time>
      </trkpt>
      <trkpt lat="45.44717" lon="5.90492">
        <ele>1218.309</ele>
        <time>2011-06-26T14:00:17Z</time>
      </trkpt>
      <trkpt lat="45.44705" lon="5.90495">
        <ele>1215.921</ele>
        <time>2011-06-26T14:00:31Z</time>
      </trkpt>
      <trkpt lat="45.44689" lon="5.90497">
        <ele>1213.559</ele>
        <time>2011-06-26T14:00:49Z</time>
      </trkpt>
      <trkpt lat="45.44681" lon="5.90502">
        <ele>1210.546</ele>
        <time>2011-06-26T14:01:02Z</time>
      </trkpt>
      <trkpt lat="45.44679" lon="5.90505">
        <ele>1209.528</ele>
        <time>2011-06-26T14:01:06Z</time>
      </trkpt>
      <trkpt lat="45.4467" lon="5.90519">
        <ele>1206.769</ele>
        <time>2011-06-26T14:01:21Z</time>
      </trkpt>
      <trkpt lat="45.4467" lon="5.90543">
        <ele>1203.817</ele>
        <time>2011-06-26T14:01:40Z</time>
      </trkpt>
      <trkpt lat="45.44663" lon="5.90561">
        <ele>1200.655</ele>
        <time>2011-06-26T14:01:57Z</time>
      </trkpt>
      <trkpt lat="45.44657" lon="5.90586">
        <ele>1197.442</ele>
        <time>2011-06-26T14:02:17Z</time>
      </trkpt>
      <trkpt lat="45.4465" lon="5.90601">
        <ele>1195.56</ele>
        <time>2011-06-26T14:02:30Z</time>
      </trkpt>
      <trkpt lat="45.44643" lon="5.9061">
        <ele>1193.414</ele>
        <time>2011-06-26T14:02:40Z</time>
      </trkpt>
      <trkpt lat="45.44636" lon="5.90615">
        <ele>1191.624</ele>
        <time>2011-06-26T14:02:47Z</time>
      </trkpt>
      <trkpt lat="45.44633" lon="5.90618">
        <ele>1191.075</ele>
        <time>2011-06-26T14:02:50Z</time>
      </trkpt>
      <trkpt lat="45.44634" lon="5.90629">
        <ele>1189.419</ele>
        <time>2011-06-26T14:02:59Z</time>
      </trkpt>
      <trkpt lat="45.44631" lon="5.90632">
        <ele>1188.264</ele>
        <time>2011-06-26T14:03:04Z</time>
      </trkpt>
      <trkpt lat="45.44627" lon="5.90634">
        <ele>1187.1</ele>
        <time>2011-06-26T14:03:10Z</time>
      </trkpt>
      <trkpt lat="45.44617" lon="5.90641">
        <ele>1185.021</ele>
        <time>2011-06-26T14:03:20Z</time>
      </trkpt>
      <trkpt lat="45.44612" lon="5.90643">
        <ele>1184.19</ele>
        <time>2011-06-26T14:03:24Z</time>
      </trkpt>
      <trkpt lat="45.44603" lon="5.9065">
        <ele>1182.157</ele>
        <time>2011-06-26T14:03:36Z</time>
      </trkpt>
      <trkpt lat="45.446" lon="5.90649">
        <ele>1181.539</ele>
        <time>2011-06-26T14:03:39Z</time>
      </trkpt>
      <trkpt lat="45.44599" lon="5.90645">
        <ele>1181.048</ele>
        <time>2011-06-26T14:03:41Z</time>
      </trkpt>
      <trkpt lat="45.44598" lon="5.90638">
        <ele>1179.999</ele>
        <time>2011-06-26T14:03:46Z</time>
      </trkpt>
      <trkpt lat="45.44596" lon="5.90622">
        <ele>1178.362</ele>
        <time>2011-06-26T14:03:57Z</time>
      </trkpt>
      <trkpt lat="45.44585" lon="5.90614">
        <ele>1174.707</ele>
        <time>2011-06-26T14:04:11Z</time>
      </trkpt>
      <trkpt lat="45.44585" lon="5.90616">
        <ele>1174.426</ele>
        <time>2011-06-26T14:04:14Z</time>
      </trkpt>
      <trkpt lat="45.44579" lon="5.90627">
        <ele>1172.968</ele>
        <time>2011-06-26T14:04:25Z</time>
      </trkpt>
      <trkpt lat="45.44571" lon="5.90642">
        <ele>1170.945</ele>
        <time>2011-06-26T14:04:38Z</time>
      </trkpt>
      <trkpt lat="45.44568" lon="5.90646">
        <ele>1170.464</ele>
        <time>2011-06-26T14:04:41Z</time>
      </trkpt>
      <trkpt lat="45.44566" lon="5.90652">
        <ele>1170.439</ele>
        <time>2011-06-26T14:04:45Z</time>
      </trkpt>
      <trkpt lat="45.44563" lon="5.90659">
        <ele>1169.457</ele>
        <time>2011-06-26T14:04:52Z</time>
      </trkpt>
      <trkpt lat="45.44555" lon="5.90672">
        <ele>1166.921</ele>
        <time>2011-06-26T14:05:04Z</time>
      </trkpt>
      <trkpt lat="45.44553" lon="5.90673">
        <ele>1166.519</ele>
        <time>2011-06-26T14:05:05Z</time>
      </trkpt>
      <trkpt lat="45.4455" lon="5.90675">
        <ele>1165.958</ele>
        <time>2011-06-26T14:05:08Z</time>
      </trkpt>
      <trkpt lat="45.44552" lon="5.90679">
        <ele>1165.339</ele>
        <time>2011-06-26T14:05:11Z</time>
      </trkpt>
      <trkpt lat="45.44546" lon="5.9068">
        <ele>1164.15</ele>
        <time>2011-06-26T14:05:16Z</time>
      </trkpt>
      <trkpt lat="45.44543" lon="5.90684">
        <ele>1162.668</ele>
        <time>2011-06-26T14:05:23Z</time>
      </trkpt>
      <trkpt lat="45.44544" lon="5.90686">
        <ele>1162.436</ele>
        <time>2011-06-26T14:05:25Z</time>
      </trkpt>
      <trkpt lat="45.44534" lon="5.90695">
        <ele>1160.089</ele>
        <time>2011-06-26T14:05:37Z</time>
      </trkpt>
      <trkpt lat="45.44529" lon="5.90696">
        <ele>1159.206</ele>
        <time>2011-06-26T14:05:41Z</time>
      </trkpt>
      <trkpt lat="45.44519" lon="5.90706">
        <ele>1157.105</ele>
        <time>2011-06-26T14:05:54Z</time>
      </trkpt>
      <trkpt lat="45.44513" lon="5.90716">
        <ele>1154.857</ele>
        <time>2011-06-26T14:06:05Z</time>
      </trkpt>
      <trkpt lat="45.44513" lon="5.90721">
        <ele>1154.885</ele>
        <time>2011-06-26T14:06:08Z</time>
      </trkpt>
      <trkpt lat="45.44512" lon="5.90723">
        <ele>1154.379</ele>
        <time>2011-06-26T14:06:10Z</time>
      </trkpt>
      <trkpt lat="45.44512" lon="5.90725">
        <ele>1154.1</ele>
        <time>2011-06-26T14:06:12Z</time>
      </trkpt>
      <trkpt lat="45.44506" lon="5.90731">
        <ele>1153.635</ele>
        <time>2011-06-26T14:06:17Z</time>
      </trkpt>
      <trkpt lat="45.44501" lon="5.90732">
        <ele>1153.072</ele>
        <time>2011-06-26T14:06:20Z</time>
      </trkpt>
      <trkpt lat="45.44493" lon="5.90745">
        <ele>1151.51</ele>
        <time>2011-06-26T14:06:32Z</time>
      </trkpt>
      <trkpt lat="45.44489" lon="5.90748">
        <ele>1150.71</ele>
        <time>2011-06-26T14:06:37Z</time>
      </trkpt>
      <trkpt lat="45.44481" lon="5.90752">
        <ele>1149.607</ele>
        <time>2011-06-26T14:06:43Z</time>
      </trkpt>
      <trkpt lat="45.44473" lon="5.90753">
        <ele>1148.835</ele>
        <time>2011-06-26T14:06:48Z</time>
      </trkpt>
      <trkpt lat="45.44473" lon="5.90759">
        <ele>1147.707</ele>
        <time>2011-06-26T14:06:54Z</time>
      </trkpt>
      <trkpt lat="45.44467" lon="5.90762">
        <ele>1145.948</ele>
        <time>2011-06-26T14:07:04Z</time>
      </trkpt>
      <trkpt lat="45.44452" lon="5.90766">
        <ele>1143.541</ele>
        <time>2011-06-26T14:07:16Z</time>
      </trkpt>
      <trkpt lat="45.44447" lon="5.90768">
        <ele>1142.987</ele>
        <time>2011-06-26T14:07:21Z</time>
      </trkpt>
      <trkpt lat="45.44435" lon="5.90771">
        <ele>1142.031</ele>
        <time>2011-06-26T14:07:30Z</time>
      </trkpt>
      <trkpt lat="45.44429" lon="5.90771">
        <ele>1141.705</ele>
        <time>2011-06-26T14:07:33Z</time>
      </trkpt>
      <trkpt lat="45.44427" lon="5.90772">
        <ele>1141.356</ele>
        <time>2011-06-26T14:07:35Z</time>
      </trkpt>
      <trkpt lat="45.44418" lon="5.90776">
        <ele>1139.883</ele>
        <time>2011-06-26T14:07:44Z</time>
      </trkpt>
      <trkpt lat="45.44406" lon="5.90762">
        <ele>1138.408</ele>
        <time>2011-06-26T14:08:02Z</time>
      </trkpt>
      <trkpt lat="45.44409" lon="5.90746">
        <ele>1136.871</ele>
        <time>2011-06-26T14:08:14Z</time>
      </trkpt>
      <trkpt lat="45.44417" lon="5.90736">
        <ele>1134.952</ele>
        <time>2011-06-26T14:08:25Z</time>
      </trkpt>
      <trkpt lat="45.44421" lon="5.90741">
        <ele>1134.109</ele>
        <time>2011-06-26T14:08:45Z</time>
      </trkpt>
      <trkpt lat="45.44421" lon="5.90737">
        <ele>1133.919</ele>
        <time>2011-06-26T14:09:05Z</time>
      </trkpt>
      <trkpt lat="45.44423" lon="5.90731">
        <ele>1132.562</ele>
        <time>2011-06-26T14:09:09Z</time>
      </trkpt>
      <trkpt lat="45.44422" lon="5.90726">
        <ele>1132.221</ele>
        <time>2011-06-26T14:09:13Z</time>
      </trkpt>
      <trkpt lat="45.44421" lon="5.90718">
        <ele>1130.889</ele>
        <time>2011-06-26T14:09:19Z</time>
      </trkpt>
      <trkpt lat="45.44406" lon="5.90704">
        <ele>1129.223</ele>
        <time>2011-06-26T14:09:36Z</time>
      </trkpt>
      <trkpt lat="45.44397" lon="5.90697">
        <ele>1128.222</ele>
        <time>2011-06-26T14:09:47Z</time>
      </trkpt>
      <trkpt lat="45.44387" lon="5.90693">
        <ele>1127.791</ele>
        <time>2011-06-26T14:09:57Z</time>
      </trkpt>
      <trkpt lat="45.44385" lon="5.90693">
        <ele>1127.496</ele>
        <time>2011-06-26T14:09:59Z</time>
      </trkpt>
      <trkpt lat="45.44384" lon="5.90691">
        <ele>1127.229</ele>
        <time>2011-06-26T14:10:01Z</time>
      </trkpt>
      <trkpt lat="45.44379" lon="5.90681">
        <ele>1125.681</ele>
        <time>2011-06-26T14:10:09Z</time>
      </trkpt>
      <trkpt lat="45.44362" lon="5.90664">
        <ele>1123.316</ele>
        <time>2011-06-26T14:10:28Z</time>
      </trkpt>
      <trkpt lat="45.44361" lon="5.90663">
        <ele>1123.178</ele>
        <time>2011-06-26T14:10:29Z</time>
      </trkpt>
      <trkpt lat="45.44343" lon="5.90647">
        <ele>1121.718</ele>
        <time>2011-06-26T14:10:46Z</time>
      </trkpt>
      <trkpt lat="45.44326" lon="5.90634">
        <ele>1119.983</ele>
        <time>2011-06-26T14:11:04Z</time>
      </trkpt>
      <trkpt lat="45.44302" lon="5.90616">
        <ele>1117.706</ele>
        <time>2011-06-26T14:11:28Z</time>
      </trkpt>
      <trkpt lat="45.44285" lon="5.90605">
        <ele>1116.583</ele>
        <time>2011-06-26T14:11:45Z</time>
      </trkpt>
      <trkpt lat="45.4426" lon="5.90592">
        <ele>1115.5</ele>
        <time>2011-06-26T14:12:06Z</time>
      </trkpt>
      <trkpt lat="45.44246" lon="5.90577">
        <ele>1113.925</ele>
        <time>2011-06-26T14:12:23Z</time>
      </trkpt>
      <trkpt lat="45.44229" lon="5.90573">
        <ele>1114.203</ele>
        <time>2011-06-26T14:12:38Z</time>
      </trkpt>
      <trkpt lat="45.44215" lon="5.90568">
        <ele>1115.385</ele>
        <time>2011-06-26T14:12:52Z</time>
      </trkpt>
      <trkpt lat="45.44204" lon="5.90567">
        <ele>1116.723</ele>
        <time>2011-06-26T14:13:04Z</time>
      </trkpt>
      <trkpt lat="45.44194" lon="5.90567">
        <ele>1117.62</ele>
        <time>2011-06-26T14:13:20Z</time>
      </trkpt>
      <trkpt lat="45.44185" lon="5.90575">
        <ele>1119.474</ele>
        <time>2011-06-26T14:13:32Z</time>
      </trkpt>
      <trkpt lat="45.44175" lon="5.90585">
        <ele>1120.385</ele>
        <time>2011-06-26T14:13:47Z</time>
      </trkpt>
      <trkpt lat="45.44165" lon="5.90591">
        <ele>1121.255</ele>
        <time>2011-06-26T14:13:58Z</time>
      </trkpt>
      <trkpt lat="45.44152" lon="5.90591">
        <ele>1122.654</ele>
        <time>2011-06-26T14:14:10Z</time>
      </trkpt>
      <trkpt lat="45.44136" lon="5.90604">
        <ele>1124.116</ele>
        <time>2011-06-26T14:14:21Z</time>
      </trkpt>
      <trkpt lat="45.4413" lon="5.90616">
        <ele>1126.351</ele>
        <time>2011-06-26T14:14:38Z</time>
      </trkpt>
      <trkpt lat="45.44121" lon="5.90619">
        <ele>1127.008</ele>
        <time>2011-06-26T14:14:43Z</time>
      </trkpt>
      <trkpt lat="45.44119" lon="5.90621">
        <ele>1127.596</ele>
        <time>2011-06-26T14:14:46Z</time>
      </trkpt>
      <trkpt lat="45.44114" lon="5.90627">
        <ele>1128.044</ele>
        <time>2011-06-26T14:14:55Z</time>
      </trkpt>
      <trkpt lat="45.44111" lon="5.90633">
        <ele>1128.708</ele>
        <time>2011-06-26T14:15:00Z</time>
      </trkpt>
      <trkpt lat="45.44106" lon="5.90638">
        <ele>1129.314</ele>
        <time>2011-06-26T14:15:05Z</time>
      </trkpt>
      <trkpt lat="45.44105" lon="5.90641">
        <ele>1129.12</ele>
        <time>2011-06-26T14:15:08Z</time>
      </trkpt>
      <trkpt lat="45.44103" lon="5.90642">
        <ele>1129.138</ele>
        <time>2011-06-26T14:15:10Z</time>
      </trkpt>
      <trkpt lat="45.44101" lon="5.90645">
        <ele>1128.043</ele>
        <time>2011-06-26T14:15:24Z</time>
      </trkpt>
    </trkseg>
  </trk>
</gpx>